<?xml version="1.0" encoding="UTF-8" standalone="no"?><gpx creator="Openrider" version="1.1" xmlns="http://www.topografix.com/GPX/1/1" xmlns:xsi="http://www.w3.org/2001/XMLSchema-instance" xsi:schemaLocation="http://www.topografix.com/GPX/1/1 http://www.topografix.com/GPX/1/1/gpx.xsd http://www.garmin.com/xmlschemas/GpxExtensions/v3 http://www.garmin.com/xmlschemas/GpxExtensionsv3.xsd http://www.garmin.com/xmlschemas/TrackPointExtension/v1 http://www.garmin.com/xmlschemas/TrackPointExtensionv1.xsd http://www.garmin.com/xmlschemas/GpxExtensions/v3 http://www.garmin.com/xmlschemas/GpxExtensionsv3.xsd http://www.garmin.com/xmlschemas/TrackPointExtension/v1 http://www.garmin.com/xmlschemas/TrackPointExtensionv1.xsd http://www.garmin.com/xmlschemas/GpxExtensions/v3 http://www.garmin.com/xmlschemas/GpxExtensionsv3.xsd http://www.garmin.com/xmlschemas/TrackPointExtension/v1 http://www.garmin.com/xmlschemas/TrackPointExtensionv1.xsd http://www.garmin.com/xmlschemas/GpxExtensions/v3 http://www.garmin.com/xmlschemas/GpxExtensionsv3.xsd http://www.garmin.com/xmlschemas/TrackPointExtension/v1 http://www.garmin.com/xmlschemas/TrackPointExtensionv1.xsd http://www.garmin.com/xmlschemas/GpxExtensions/v3 http://www.garmin.com/xmlschemas/GpxExtensionsv3.xsd http://www.garmin.com/xmlschemas/TrackPointExtension/v1 http://www.garmin.com/xmlschemas/TrackPointExtensionv1.xsd" xmlns:gpxtpx="http://www.garmin.com/xmlschemas/TrackPointExtension/v1" xmlns:gpxx="http://www.garmin.com/xmlschemas/GpxExtensions/v3"><trk><name>16_20180825192253.gpx</name><trkseg><trkpt lat="34.27682363" lon="-6.59925171"><ele>68</ele><time>2018-08-25T19:22:57Z</time></trkpt><trkpt lat="34.27684401" lon="-6.59929272"><ele>68</ele><time>2018-08-25T19:22:58Z</time></trkpt><trkpt lat="34.27685722" lon="-6.59935178"><ele>68</ele><time>2018-08-25T19:22:59Z</time></trkpt><trkpt lat="34.27686299" lon="-6.59942514"><ele>67</ele><time>2018-08-25T19:23:00Z</time></trkpt><trkpt lat="34.27687717" lon="-6.59948636"><ele>65</ele><time>2018-08-25T19:23:01Z</time></trkpt><trkpt lat="34.27688692" lon="-6.59953099"><ele>65</ele><time>2018-08-25T19:23:02Z</time></trkpt><trkpt lat="34.27689984" lon="-6.59959569"><ele>68</ele><time>2018-08-25T19:23:03Z</time></trkpt><trkpt lat="34.27690635" lon="-6.59963885"><ele>67</ele><time>2018-08-25T19:23:04Z</time></trkpt><trkpt lat="34.27690992" lon="-6.59968497"><ele>69</ele><time>2018-08-25T19:23:05Z</time></trkpt><trkpt lat="34.27692612" lon="-6.59973791"><ele>69</ele><time>2018-08-25T19:23:06Z</time></trkpt><trkpt lat="34.2769369" lon="-6.59978452"><ele>69</ele><time>2018-08-25T19:23:07Z</time></trkpt><trkpt lat="34.27694251" lon="-6.59984878"><ele>69</ele><time>2018-08-25T19:23:08Z</time></trkpt><trkpt lat="34.27694868" lon="-6.59991256"><ele>69</ele><time>2018-08-25T19:23:09Z</time></trkpt><trkpt lat="34.27695068" lon="-6.59995395"><ele>71</ele><time>2018-08-25T19:23:10Z</time></trkpt><trkpt lat="34.27697266" lon="-6.60000969"><ele>70</ele><time>2018-08-25T19:23:11Z</time></trkpt><trkpt lat="34.27697836" lon="-6.60007475"><ele>70</ele><time>2018-08-25T19:23:12Z</time></trkpt><trkpt lat="34.2769871" lon="-6.60013762"><ele>73</ele><time>2018-08-25T19:23:13Z</time></trkpt><trkpt lat="34.27699209" lon="-6.60019042"><ele>69</ele><time>2018-08-25T19:23:14Z</time></trkpt><trkpt lat="34.2769937" lon="-6.60025931"><ele>71</ele><time>2018-08-25T19:23:15Z</time></trkpt><trkpt lat="34.2770073" lon="-6.60031889"><ele>73</ele><time>2018-08-25T19:23:16Z</time></trkpt><trkpt lat="34.27701981" lon="-6.60037818"><ele>73</ele><time>2018-08-25T19:23:17Z</time></trkpt><trkpt lat="34.27702826" lon="-6.60044624"><ele>74</ele><time>2018-08-25T19:23:18Z</time></trkpt><trkpt lat="34.2770352" lon="-6.60050962"><ele>75</ele><time>2018-08-25T19:23:19Z</time></trkpt><trkpt lat="34.27704819" lon="-6.60057841"><ele>76</ele><time>2018-08-25T19:23:20Z</time></trkpt><trkpt lat="34.27705809" lon="-6.6006202"><ele>77</ele><time>2018-08-25T19:23:21Z</time></trkpt><trkpt lat="34.27705791" lon="-6.60067263"><ele>75</ele><time>2018-08-25T19:23:22Z</time></trkpt><trkpt lat="34.27707061" lon="-6.60073554"><ele>75</ele><time>2018-08-25T19:23:23Z</time></trkpt><trkpt lat="34.27708647" lon="-6.60081211"><ele>75</ele><time>2018-08-25T19:23:24Z</time></trkpt><trkpt lat="34.27709794" lon="-6.60088896"><ele>75</ele><time>2018-08-25T19:23:25Z</time></trkpt><trkpt lat="34.27710756" lon="-6.60094636"><ele>76</ele><time>2018-08-25T19:23:26Z</time></trkpt><trkpt lat="34.27710938" lon="-6.60100098"><ele>76</ele><time>2018-08-25T19:23:27Z</time></trkpt><trkpt lat="34.27711393" lon="-6.6010685"><ele>77</ele><time>2018-08-25T19:23:28Z</time></trkpt><trkpt lat="34.27711861" lon="-6.60112743"><ele>77</ele><time>2018-08-25T19:23:29Z</time></trkpt><trkpt lat="34.27713179" lon="-6.60119726"><ele>77</ele><time>2018-08-25T19:23:30Z</time></trkpt><trkpt lat="34.27714028" lon="-6.60126498"><ele>79</ele><time>2018-08-25T19:23:31Z</time></trkpt><trkpt lat="34.27713737" lon="-6.60132199"><ele>79</ele><time>2018-08-25T19:23:32Z</time></trkpt><trkpt lat="34.27714396" lon="-6.60139447"><ele>79</ele><time>2018-08-25T19:23:33Z</time></trkpt><trkpt lat="34.27714697" lon="-6.6014582"><ele>77</ele><time>2018-08-25T19:23:34Z</time></trkpt><trkpt lat="34.27715235" lon="-6.60152383"><ele>76</ele><time>2018-08-25T19:23:35Z</time></trkpt><trkpt lat="34.27716286" lon="-6.60159271"><ele>76</ele><time>2018-08-25T19:23:36Z</time></trkpt><trkpt lat="34.27717542" lon="-6.60166039"><ele>77</ele><time>2018-08-25T19:23:37Z</time></trkpt><trkpt lat="34.27718379" lon="-6.60173211"><ele>76</ele><time>2018-08-25T19:23:38Z</time></trkpt><trkpt lat="34.2771882" lon="-6.60180518"><ele>75</ele><time>2018-08-25T19:23:39Z</time></trkpt><trkpt lat="34.27718565" lon="-6.60186087"><ele>78</ele><time>2018-08-25T19:23:40Z</time></trkpt><trkpt lat="34.27718832" lon="-6.60192997"><ele>76</ele><time>2018-08-25T19:23:41Z</time></trkpt><trkpt lat="34.277192" lon="-6.6019914"><ele>77</ele><time>2018-08-25T19:23:42Z</time></trkpt><trkpt lat="34.27723491" lon="-6.60205366"><ele>77</ele><time>2018-08-25T19:23:43Z</time></trkpt><trkpt lat="34.27724622" lon="-6.60212536"><ele>75</ele><time>2018-08-25T19:23:44Z</time></trkpt><trkpt lat="34.27724085" lon="-6.60219449"><ele>74</ele><time>2018-08-25T19:23:45Z</time></trkpt><trkpt lat="34.27724277" lon="-6.60226875"><ele>73</ele><time>2018-08-25T19:23:46Z</time></trkpt><trkpt lat="34.27723507" lon="-6.6023374"><ele>75</ele><time>2018-08-25T19:23:47Z</time></trkpt><trkpt lat="34.27719826" lon="-6.60241747"><ele>75</ele><time>2018-08-25T19:23:48Z</time></trkpt><trkpt lat="34.27718241" lon="-6.60248735"><ele>75</ele><time>2018-08-25T19:23:49Z</time></trkpt><trkpt lat="34.27717618" lon="-6.60255788"><ele>74</ele><time>2018-08-25T19:23:50Z</time></trkpt><trkpt lat="34.27715995" lon="-6.60261467"><ele>74</ele><time>2018-08-25T19:23:51Z</time></trkpt><trkpt lat="34.27714976" lon="-6.60268284"><ele>73</ele><time>2018-08-25T19:23:52Z</time></trkpt><trkpt lat="34.27714034" lon="-6.60275499"><ele>72</ele><time>2018-08-25T19:23:53Z</time></trkpt><trkpt lat="34.27711968" lon="-6.60281187"><ele>71</ele><time>2018-08-25T19:23:54Z</time></trkpt><trkpt lat="34.27710369" lon="-6.60288273"><ele>72</ele><time>2018-08-25T19:23:55Z</time></trkpt><trkpt lat="34.27709447" lon="-6.60296026"><ele>72</ele><time>2018-08-25T19:23:56Z</time></trkpt><trkpt lat="34.2770739" lon="-6.60302368"><ele>72</ele><time>2018-08-25T19:23:57Z</time></trkpt><trkpt lat="34.27705642" lon="-6.60309217"><ele>72</ele><time>2018-08-25T19:23:58Z</time></trkpt><trkpt lat="34.27704196" lon="-6.60315884"><ele>72</ele><time>2018-08-25T19:23:59Z</time></trkpt><trkpt lat="34.2770273" lon="-6.60322752"><ele>71</ele><time>2018-08-25T19:24:00Z</time></trkpt><trkpt lat="34.27701655" lon="-6.60329153"><ele>72</ele><time>2018-08-25T19:24:01Z</time></trkpt><trkpt lat="34.27700952" lon="-6.60334304"><ele>73</ele><time>2018-08-25T19:24:02Z</time></trkpt><trkpt lat="34.27700418" lon="-6.60341025"><ele>72</ele><time>2018-08-25T19:24:03Z</time></trkpt><trkpt lat="34.27699131" lon="-6.60348277"><ele>74</ele><time>2018-08-25T19:24:04Z</time></trkpt><trkpt lat="34.27697906" lon="-6.60355158"><ele>75</ele><time>2018-08-25T19:24:05Z</time></trkpt><trkpt lat="34.2769667" lon="-6.6036202"><ele>76</ele><time>2018-08-25T19:24:06Z</time></trkpt><trkpt lat="34.27695414" lon="-6.60369011"><ele>76</ele><time>2018-08-25T19:24:07Z</time></trkpt><trkpt lat="34.27694957" lon="-6.60375545"><ele>77</ele><time>2018-08-25T19:24:08Z</time></trkpt><trkpt lat="34.27693509" lon="-6.60383812"><ele>77</ele><time>2018-08-25T19:24:09Z</time></trkpt><trkpt lat="34.27692362" lon="-6.60389152"><ele>79</ele><time>2018-08-25T19:24:10Z</time></trkpt><trkpt lat="34.27690965" lon="-6.60394715"><ele>78</ele><time>2018-08-25T19:24:11Z</time></trkpt><trkpt lat="34.27689574" lon="-6.604002"><ele>78</ele><time>2018-08-25T19:24:12Z</time></trkpt><trkpt lat="34.27688298" lon="-6.60407717"><ele>78</ele><time>2018-08-25T19:24:13Z</time></trkpt><trkpt lat="34.27686852" lon="-6.60412812"><ele>79</ele><time>2018-08-25T19:24:14Z</time></trkpt><trkpt lat="34.27685846" lon="-6.6041991"><ele>78</ele><time>2018-08-25T19:24:15Z</time></trkpt><trkpt lat="34.27687151" lon="-6.60428497"><ele>80</ele><time>2018-08-25T19:24:16Z</time></trkpt><trkpt lat="34.27686925" lon="-6.60435209"><ele>78</ele><time>2018-08-25T19:24:17Z</time></trkpt><trkpt lat="34.2768598" lon="-6.60440362"><ele>79</ele><time>2018-08-25T19:24:18Z</time></trkpt><trkpt lat="34.2768445" lon="-6.6044536"><ele>79</ele><time>2018-08-25T19:24:19Z</time></trkpt><trkpt lat="34.27683276" lon="-6.60450786"><ele>79</ele><time>2018-08-25T19:24:20Z</time></trkpt><trkpt lat="34.27682186" lon="-6.60456832"><ele>80</ele><time>2018-08-25T19:24:21Z</time></trkpt><trkpt lat="34.27685465" lon="-6.60464473"><ele>80</ele><time>2018-08-25T19:24:22Z</time></trkpt><trkpt lat="34.27685021" lon="-6.60468255"><ele>75</ele><time>2018-08-25T19:24:23Z</time></trkpt><trkpt lat="34.27684282" lon="-6.60472587"><ele>74</ele><time>2018-08-25T19:24:24Z</time></trkpt><trkpt lat="34.27683403" lon="-6.60476888"><ele>74</ele><time>2018-08-25T19:24:25Z</time></trkpt><trkpt lat="34.2768078" lon="-6.60482948"><ele>74</ele><time>2018-08-25T19:24:26Z</time></trkpt><trkpt lat="34.27680107" lon="-6.60487469"><ele>79</ele><time>2018-08-25T19:24:27Z</time></trkpt><trkpt lat="34.27680052" lon="-6.60492296"><ele>79</ele><time>2018-08-25T19:24:28Z</time></trkpt><trkpt lat="34.27679076" lon="-6.60499995"><ele>78</ele><time>2018-08-25T19:24:29Z</time></trkpt><trkpt lat="34.27678664" lon="-6.60507072"><ele>81</ele><time>2018-08-25T19:24:30Z</time></trkpt><trkpt lat="34.27680172" lon="-6.60511375"><ele>83</ele><time>2018-08-25T19:24:31Z</time></trkpt><trkpt lat="34.27680692" lon="-6.60516743"><ele>82</ele><time>2018-08-25T19:24:32Z</time></trkpt><trkpt lat="34.27683169" lon="-6.60522009"><ele>82</ele><time>2018-08-25T19:24:33Z</time></trkpt><trkpt lat="34.27685808" lon="-6.60528748"><ele>83</ele><time>2018-08-25T19:24:34Z</time></trkpt><trkpt lat="34.27687169" lon="-6.60532861"><ele>83</ele><time>2018-08-25T19:24:35Z</time></trkpt><trkpt lat="34.27687643" lon="-6.6053799"><ele>83</ele><time>2018-08-25T19:24:36Z</time></trkpt><trkpt lat="34.27690103" lon="-6.60542848"><ele>84</ele><time>2018-08-25T19:24:37Z</time></trkpt><trkpt lat="34.27692018" lon="-6.60548176"><ele>84</ele><time>2018-08-25T19:24:38Z</time></trkpt><trkpt lat="34.27694284" lon="-6.60554089"><ele>84</ele><time>2018-08-25T19:24:39Z</time></trkpt><trkpt lat="34.27696224" lon="-6.60560075"><ele>85</ele><time>2018-08-25T19:24:40Z</time></trkpt><trkpt lat="34.27700396" lon="-6.60565904"><ele>86</ele><time>2018-08-25T19:24:41Z</time></trkpt><trkpt lat="34.27703017" lon="-6.60571431"><ele>83</ele><time>2018-08-25T19:24:42Z</time></trkpt><trkpt lat="34.27704972" lon="-6.6057676"><ele>82</ele><time>2018-08-25T19:24:43Z</time></trkpt><trkpt lat="34.27707013" lon="-6.60579839"><ele>84</ele><time>2018-08-25T19:24:44Z</time></trkpt><trkpt lat="34.27709535" lon="-6.60584348"><ele>83</ele><time>2018-08-25T19:24:45Z</time></trkpt><trkpt lat="34.27711454" lon="-6.60587427"><ele>83</ele><time>2018-08-25T19:24:46Z</time></trkpt><trkpt lat="34.27713731" lon="-6.60591827"><ele>81</ele><time>2018-08-25T19:24:47Z</time></trkpt><trkpt lat="34.27716344" lon="-6.60597851"><ele>81</ele><time>2018-08-25T19:24:48Z</time></trkpt><trkpt lat="34.27718709" lon="-6.60602606"><ele>81</ele><time>2018-08-25T19:24:49Z</time></trkpt><trkpt lat="34.27720431" lon="-6.60606317"><ele>81</ele><time>2018-08-25T19:24:50Z</time></trkpt><trkpt lat="34.27722714" lon="-6.60610731"><ele>80</ele><time>2018-08-25T19:24:51Z</time></trkpt><trkpt lat="34.27725498" lon="-6.60616382"><ele>81</ele><time>2018-08-25T19:24:52Z</time></trkpt><trkpt lat="34.27726853" lon="-6.60621508"><ele>80</ele><time>2018-08-25T19:24:53Z</time></trkpt><trkpt lat="34.27729002" lon="-6.60625588"><ele>82</ele><time>2018-08-25T19:24:54Z</time></trkpt><trkpt lat="34.27731937" lon="-6.60630712"><ele>81</ele><time>2018-08-25T19:24:55Z</time></trkpt><trkpt lat="34.27733693" lon="-6.60635796"><ele>79</ele><time>2018-08-25T19:24:56Z</time></trkpt><trkpt lat="34.27734705" lon="-6.60640346"><ele>79</ele><time>2018-08-25T19:24:57Z</time></trkpt><trkpt lat="34.27736354" lon="-6.60645699"><ele>79</ele><time>2018-08-25T19:24:58Z</time></trkpt><trkpt lat="34.27737488" lon="-6.60651821"><ele>80</ele><time>2018-08-25T19:24:59Z</time></trkpt><trkpt lat="34.27738992" lon="-6.60659732"><ele>81</ele><time>2018-08-25T19:25:00Z</time></trkpt><trkpt lat="34.27740958" lon="-6.6066318"><ele>82</ele><time>2018-08-25T19:25:01Z</time></trkpt><trkpt lat="34.27741617" lon="-6.60670871"><ele>80</ele><time>2018-08-25T19:25:02Z</time></trkpt><trkpt lat="34.27742016" lon="-6.60675836"><ele>80</ele><time>2018-08-25T19:25:03Z</time></trkpt><trkpt lat="34.27742156" lon="-6.60681468"><ele>80</ele><time>2018-08-25T19:25:04Z</time></trkpt><trkpt lat="34.27742202" lon="-6.60686972"><ele>79</ele><time>2018-08-25T19:25:05Z</time></trkpt><trkpt lat="34.27741318" lon="-6.60693267"><ele>79</ele><time>2018-08-25T19:25:06Z</time></trkpt><trkpt lat="34.27740257" lon="-6.60698"><ele>78</ele><time>2018-08-25T19:25:07Z</time></trkpt><trkpt lat="34.27738824" lon="-6.60702687"><ele>79</ele><time>2018-08-25T19:25:08Z</time></trkpt><trkpt lat="34.27737448" lon="-6.60707648"><ele>79</ele><time>2018-08-25T19:25:09Z</time></trkpt><trkpt lat="34.27735592" lon="-6.60710904"><ele>79</ele><time>2018-08-25T19:25:10Z</time></trkpt><trkpt lat="34.27733486" lon="-6.60714812"><ele>77</ele><time>2018-08-25T19:25:11Z</time></trkpt><trkpt lat="34.27731923" lon="-6.60718131"><ele>76</ele><time>2018-08-25T19:25:12Z</time></trkpt><trkpt lat="34.27730639" lon="-6.60722898"><ele>79</ele><time>2018-08-25T19:25:13Z</time></trkpt><trkpt lat="34.27729144" lon="-6.60728678"><ele>80</ele><time>2018-08-25T19:25:14Z</time></trkpt><trkpt lat="34.27726292" lon="-6.60736069"><ele>80</ele><time>2018-08-25T19:25:15Z</time></trkpt><trkpt lat="34.27725361" lon="-6.60740885"><ele>82</ele><time>2018-08-25T19:25:16Z</time></trkpt><trkpt lat="34.27724272" lon="-6.60746005"><ele>81</ele><time>2018-08-25T19:25:17Z</time></trkpt><trkpt lat="34.27721809" lon="-6.60752134"><ele>81</ele><time>2018-08-25T19:25:18Z</time></trkpt><trkpt lat="34.27719639" lon="-6.60757503"><ele>81</ele><time>2018-08-25T19:25:19Z</time></trkpt><trkpt lat="34.27717793" lon="-6.60762845"><ele>80</ele><time>2018-08-25T19:25:20Z</time></trkpt><trkpt lat="34.27715815" lon="-6.6077036"><ele>82</ele><time>2018-08-25T19:25:21Z</time></trkpt><trkpt lat="34.27714344" lon="-6.60774844"><ele>80</ele><time>2018-08-25T19:25:22Z</time></trkpt><trkpt lat="34.27713016" lon="-6.60779813"><ele>83</ele><time>2018-08-25T19:25:23Z</time></trkpt><trkpt lat="34.27711901" lon="-6.60784779"><ele>84</ele><time>2018-08-25T19:25:24Z</time></trkpt><trkpt lat="34.27709011" lon="-6.60789773"><ele>84</ele><time>2018-08-25T19:25:25Z</time></trkpt><trkpt lat="34.27707005" lon="-6.60794017"><ele>87</ele><time>2018-08-25T19:25:26Z</time></trkpt><trkpt lat="34.27706464" lon="-6.60798936"><ele>86</ele><time>2018-08-25T19:25:27Z</time></trkpt><trkpt lat="34.27704878" lon="-6.60805289"><ele>88</ele><time>2018-08-25T19:25:28Z</time></trkpt><trkpt lat="34.27704347" lon="-6.60811282"><ele>89</ele><time>2018-08-25T19:25:29Z</time></trkpt><trkpt lat="34.27702979" lon="-6.60816568"><ele>90</ele><time>2018-08-25T19:25:30Z</time></trkpt><trkpt lat="34.27703775" lon="-6.60823155"><ele>91</ele><time>2018-08-25T19:25:31Z</time></trkpt><trkpt lat="34.2770217" lon="-6.60828638"><ele>90</ele><time>2018-08-25T19:25:32Z</time></trkpt><trkpt lat="34.27700707" lon="-6.60834342"><ele>90</ele><time>2018-08-25T19:25:33Z</time></trkpt><trkpt lat="34.27699971" lon="-6.60838685"><ele>89</ele><time>2018-08-25T19:25:34Z</time></trkpt><trkpt lat="34.27698752" lon="-6.60845329"><ele>87</ele><time>2018-08-25T19:25:35Z</time></trkpt><trkpt lat="34.27694404" lon="-6.60849539"><ele>89</ele><time>2018-08-25T19:25:36Z</time></trkpt><trkpt lat="34.27692446" lon="-6.60854937"><ele>92</ele><time>2018-08-25T19:25:37Z</time></trkpt><trkpt lat="34.27690833" lon="-6.60860012"><ele>92</ele><time>2018-08-25T19:25:38Z</time></trkpt><trkpt lat="34.27689165" lon="-6.6086548"><ele>93</ele><time>2018-08-25T19:25:39Z</time></trkpt><trkpt lat="34.27688249" lon="-6.60871185"><ele>93</ele><time>2018-08-25T19:25:40Z</time></trkpt><trkpt lat="34.27688246" lon="-6.60875376"><ele>92</ele><time>2018-08-25T19:25:41Z</time></trkpt><trkpt lat="34.27687255" lon="-6.60882499"><ele>90</ele><time>2018-08-25T19:25:42Z</time></trkpt><trkpt lat="34.27686421" lon="-6.60888137"><ele>90</ele><time>2018-08-25T19:25:43Z</time></trkpt><trkpt lat="34.27683025" lon="-6.60890807"><ele>89</ele><time>2018-08-25T19:25:44Z</time></trkpt><trkpt lat="34.27681447" lon="-6.60896153"><ele>93</ele><time>2018-08-25T19:25:45Z</time></trkpt><trkpt lat="34.27679088" lon="-6.6089975"><ele>93</ele><time>2018-08-25T19:25:46Z</time></trkpt><trkpt lat="34.27677416" lon="-6.6090466"><ele>90</ele><time>2018-08-25T19:25:47Z</time></trkpt><trkpt lat="34.27675523" lon="-6.60911411"><ele>90</ele><time>2018-08-25T19:25:48Z</time></trkpt><trkpt lat="34.27674124" lon="-6.6091606"><ele>93</ele><time>2018-08-25T19:25:49Z</time></trkpt><trkpt lat="34.27673718" lon="-6.60920613"><ele>93</ele><time>2018-08-25T19:25:50Z</time></trkpt><trkpt lat="34.27672282" lon="-6.60925657"><ele>90</ele><time>2018-08-25T19:25:51Z</time></trkpt><trkpt lat="34.27672737" lon="-6.60933789"><ele>91</ele><time>2018-08-25T19:25:52Z</time></trkpt><trkpt lat="34.27670671" lon="-6.6093858"><ele>91</ele><time>2018-08-25T19:25:53Z</time></trkpt><trkpt lat="34.27668524" lon="-6.60944015"><ele>91</ele><time>2018-08-25T19:25:54Z</time></trkpt><trkpt lat="34.27666821" lon="-6.60948116"><ele>93</ele><time>2018-08-25T19:25:55Z</time></trkpt><trkpt lat="34.2766511" lon="-6.60952943"><ele>93</ele><time>2018-08-25T19:25:56Z</time></trkpt><trkpt lat="34.27663203" lon="-6.60959438"><ele>93</ele><time>2018-08-25T19:25:57Z</time></trkpt><trkpt lat="34.27660748" lon="-6.60964517"><ele>93</ele><time>2018-08-25T19:25:58Z</time></trkpt><trkpt lat="34.27658344" lon="-6.60969134"><ele>92</ele><time>2018-08-25T19:25:59Z</time></trkpt><trkpt lat="34.27655556" lon="-6.60973602"><ele>91</ele><time>2018-08-25T19:26:00Z</time></trkpt><trkpt lat="34.27653099" lon="-6.60978654"><ele>91</ele><time>2018-08-25T19:26:01Z</time></trkpt><trkpt lat="34.27650799" lon="-6.60984338"><ele>92</ele><time>2018-08-25T19:26:02Z</time></trkpt><trkpt lat="34.27648486" lon="-6.60989822"><ele>92</ele><time>2018-08-25T19:26:03Z</time></trkpt><trkpt lat="34.27646523" lon="-6.60995575"><ele>91</ele><time>2018-08-25T19:26:04Z</time></trkpt><trkpt lat="34.27644063" lon="-6.61001344"><ele>92</ele><time>2018-08-25T19:26:05Z</time></trkpt><trkpt lat="34.27641625" lon="-6.61006813"><ele>92</ele><time>2018-08-25T19:26:06Z</time></trkpt><trkpt lat="34.2763918" lon="-6.6101263"><ele>92</ele><time>2018-08-25T19:26:07Z</time></trkpt><trkpt lat="34.27636636" lon="-6.61018592"><ele>92</ele><time>2018-08-25T19:26:08Z</time></trkpt><trkpt lat="34.27634677" lon="-6.61023778"><ele>91</ele><time>2018-08-25T19:26:09Z</time></trkpt><trkpt lat="34.27631749" lon="-6.61029847"><ele>90</ele><time>2018-08-25T19:26:10Z</time></trkpt><trkpt lat="34.27629413" lon="-6.61036107"><ele>91</ele><time>2018-08-25T19:26:11Z</time></trkpt><trkpt lat="34.2762748" lon="-6.61042752"><ele>90</ele><time>2018-08-25T19:26:12Z</time></trkpt><trkpt lat="34.27624602" lon="-6.61048019"><ele>89</ele><time>2018-08-25T19:26:13Z</time></trkpt><trkpt lat="34.2762175" lon="-6.61053963"><ele>88</ele><time>2018-08-25T19:26:14Z</time></trkpt><trkpt lat="34.27618803" lon="-6.61059413"><ele>88</ele><time>2018-08-25T19:26:15Z</time></trkpt><trkpt lat="34.27615857" lon="-6.6106589"><ele>88</ele><time>2018-08-25T19:26:16Z</time></trkpt><trkpt lat="34.27612527" lon="-6.6107275"><ele>89</ele><time>2018-08-25T19:26:17Z</time></trkpt><trkpt lat="34.27609516" lon="-6.6107973"><ele>90</ele><time>2018-08-25T19:26:18Z</time></trkpt><trkpt lat="34.2760807" lon="-6.61083715"><ele>90</ele><time>2018-08-25T19:26:19Z</time></trkpt><trkpt lat="34.27604824" lon="-6.61088352"><ele>91</ele><time>2018-08-25T19:26:20Z</time></trkpt><trkpt lat="34.27601189" lon="-6.6109329"><ele>90</ele><time>2018-08-25T19:26:21Z</time></trkpt><trkpt lat="34.27597958" lon="-6.61099395"><ele>89</ele><time>2018-08-25T19:26:22Z</time></trkpt><trkpt lat="34.27594677" lon="-6.61105264"><ele>91</ele><time>2018-08-25T19:26:23Z</time></trkpt><trkpt lat="34.27591854" lon="-6.61111381"><ele>92</ele><time>2018-08-25T19:26:24Z</time></trkpt><trkpt lat="34.27589212" lon="-6.61118044"><ele>93</ele><time>2018-08-25T19:26:25Z</time></trkpt><trkpt lat="34.27586684" lon="-6.61123906"><ele>94</ele><time>2018-08-25T19:26:26Z</time></trkpt><trkpt lat="34.27583966" lon="-6.6113078"><ele>94</ele><time>2018-08-25T19:26:27Z</time></trkpt><trkpt lat="34.27581361" lon="-6.61136679"><ele>96</ele><time>2018-08-25T19:26:28Z</time></trkpt><trkpt lat="34.27578591" lon="-6.61142511"><ele>97</ele><time>2018-08-25T19:26:29Z</time></trkpt><trkpt lat="34.27575647" lon="-6.61148229"><ele>97</ele><time>2018-08-25T19:26:30Z</time></trkpt><trkpt lat="34.27572816" lon="-6.61153914"><ele>97</ele><time>2018-08-25T19:26:31Z</time></trkpt><trkpt lat="34.27569204" lon="-6.61159167"><ele>97</ele><time>2018-08-25T19:26:32Z</time></trkpt><trkpt lat="34.27567154" lon="-6.61164965"><ele>97</ele><time>2018-08-25T19:26:33Z</time></trkpt><trkpt lat="34.2756554" lon="-6.61169117"><ele>97</ele><time>2018-08-25T19:26:34Z</time></trkpt><trkpt lat="34.27563102" lon="-6.61174486"><ele>94</ele><time>2018-08-25T19:26:35Z</time></trkpt><trkpt lat="34.27561671" lon="-6.61180954"><ele>94</ele><time>2018-08-25T19:26:36Z</time></trkpt><trkpt lat="34.27558418" lon="-6.6118601"><ele>91</ele><time>2018-08-25T19:26:37Z</time></trkpt><trkpt lat="34.2755537" lon="-6.611914"><ele>91</ele><time>2018-08-25T19:26:38Z</time></trkpt><trkpt lat="34.27552241" lon="-6.61198534"><ele>91</ele><time>2018-08-25T19:26:39Z</time></trkpt><trkpt lat="34.27551067" lon="-6.61205733"><ele>91</ele><time>2018-08-25T19:26:40Z</time></trkpt><trkpt lat="34.27548751" lon="-6.61212714"><ele>92</ele><time>2018-08-25T19:26:41Z</time></trkpt><trkpt lat="34.27547043" lon="-6.61221537"><ele>92</ele><time>2018-08-25T19:26:42Z</time></trkpt><trkpt lat="34.27545446" lon="-6.61228408"><ele>89</ele><time>2018-08-25T19:26:43Z</time></trkpt><trkpt lat="34.27542067" lon="-6.61234844"><ele>87</ele><time>2018-08-25T19:26:44Z</time></trkpt><trkpt lat="34.27540068" lon="-6.61241747"><ele>87</ele><time>2018-08-25T19:26:45Z</time></trkpt><trkpt lat="34.27536326" lon="-6.61248986"><ele>89</ele><time>2018-08-25T19:26:46Z</time></trkpt><trkpt lat="34.27533164" lon="-6.61256635"><ele>89</ele><time>2018-08-25T19:26:47Z</time></trkpt><trkpt lat="34.27531038" lon="-6.61260371"><ele>89</ele><time>2018-08-25T19:26:48Z</time></trkpt><trkpt lat="34.27528446" lon="-6.61267372"><ele>89</ele><time>2018-08-25T19:26:49Z</time></trkpt><trkpt lat="34.27525807" lon="-6.61273604"><ele>89</ele><time>2018-08-25T19:26:50Z</time></trkpt><trkpt lat="34.27523861" lon="-6.61278725"><ele>90</ele><time>2018-08-25T19:26:51Z</time></trkpt><trkpt lat="34.27521453" lon="-6.6128528"><ele>88</ele><time>2018-08-25T19:26:52Z</time></trkpt><trkpt lat="34.27516202" lon="-6.61290459"><ele>88</ele><time>2018-08-25T19:26:53Z</time></trkpt><trkpt lat="34.27514894" lon="-6.61296054"><ele>87</ele><time>2018-08-25T19:26:54Z</time></trkpt><trkpt lat="34.27512083" lon="-6.61302968"><ele>87</ele><time>2018-08-25T19:26:55Z</time></trkpt><trkpt lat="34.27509402" lon="-6.61309643"><ele>87</ele><time>2018-08-25T19:26:56Z</time></trkpt><trkpt lat="34.27506507" lon="-6.61316018"><ele>88</ele><time>2018-08-25T19:26:57Z</time></trkpt><trkpt lat="34.27504125" lon="-6.61322384"><ele>70</ele><time>2018-08-25T19:26:58Z</time></trkpt><trkpt lat="34.2750075" lon="-6.61328484"><ele>75</ele><time>2018-08-25T19:26:59Z</time></trkpt><trkpt lat="34.27497437" lon="-6.61335321"><ele>78</ele><time>2018-08-25T19:27:00Z</time></trkpt><trkpt lat="34.27495401" lon="-6.61343436"><ele>81</ele><time>2018-08-25T19:27:01Z</time></trkpt><trkpt lat="34.27492987" lon="-6.61350416"><ele>81</ele><time>2018-08-25T19:27:02Z</time></trkpt><trkpt lat="34.27490125" lon="-6.61357301"><ele>82</ele><time>2018-08-25T19:27:03Z</time></trkpt><trkpt lat="34.27488031" lon="-6.61364714"><ele>83</ele><time>2018-08-25T19:27:04Z</time></trkpt><trkpt lat="34.27485481" lon="-6.6137159"><ele>82</ele><time>2018-08-25T19:27:05Z</time></trkpt><trkpt lat="34.27483044" lon="-6.61378255"><ele>84</ele><time>2018-08-25T19:27:06Z</time></trkpt><trkpt lat="34.27480287" lon="-6.61386012"><ele>86</ele><time>2018-08-25T19:27:07Z</time></trkpt><trkpt lat="34.27478428" lon="-6.61393979"><ele>87</ele><time>2018-08-25T19:27:08Z</time></trkpt><trkpt lat="34.27478096" lon="-6.61403358"><ele>88</ele><time>2018-08-25T19:27:09Z</time></trkpt><trkpt lat="34.27476418" lon="-6.61410164"><ele>86</ele><time>2018-08-25T19:27:10Z</time></trkpt><trkpt lat="34.2747462" lon="-6.61416074"><ele>86</ele><time>2018-08-25T19:27:11Z</time></trkpt><trkpt lat="34.2747094" lon="-6.61424025"><ele>87</ele><time>2018-08-25T19:27:12Z</time></trkpt><trkpt lat="34.27469321" lon="-6.61431668"><ele>89</ele><time>2018-08-25T19:27:13Z</time></trkpt><trkpt lat="34.27468045" lon="-6.61438488"><ele>88</ele><time>2018-08-25T19:27:14Z</time></trkpt><trkpt lat="34.27466806" lon="-6.61445215"><ele>89</ele><time>2018-08-25T19:27:15Z</time></trkpt><trkpt lat="34.2746659" lon="-6.61451842"><ele>89</ele><time>2018-08-25T19:27:16Z</time></trkpt><trkpt lat="34.27464678" lon="-6.61459637"><ele>90</ele><time>2018-08-25T19:27:17Z</time></trkpt><trkpt lat="34.27463325" lon="-6.61465814"><ele>90</ele><time>2018-08-25T19:27:18Z</time></trkpt><trkpt lat="34.27461465" lon="-6.61472428"><ele>92</ele><time>2018-08-25T19:27:19Z</time></trkpt><trkpt lat="34.27459242" lon="-6.61478593"><ele>93</ele><time>2018-08-25T19:27:20Z</time></trkpt><trkpt lat="34.27458427" lon="-6.61484887"><ele>93</ele><time>2018-08-25T19:27:21Z</time></trkpt><trkpt lat="34.27454567" lon="-6.61491662"><ele>93</ele><time>2018-08-25T19:27:22Z</time></trkpt><trkpt lat="34.2745216" lon="-6.61498545"><ele>94</ele><time>2018-08-25T19:27:23Z</time></trkpt><trkpt lat="34.2745326" lon="-6.6150637"><ele>95</ele><time>2018-08-25T19:27:24Z</time></trkpt><trkpt lat="34.27450548" lon="-6.61514392"><ele>92</ele><time>2018-08-25T19:27:25Z</time></trkpt><trkpt lat="34.27448004" lon="-6.61521577"><ele>93</ele><time>2018-08-25T19:27:26Z</time></trkpt><trkpt lat="34.27445538" lon="-6.61528832"><ele>94</ele><time>2018-08-25T19:27:27Z</time></trkpt><trkpt lat="34.27443243" lon="-6.61535768"><ele>95</ele><time>2018-08-25T19:27:28Z</time></trkpt><trkpt lat="34.27441531" lon="-6.61543461"><ele>96</ele><time>2018-08-25T19:27:29Z</time></trkpt><trkpt lat="34.2743954" lon="-6.61550586"><ele>96</ele><time>2018-08-25T19:27:30Z</time></trkpt><trkpt lat="34.27437209" lon="-6.61558577"><ele>95</ele><time>2018-08-25T19:27:31Z</time></trkpt><trkpt lat="34.27434398" lon="-6.61565457"><ele>97</ele><time>2018-08-25T19:27:32Z</time></trkpt><trkpt lat="34.27432503" lon="-6.61571374"><ele>96</ele><time>2018-08-25T19:27:33Z</time></trkpt><trkpt lat="34.2743044" lon="-6.61578049"><ele>97</ele><time>2018-08-25T19:27:34Z</time></trkpt><trkpt lat="34.27428899" lon="-6.6158496"><ele>96</ele><time>2018-08-25T19:27:35Z</time></trkpt><trkpt lat="34.2742752" lon="-6.61592718"><ele>95</ele><time>2018-08-25T19:27:36Z</time></trkpt><trkpt lat="34.27426303" lon="-6.61599471"><ele>95</ele><time>2018-08-25T19:27:37Z</time></trkpt><trkpt lat="34.27423828" lon="-6.61605443"><ele>94</ele><time>2018-08-25T19:27:38Z</time></trkpt><trkpt lat="34.27419901" lon="-6.61612448"><ele>96</ele><time>2018-08-25T19:27:39Z</time></trkpt><trkpt lat="34.27417839" lon="-6.61618595"><ele>98</ele><time>2018-08-25T19:27:40Z</time></trkpt><trkpt lat="34.27415854" lon="-6.61624719"><ele>96</ele><time>2018-08-25T19:27:41Z</time></trkpt><trkpt lat="34.27414401" lon="-6.61631595"><ele>96</ele><time>2018-08-25T19:27:42Z</time></trkpt><trkpt lat="34.27412785" lon="-6.61638621"><ele>96</ele><time>2018-08-25T19:27:43Z</time></trkpt><trkpt lat="34.27410645" lon="-6.61645647"><ele>94</ele><time>2018-08-25T19:27:44Z</time></trkpt><trkpt lat="34.27408369" lon="-6.61653688"><ele>94</ele><time>2018-08-25T19:27:45Z</time></trkpt><trkpt lat="34.27404481" lon="-6.61661522"><ele>94</ele><time>2018-08-25T19:27:46Z</time></trkpt><trkpt lat="34.2740478" lon="-6.61668655"><ele>96</ele><time>2018-08-25T19:27:47Z</time></trkpt><trkpt lat="34.27403099" lon="-6.6167711"><ele>94</ele><time>2018-08-25T19:27:48Z</time></trkpt><trkpt lat="34.27401303" lon="-6.61684997"><ele>94</ele><time>2018-08-25T19:27:49Z</time></trkpt><trkpt lat="34.2739923" lon="-6.6169238"><ele>95</ele><time>2018-08-25T19:27:50Z</time></trkpt><trkpt lat="34.27400125" lon="-6.61701516"><ele>96</ele><time>2018-08-25T19:27:51Z</time></trkpt><trkpt lat="34.27398678" lon="-6.6170863"><ele>99</ele><time>2018-08-25T19:27:52Z</time></trkpt><trkpt lat="34.27396648" lon="-6.61715952"><ele>99</ele><time>2018-08-25T19:27:53Z</time></trkpt><trkpt lat="34.27394637" lon="-6.61723791"><ele>98</ele><time>2018-08-25T19:27:54Z</time></trkpt><trkpt lat="34.27394703" lon="-6.61732093"><ele>100</ele><time>2018-08-25T19:27:55Z</time></trkpt><trkpt lat="34.27392063" lon="-6.61738244"><ele>101</ele><time>2018-08-25T19:27:56Z</time></trkpt><trkpt lat="34.27390166" lon="-6.61745118"><ele>100</ele><time>2018-08-25T19:27:57Z</time></trkpt><trkpt lat="34.27389396" lon="-6.61756192"><ele>100</ele><time>2018-08-25T19:27:58Z</time></trkpt><trkpt lat="34.27387963" lon="-6.6176367"><ele>101</ele><time>2018-08-25T19:27:59Z</time></trkpt><trkpt lat="34.2738568" lon="-6.61770632"><ele>103</ele><time>2018-08-25T19:28:00Z</time></trkpt><trkpt lat="34.27383273" lon="-6.61777336"><ele>104</ele><time>2018-08-25T19:28:01Z</time></trkpt><trkpt lat="34.2738071" lon="-6.61785353"><ele>103</ele><time>2018-08-25T19:28:02Z</time></trkpt><trkpt lat="34.27378019" lon="-6.61791861"><ele>106</ele><time>2018-08-25T19:28:03Z</time></trkpt><trkpt lat="34.27375343" lon="-6.61798435"><ele>98</ele><time>2018-08-25T19:28:04Z</time></trkpt><trkpt lat="34.2737396" lon="-6.61805985"><ele>98</ele><time>2018-08-25T19:28:05Z</time></trkpt><trkpt lat="34.27371789" lon="-6.61812304"><ele>100</ele><time>2018-08-25T19:28:06Z</time></trkpt><trkpt lat="34.27370051" lon="-6.61819582"><ele>102</ele><time>2018-08-25T19:28:07Z</time></trkpt><trkpt lat="34.27368383" lon="-6.61825301"><ele>102</ele><time>2018-08-25T19:28:08Z</time></trkpt><trkpt lat="34.27366532" lon="-6.6183195"><ele>103</ele><time>2018-08-25T19:28:09Z</time></trkpt><trkpt lat="34.27370867" lon="-6.61846085"><ele>103</ele><time>2018-08-25T19:28:10Z</time></trkpt><trkpt lat="34.27367183" lon="-6.61854646"><ele>98</ele><time>2018-08-25T19:28:11Z</time></trkpt><trkpt lat="34.27364959" lon="-6.61861662"><ele>96</ele><time>2018-08-25T19:28:12Z</time></trkpt><trkpt lat="34.27363428" lon="-6.61870548"><ele>95</ele><time>2018-08-25T19:28:13Z</time></trkpt><trkpt lat="34.27361902" lon="-6.61878489"><ele>97</ele><time>2018-08-25T19:28:14Z</time></trkpt><trkpt lat="34.27360278" lon="-6.61886107"><ele>97</ele><time>2018-08-25T19:28:15Z</time></trkpt><trkpt lat="34.27357652" lon="-6.61891556"><ele>97</ele><time>2018-08-25T19:28:16Z</time></trkpt><trkpt lat="34.2735573" lon="-6.61898023"><ele>98</ele><time>2018-08-25T19:28:17Z</time></trkpt><trkpt lat="34.27353186" lon="-6.61903674"><ele>98</ele><time>2018-08-25T19:28:18Z</time></trkpt><trkpt lat="34.27353455" lon="-6.61910702"><ele>97</ele><time>2018-08-25T19:28:19Z</time></trkpt><trkpt lat="34.27351867" lon="-6.61918136"><ele>96</ele><time>2018-08-25T19:28:20Z</time></trkpt><trkpt lat="34.27350144" lon="-6.61926024"><ele>95</ele><time>2018-08-25T19:28:21Z</time></trkpt><trkpt lat="34.27347914" lon="-6.61932735"><ele>95</ele><time>2018-08-25T19:28:22Z</time></trkpt><trkpt lat="34.2734656" lon="-6.61939642"><ele>95</ele><time>2018-08-25T19:28:23Z</time></trkpt><trkpt lat="34.27344338" lon="-6.61947725"><ele>94</ele><time>2018-08-25T19:28:24Z</time></trkpt><trkpt lat="34.27345157" lon="-6.6195558"><ele>95</ele><time>2018-08-25T19:28:25Z</time></trkpt><trkpt lat="34.27343871" lon="-6.61963895"><ele>93</ele><time>2018-08-25T19:28:26Z</time></trkpt><trkpt lat="34.27341071" lon="-6.61970897"><ele>93</ele><time>2018-08-25T19:28:27Z</time></trkpt><trkpt lat="34.27341056" lon="-6.61979331"><ele>92</ele><time>2018-08-25T19:28:28Z</time></trkpt><trkpt lat="34.27337175" lon="-6.61986073"><ele>90</ele><time>2018-08-25T19:28:29Z</time></trkpt><trkpt lat="34.2733493" lon="-6.61993462"><ele>90</ele><time>2018-08-25T19:28:30Z</time></trkpt><trkpt lat="34.2733354" lon="-6.62002515"><ele>90</ele><time>2018-08-25T19:28:31Z</time></trkpt><trkpt lat="34.27332042" lon="-6.62013148"><ele>92</ele><time>2018-08-25T19:28:32Z</time></trkpt><trkpt lat="34.27330865" lon="-6.62020239"><ele>95</ele><time>2018-08-25T19:28:33Z</time></trkpt><trkpt lat="34.27330328" lon="-6.62031325"><ele>95</ele><time>2018-08-25T19:28:34Z</time></trkpt><trkpt lat="34.2732802" lon="-6.62039218"><ele>93</ele><time>2018-08-25T19:28:35Z</time></trkpt><trkpt lat="34.27326451" lon="-6.62046594"><ele>93</ele><time>2018-08-25T19:28:36Z</time></trkpt><trkpt lat="34.27326199" lon="-6.62056211"><ele>92</ele><time>2018-08-25T19:28:37Z</time></trkpt><trkpt lat="34.27324877" lon="-6.6206453"><ele>91</ele><time>2018-08-25T19:28:38Z</time></trkpt><trkpt lat="34.27322633" lon="-6.62071661"><ele>93</ele><time>2018-08-25T19:28:39Z</time></trkpt><trkpt lat="34.27321062" lon="-6.62080338"><ele>91</ele><time>2018-08-25T19:28:40Z</time></trkpt><trkpt lat="34.27320749" lon="-6.62090108"><ele>91</ele><time>2018-08-25T19:28:41Z</time></trkpt><trkpt lat="34.27318225" lon="-6.6209782"><ele>89</ele><time>2018-08-25T19:28:42Z</time></trkpt><trkpt lat="34.27316229" lon="-6.62104164"><ele>90</ele><time>2018-08-25T19:28:43Z</time></trkpt><trkpt lat="34.27314432" lon="-6.62113321"><ele>90</ele><time>2018-08-25T19:28:44Z</time></trkpt><trkpt lat="34.27314197" lon="-6.62122355"><ele>92</ele><time>2018-08-25T19:28:45Z</time></trkpt><trkpt lat="34.2731459" lon="-6.62130881"><ele>91</ele><time>2018-08-25T19:28:46Z</time></trkpt><trkpt lat="34.27314245" lon="-6.62139099"><ele>91</ele><time>2018-08-25T19:28:47Z</time></trkpt><trkpt lat="34.27312385" lon="-6.62145809"><ele>92</ele><time>2018-08-25T19:28:48Z</time></trkpt><trkpt lat="34.27310063" lon="-6.62154713"><ele>92</ele><time>2018-08-25T19:28:49Z</time></trkpt><trkpt lat="34.2730846" lon="-6.62164262"><ele>93</ele><time>2018-08-25T19:28:50Z</time></trkpt><trkpt lat="34.27307673" lon="-6.62173466"><ele>91</ele><time>2018-08-25T19:28:51Z</time></trkpt><trkpt lat="34.2730707" lon="-6.62183172"><ele>91</ele><time>2018-08-25T19:28:52Z</time></trkpt><trkpt lat="34.27306028" lon="-6.62192434"><ele>90</ele><time>2018-08-25T19:28:53Z</time></trkpt><trkpt lat="34.27305728" lon="-6.62202435"><ele>90</ele><time>2018-08-25T19:28:54Z</time></trkpt><trkpt lat="34.27303773" lon="-6.62212073"><ele>91</ele><time>2018-08-25T19:28:55Z</time></trkpt><trkpt lat="34.2730236" lon="-6.62220634"><ele>91</ele><time>2018-08-25T19:28:56Z</time></trkpt><trkpt lat="34.2730097" lon="-6.62230442"><ele>90</ele><time>2018-08-25T19:28:57Z</time></trkpt><trkpt lat="34.27300164" lon="-6.62240094"><ele>91</ele><time>2018-08-25T19:28:58Z</time></trkpt><trkpt lat="34.27298955" lon="-6.62249674"><ele>91</ele><time>2018-08-25T19:28:59Z</time></trkpt><trkpt lat="34.27297847" lon="-6.62261574"><ele>91</ele><time>2018-08-25T19:29:00Z</time></trkpt><trkpt lat="34.27296151" lon="-6.62270362"><ele>90</ele><time>2018-08-25T19:29:01Z</time></trkpt><trkpt lat="34.27291733" lon="-6.62279143"><ele>89</ele><time>2018-08-25T19:29:02Z</time></trkpt><trkpt lat="34.27289454" lon="-6.6228747"><ele>87</ele><time>2018-08-25T19:29:03Z</time></trkpt><trkpt lat="34.27289231" lon="-6.62294743"><ele>86</ele><time>2018-08-25T19:29:04Z</time></trkpt><trkpt lat="34.27288762" lon="-6.62302868"><ele>87</ele><time>2018-08-25T19:29:05Z</time></trkpt><trkpt lat="34.2728743" lon="-6.623114"><ele>87</ele><time>2018-08-25T19:29:06Z</time></trkpt><trkpt lat="34.27285704" lon="-6.62318352"><ele>86</ele><time>2018-08-25T19:29:07Z</time></trkpt><trkpt lat="34.27283996" lon="-6.62326791"><ele>85</ele><time>2018-08-25T19:29:08Z</time></trkpt><trkpt lat="34.27283578" lon="-6.62335775"><ele>85</ele><time>2018-08-25T19:29:09Z</time></trkpt><trkpt lat="34.27282644" lon="-6.62343046"><ele>85</ele><time>2018-08-25T19:29:10Z</time></trkpt><trkpt lat="34.27280509" lon="-6.62350357"><ele>85</ele><time>2018-08-25T19:29:11Z</time></trkpt><trkpt lat="34.27279536" lon="-6.62357346"><ele>86</ele><time>2018-08-25T19:29:12Z</time></trkpt><trkpt lat="34.2727788" lon="-6.62364903"><ele>86</ele><time>2018-08-25T19:29:13Z</time></trkpt><trkpt lat="34.27275397" lon="-6.62371804"><ele>90</ele><time>2018-08-25T19:29:14Z</time></trkpt><trkpt lat="34.27273798" lon="-6.62378747"><ele>89</ele><time>2018-08-25T19:29:15Z</time></trkpt><trkpt lat="34.27272811" lon="-6.62386675"><ele>89</ele><time>2018-08-25T19:29:16Z</time></trkpt><trkpt lat="34.27271598" lon="-6.62393853"><ele>88</ele><time>2018-08-25T19:29:17Z</time></trkpt><trkpt lat="34.27269584" lon="-6.62401438"><ele>88</ele><time>2018-08-25T19:29:18Z</time></trkpt><trkpt lat="34.2726814" lon="-6.62409272"><ele>88</ele><time>2018-08-25T19:29:19Z</time></trkpt><trkpt lat="34.27268257" lon="-6.62417313"><ele>87</ele><time>2018-08-25T19:29:20Z</time></trkpt><trkpt lat="34.27266691" lon="-6.62424833"><ele>87</ele><time>2018-08-25T19:29:21Z</time></trkpt><trkpt lat="34.27265969" lon="-6.62432636"><ele>87</ele><time>2018-08-25T19:29:22Z</time></trkpt><trkpt lat="34.2726504" lon="-6.62440996"><ele>87</ele><time>2018-08-25T19:29:23Z</time></trkpt><trkpt lat="34.2726419" lon="-6.62448779"><ele>87</ele><time>2018-08-25T19:29:24Z</time></trkpt><trkpt lat="34.27262941" lon="-6.62456662"><ele>87</ele><time>2018-08-25T19:29:25Z</time></trkpt><trkpt lat="34.27262488" lon="-6.62465722"><ele>87</ele><time>2018-08-25T19:29:26Z</time></trkpt><trkpt lat="34.27261651" lon="-6.62472964"><ele>89</ele><time>2018-08-25T19:29:27Z</time></trkpt><trkpt lat="34.27260698" lon="-6.62480108"><ele>88</ele><time>2018-08-25T19:29:28Z</time></trkpt><trkpt lat="34.27259138" lon="-6.6248636"><ele>88</ele><time>2018-08-25T19:29:29Z</time></trkpt><trkpt lat="34.27257198" lon="-6.62493361"><ele>89</ele><time>2018-08-25T19:29:30Z</time></trkpt><trkpt lat="34.27255922" lon="-6.62499489"><ele>90</ele><time>2018-08-25T19:29:31Z</time></trkpt><trkpt lat="34.27254448" lon="-6.62505864"><ele>90</ele><time>2018-08-25T19:29:32Z</time></trkpt><trkpt lat="34.2725332" lon="-6.62512263"><ele>91</ele><time>2018-08-25T19:29:33Z</time></trkpt><trkpt lat="34.27252408" lon="-6.6251898"><ele>91</ele><time>2018-08-25T19:29:34Z</time></trkpt><trkpt lat="34.27250326" lon="-6.62525209"><ele>92</ele><time>2018-08-25T19:29:35Z</time></trkpt><trkpt lat="34.27248469" lon="-6.62531826"><ele>92</ele><time>2018-08-25T19:29:36Z</time></trkpt><trkpt lat="34.27247353" lon="-6.62538723"><ele>92</ele><time>2018-08-25T19:29:37Z</time></trkpt><trkpt lat="34.27246854" lon="-6.62545006"><ele>92</ele><time>2018-08-25T19:29:38Z</time></trkpt><trkpt lat="34.27245627" lon="-6.62551824"><ele>90</ele><time>2018-08-25T19:29:39Z</time></trkpt><trkpt lat="34.27242102" lon="-6.62571493"><ele>89</ele><time>2018-08-25T19:29:42Z</time></trkpt><trkpt lat="34.27240745" lon="-6.62578304"><ele>90</ele><time>2018-08-25T19:29:43Z</time></trkpt><trkpt lat="34.27240049" lon="-6.62584343"><ele>91</ele><time>2018-08-25T19:29:44Z</time></trkpt><trkpt lat="34.27239817" lon="-6.62590065"><ele>91</ele><time>2018-08-25T19:29:45Z</time></trkpt><trkpt lat="34.27238613" lon="-6.62596795"><ele>91</ele><time>2018-08-25T19:29:46Z</time></trkpt><trkpt lat="34.27238168" lon="-6.62603481"><ele>91</ele><time>2018-08-25T19:29:47Z</time></trkpt><trkpt lat="34.27237414" lon="-6.62610291"><ele>91</ele><time>2018-08-25T19:29:48Z</time></trkpt><trkpt lat="34.272369" lon="-6.62617029"><ele>91</ele><time>2018-08-25T19:29:49Z</time></trkpt><trkpt lat="34.27235735" lon="-6.62623393"><ele>91</ele><time>2018-08-25T19:29:50Z</time></trkpt><trkpt lat="34.27233944" lon="-6.62630453"><ele>91</ele><time>2018-08-25T19:29:51Z</time></trkpt><trkpt lat="34.27232294" lon="-6.62637177"><ele>90</ele><time>2018-08-25T19:29:52Z</time></trkpt><trkpt lat="34.27231068" lon="-6.62643557"><ele>90</ele><time>2018-08-25T19:29:53Z</time></trkpt><trkpt lat="34.27230614" lon="-6.62649594"><ele>90</ele><time>2018-08-25T19:29:54Z</time></trkpt><trkpt lat="34.27229489" lon="-6.62656025"><ele>89</ele><time>2018-08-25T19:29:55Z</time></trkpt><trkpt lat="34.27229572" lon="-6.62663214"><ele>88</ele><time>2018-08-25T19:29:56Z</time></trkpt><trkpt lat="34.27228873" lon="-6.62670416"><ele>88</ele><time>2018-08-25T19:29:57Z</time></trkpt><trkpt lat="34.272271" lon="-6.62676607"><ele>88</ele><time>2018-08-25T19:29:58Z</time></trkpt><trkpt lat="34.27226018" lon="-6.62682844"><ele>87</ele><time>2018-08-25T19:29:59Z</time></trkpt><trkpt lat="34.27224897" lon="-6.62689413"><ele>88</ele><time>2018-08-25T19:30:00Z</time></trkpt><trkpt lat="34.27223865" lon="-6.62694731"><ele>88</ele><time>2018-08-25T19:30:01Z</time></trkpt><trkpt lat="34.27223368" lon="-6.62701591"><ele>88</ele><time>2018-08-25T19:30:02Z</time></trkpt><trkpt lat="34.27222224" lon="-6.62707994"><ele>89</ele><time>2018-08-25T19:30:03Z</time></trkpt><trkpt lat="34.2722126" lon="-6.62713841"><ele>87</ele><time>2018-08-25T19:30:04Z</time></trkpt><trkpt lat="34.27220648" lon="-6.62719004"><ele>87</ele><time>2018-08-25T19:30:05Z</time></trkpt><trkpt lat="34.27219101" lon="-6.62723964"><ele>86</ele><time>2018-08-25T19:30:06Z</time></trkpt><trkpt lat="34.27217837" lon="-6.62729742"><ele>87</ele><time>2018-08-25T19:30:07Z</time></trkpt><trkpt lat="34.27216881" lon="-6.62736384"><ele>88</ele><time>2018-08-25T19:30:08Z</time></trkpt><trkpt lat="34.27216112" lon="-6.62745268"><ele>87</ele><time>2018-08-25T19:30:09Z</time></trkpt><trkpt lat="34.27214503" lon="-6.62750815"><ele>84</ele><time>2018-08-25T19:30:10Z</time></trkpt><trkpt lat="34.27214191" lon="-6.62757283"><ele>84</ele><time>2018-08-25T19:30:11Z</time></trkpt><trkpt lat="34.27213957" lon="-6.62763601"><ele>83</ele><time>2018-08-25T19:30:12Z</time></trkpt><trkpt lat="34.2721254" lon="-6.6276854"><ele>81</ele><time>2018-08-25T19:30:13Z</time></trkpt><trkpt lat="34.27211567" lon="-6.62774107"><ele>81</ele><time>2018-08-25T19:30:14Z</time></trkpt><trkpt lat="34.27210509" lon="-6.62779797"><ele>80</ele><time>2018-08-25T19:30:15Z</time></trkpt><trkpt lat="34.27209675" lon="-6.62784567"><ele>79</ele><time>2018-08-25T19:30:16Z</time></trkpt><trkpt lat="34.27208647" lon="-6.62788166"><ele>79</ele><time>2018-08-25T19:30:17Z</time></trkpt><trkpt lat="34.27208132" lon="-6.6279328"><ele>81</ele><time>2018-08-25T19:30:18Z</time></trkpt><trkpt lat="34.27206599" lon="-6.6280023"><ele>81</ele><time>2018-08-25T19:30:19Z</time></trkpt><trkpt lat="34.27206206" lon="-6.62805524"><ele>81</ele><time>2018-08-25T19:30:20Z</time></trkpt><trkpt lat="34.27206222" lon="-6.62811112"><ele>81</ele><time>2018-08-25T19:30:21Z</time></trkpt><trkpt lat="34.27205025" lon="-6.62815937"><ele>82</ele><time>2018-08-25T19:30:22Z</time></trkpt><trkpt lat="34.27204667" lon="-6.62820736"><ele>83</ele><time>2018-08-25T19:30:23Z</time></trkpt><trkpt lat="34.27203549" lon="-6.62825047"><ele>83</ele><time>2018-08-25T19:30:24Z</time></trkpt><trkpt lat="34.27202755" lon="-6.62826622"><ele>84</ele><time>2018-08-25T19:30:25Z</time></trkpt><trkpt lat="34.27202252" lon="-6.62827381"><ele>85</ele><time>2018-08-25T19:30:26Z</time></trkpt><trkpt lat="34.27202245" lon="-6.62827596"><ele>84</ele><time>2018-08-25T19:30:27Z</time></trkpt><trkpt lat="34.27202095" lon="-6.62827111"><ele>86</ele><time>2018-08-25T19:30:28Z</time></trkpt><trkpt lat="34.27203653" lon="-6.6282877"><ele>86</ele><time>2018-08-25T19:30:30Z</time></trkpt><trkpt lat="34.27203565" lon="-6.62827386"><ele>84</ele><time>2018-08-25T19:30:32Z</time></trkpt><trkpt lat="34.27202645" lon="-6.62826739"><ele>83</ele><time>2018-08-25T19:30:35Z</time></trkpt><trkpt lat="34.2720203" lon="-6.62826481"><ele>85</ele><time>2018-08-25T19:30:36Z</time></trkpt><trkpt lat="34.27200022" lon="-6.62826849"><ele>86</ele><time>2018-08-25T19:30:37Z</time></trkpt><trkpt lat="34.2720159" lon="-6.62828648"><ele>89</ele><time>2018-08-25T19:30:38Z</time></trkpt><trkpt lat="34.27202845" lon="-6.62829688"><ele>87</ele><time>2018-08-25T19:30:39Z</time></trkpt><trkpt lat="34.27202776" lon="-6.62831"><ele>87</ele><time>2018-08-25T19:30:40Z</time></trkpt><trkpt lat="34.27203872" lon="-6.62832932"><ele>86</ele><time>2018-08-25T19:30:41Z</time></trkpt><trkpt lat="34.27202808" lon="-6.62835068"><ele>84</ele><time>2018-08-25T19:30:42Z</time></trkpt><trkpt lat="34.27201045" lon="-6.62840717"><ele>84</ele><time>2018-08-25T19:30:43Z</time></trkpt><trkpt lat="34.27200346" lon="-6.6284665"><ele>85</ele><time>2018-08-25T19:30:44Z</time></trkpt><trkpt lat="34.27198572" lon="-6.6285222"><ele>84</ele><time>2018-08-25T19:30:45Z</time></trkpt><trkpt lat="34.27197369" lon="-6.62857422"><ele>83</ele><time>2018-08-25T19:30:46Z</time></trkpt><trkpt lat="34.27195966" lon="-6.6286276"><ele>82</ele><time>2018-08-25T19:30:47Z</time></trkpt><trkpt lat="34.27194653" lon="-6.62871818"><ele>81</ele><time>2018-08-25T19:30:48Z</time></trkpt><trkpt lat="34.27193436" lon="-6.62880019"><ele>82</ele><time>2018-08-25T19:30:49Z</time></trkpt><trkpt lat="34.2719126" lon="-6.62889177"><ele>81</ele><time>2018-08-25T19:30:50Z</time></trkpt><trkpt lat="34.27191244" lon="-6.62896971"><ele>83</ele><time>2018-08-25T19:30:51Z</time></trkpt><trkpt lat="34.27192171" lon="-6.62909182"><ele>83</ele><time>2018-08-25T19:30:52Z</time></trkpt><trkpt lat="34.27188621" lon="-6.62917561"><ele>79</ele><time>2018-08-25T19:30:53Z</time></trkpt><trkpt lat="34.27186355" lon="-6.62927668"><ele>80</ele><time>2018-08-25T19:30:54Z</time></trkpt><trkpt lat="34.27183901" lon="-6.62934886"><ele>81</ele><time>2018-08-25T19:30:55Z</time></trkpt><trkpt lat="34.27182476" lon="-6.62942723"><ele>84</ele><time>2018-08-25T19:30:56Z</time></trkpt><trkpt lat="34.27181432" lon="-6.62951581"><ele>85</ele><time>2018-08-25T19:30:57Z</time></trkpt><trkpt lat="34.27179828" lon="-6.62961401"><ele>87</ele><time>2018-08-25T19:30:58Z</time></trkpt><trkpt lat="34.27178049" lon="-6.62971536"><ele>87</ele><time>2018-08-25T19:30:59Z</time></trkpt><trkpt lat="34.27176113" lon="-6.62980626"><ele>86</ele><time>2018-08-25T19:31:00Z</time></trkpt><trkpt lat="34.27176148" lon="-6.62989552"><ele>86</ele><time>2018-08-25T19:31:01Z</time></trkpt><trkpt lat="34.27176489" lon="-6.6300047"><ele>87</ele><time>2018-08-25T19:31:02Z</time></trkpt><trkpt lat="34.27176305" lon="-6.63009684"><ele>88</ele><time>2018-08-25T19:31:03Z</time></trkpt><trkpt lat="34.27176763" lon="-6.63018963"><ele>88</ele><time>2018-08-25T19:31:04Z</time></trkpt><trkpt lat="34.27178374" lon="-6.63030693"><ele>88</ele><time>2018-08-25T19:31:05Z</time></trkpt><trkpt lat="34.27178944" lon="-6.6304128"><ele>87</ele><time>2018-08-25T19:31:06Z</time></trkpt><trkpt lat="34.27179123" lon="-6.63050994"><ele>88</ele><time>2018-08-25T19:31:07Z</time></trkpt><trkpt lat="34.27178744" lon="-6.63060634"><ele>87</ele><time>2018-08-25T19:31:08Z</time></trkpt><trkpt lat="34.27178326" lon="-6.63070779"><ele>88</ele><time>2018-08-25T19:31:09Z</time></trkpt><trkpt lat="34.27179013" lon="-6.63079513"><ele>88</ele><time>2018-08-25T19:31:10Z</time></trkpt><trkpt lat="34.27178907" lon="-6.63087984"><ele>86</ele><time>2018-08-25T19:31:11Z</time></trkpt><trkpt lat="34.27176863" lon="-6.63097873"><ele>86</ele><time>2018-08-25T19:31:12Z</time></trkpt><trkpt lat="34.27175656" lon="-6.63106863"><ele>89</ele><time>2018-08-25T19:31:13Z</time></trkpt><trkpt lat="34.27175232" lon="-6.63116379"><ele>89</ele><time>2018-08-25T19:31:14Z</time></trkpt><trkpt lat="34.27174217" lon="-6.6312539"><ele>87</ele><time>2018-08-25T19:31:15Z</time></trkpt><trkpt lat="34.2717398" lon="-6.63134779"><ele>86</ele><time>2018-08-25T19:31:16Z</time></trkpt><trkpt lat="34.2717334" lon="-6.63145055"><ele>86</ele><time>2018-08-25T19:31:17Z</time></trkpt><trkpt lat="34.27173595" lon="-6.63154912"><ele>86</ele><time>2018-08-25T19:31:18Z</time></trkpt><trkpt lat="34.27173123" lon="-6.63164331"><ele>86</ele><time>2018-08-25T19:31:19Z</time></trkpt><trkpt lat="34.27172646" lon="-6.63173734"><ele>85</ele><time>2018-08-25T19:31:20Z</time></trkpt><trkpt lat="34.2717211" lon="-6.63183693"><ele>86</ele><time>2018-08-25T19:31:21Z</time></trkpt><trkpt lat="34.27171282" lon="-6.63191764"><ele>85</ele><time>2018-08-25T19:31:22Z</time></trkpt><trkpt lat="34.27170525" lon="-6.63200737"><ele>85</ele><time>2018-08-25T19:31:23Z</time></trkpt><trkpt lat="34.27169942" lon="-6.6320875"><ele>85</ele><time>2018-08-25T19:31:24Z</time></trkpt><trkpt lat="34.27168549" lon="-6.63218095"><ele>84</ele><time>2018-08-25T19:31:25Z</time></trkpt><trkpt lat="34.27167488" lon="-6.63227383"><ele>85</ele><time>2018-08-25T19:31:26Z</time></trkpt><trkpt lat="34.27167576" lon="-6.63236097"><ele>83</ele><time>2018-08-25T19:31:27Z</time></trkpt><trkpt lat="34.27167255" lon="-6.63245663"><ele>82</ele><time>2018-08-25T19:31:28Z</time></trkpt><trkpt lat="34.27167232" lon="-6.63254139"><ele>82</ele><time>2018-08-25T19:31:29Z</time></trkpt><trkpt lat="34.27166178" lon="-6.63262096"><ele>81</ele><time>2018-08-25T19:31:30Z</time></trkpt><trkpt lat="34.27165588" lon="-6.63270076"><ele>82</ele><time>2018-08-25T19:31:31Z</time></trkpt><trkpt lat="34.27164668" lon="-6.63279214"><ele>81</ele><time>2018-08-25T19:31:32Z</time></trkpt><trkpt lat="34.27163213" lon="-6.63287014"><ele>79</ele><time>2018-08-25T19:31:33Z</time></trkpt><trkpt lat="34.27162439" lon="-6.63295165"><ele>79</ele><time>2018-08-25T19:31:34Z</time></trkpt><trkpt lat="34.27160809" lon="-6.63301865"><ele>78</ele><time>2018-08-25T19:31:35Z</time></trkpt><trkpt lat="34.27159861" lon="-6.63308276"><ele>79</ele><time>2018-08-25T19:31:36Z</time></trkpt><trkpt lat="34.27158352" lon="-6.63313605"><ele>80</ele><time>2018-08-25T19:31:37Z</time></trkpt><trkpt lat="34.27155811" lon="-6.63319484"><ele>80</ele><time>2018-08-25T19:31:38Z</time></trkpt><trkpt lat="34.27154526" lon="-6.63324042"><ele>80</ele><time>2018-08-25T19:31:39Z</time></trkpt><trkpt lat="34.27151458" lon="-6.6332537"><ele>79</ele><time>2018-08-25T19:31:40Z</time></trkpt><trkpt lat="34.27147724" lon="-6.63326507"><ele>79</ele><time>2018-08-25T19:31:41Z</time></trkpt><trkpt lat="34.27140953" lon="-6.63325021"><ele>77</ele><time>2018-08-25T19:31:42Z</time></trkpt><trkpt lat="34.27136798" lon="-6.63322568"><ele>80</ele><time>2018-08-25T19:31:43Z</time></trkpt><trkpt lat="34.27130358" lon="-6.63320181"><ele>81</ele><time>2018-08-25T19:31:44Z</time></trkpt><trkpt lat="34.27125331" lon="-6.63317368"><ele>83</ele><time>2018-08-25T19:31:45Z</time></trkpt><trkpt lat="34.27119241" lon="-6.63316547"><ele>80</ele><time>2018-08-25T19:31:46Z</time></trkpt><trkpt lat="34.27113271" lon="-6.63314978"><ele>80</ele><time>2018-08-25T19:31:47Z</time></trkpt><trkpt lat="34.27107866" lon="-6.63311222"><ele>80</ele><time>2018-08-25T19:31:48Z</time></trkpt><trkpt lat="34.27102402" lon="-6.6330813"><ele>81</ele><time>2018-08-25T19:31:49Z</time></trkpt><trkpt lat="34.27098173" lon="-6.63305738"><ele>81</ele><time>2018-08-25T19:31:50Z</time></trkpt><trkpt lat="34.27092243" lon="-6.63303727"><ele>81</ele><time>2018-08-25T19:31:51Z</time></trkpt><trkpt lat="34.27088395" lon="-6.63302602"><ele>80</ele><time>2018-08-25T19:31:52Z</time></trkpt><trkpt lat="34.27081831" lon="-6.63301784"><ele>77</ele><time>2018-08-25T19:31:53Z</time></trkpt><trkpt lat="34.27075391" lon="-6.63300614"><ele>78</ele><time>2018-08-25T19:31:54Z</time></trkpt><trkpt lat="34.27067275" lon="-6.63298154"><ele>77</ele><time>2018-08-25T19:31:55Z</time></trkpt><trkpt lat="34.27060997" lon="-6.63296465"><ele>74</ele><time>2018-08-25T19:31:56Z</time></trkpt><trkpt lat="34.27055955" lon="-6.63292704"><ele>74</ele><time>2018-08-25T19:31:57Z</time></trkpt><trkpt lat="34.27050072" lon="-6.63292709"><ele>73</ele><time>2018-08-25T19:31:58Z</time></trkpt><trkpt lat="34.27043948" lon="-6.63289243"><ele>73</ele><time>2018-08-25T19:31:59Z</time></trkpt><trkpt lat="34.27038129" lon="-6.63286811"><ele>72</ele><time>2018-08-25T19:32:00Z</time></trkpt><trkpt lat="34.27033737" lon="-6.63284949"><ele>71</ele><time>2018-08-25T19:32:01Z</time></trkpt><trkpt lat="34.27028606" lon="-6.63283477"><ele>70</ele><time>2018-08-25T19:32:02Z</time></trkpt><trkpt lat="34.27020413" lon="-6.63283062"><ele>68</ele><time>2018-08-25T19:32:03Z</time></trkpt><trkpt lat="34.27012517" lon="-6.63281057"><ele>66</ele><time>2018-08-25T19:32:04Z</time></trkpt><trkpt lat="34.27006162" lon="-6.63280409"><ele>65</ele><time>2018-08-25T19:32:05Z</time></trkpt><trkpt lat="34.26999525" lon="-6.63278519"><ele>64</ele><time>2018-08-25T19:32:06Z</time></trkpt><trkpt lat="34.26993697" lon="-6.63271882"><ele>64</ele><time>2018-08-25T19:32:07Z</time></trkpt><trkpt lat="34.26986625" lon="-6.63269448"><ele>83</ele><time>2018-08-25T19:32:08Z</time></trkpt><trkpt lat="34.2697811" lon="-6.6326745"><ele>79</ele><time>2018-08-25T19:32:09Z</time></trkpt><trkpt lat="34.26969" lon="-6.63268703"><ele>76</ele><time>2018-08-25T19:32:10Z</time></trkpt><trkpt lat="34.26960944" lon="-6.6326766"><ele>72</ele><time>2018-08-25T19:32:11Z</time></trkpt><trkpt lat="34.26954036" lon="-6.63264235"><ele>71</ele><time>2018-08-25T19:32:12Z</time></trkpt><trkpt lat="34.26947049" lon="-6.63260183"><ele>68</ele><time>2018-08-25T19:32:13Z</time></trkpt><trkpt lat="34.26939574" lon="-6.63256902"><ele>67</ele><time>2018-08-25T19:32:14Z</time></trkpt><trkpt lat="34.26932311" lon="-6.63254433"><ele>68</ele><time>2018-08-25T19:32:15Z</time></trkpt><trkpt lat="34.26925686" lon="-6.63250787"><ele>67</ele><time>2018-08-25T19:32:16Z</time></trkpt><trkpt lat="34.26918721" lon="-6.63247406"><ele>64</ele><time>2018-08-25T19:32:17Z</time></trkpt><trkpt lat="34.26911228" lon="-6.63243576"><ele>66</ele><time>2018-08-25T19:32:18Z</time></trkpt><trkpt lat="34.26904445" lon="-6.63240779"><ele>66</ele><time>2018-08-25T19:32:19Z</time></trkpt><trkpt lat="34.26897416" lon="-6.63238929"><ele>65</ele><time>2018-08-25T19:32:20Z</time></trkpt><trkpt lat="34.26890733" lon="-6.63236964"><ele>65</ele><time>2018-08-25T19:32:21Z</time></trkpt><trkpt lat="34.26883754" lon="-6.63233282"><ele>65</ele><time>2018-08-25T19:32:22Z</time></trkpt><trkpt lat="34.26876892" lon="-6.63231067"><ele>64</ele><time>2018-08-25T19:32:23Z</time></trkpt><trkpt lat="34.26868766" lon="-6.63228905"><ele>65</ele><time>2018-08-25T19:32:24Z</time></trkpt><trkpt lat="34.26861907" lon="-6.63224824"><ele>65</ele><time>2018-08-25T19:32:25Z</time></trkpt><trkpt lat="34.26854686" lon="-6.63222907"><ele>66</ele><time>2018-08-25T19:32:26Z</time></trkpt><trkpt lat="34.26848109" lon="-6.63219837"><ele>66</ele><time>2018-08-25T19:32:27Z</time></trkpt><trkpt lat="34.26840036" lon="-6.63215507"><ele>66</ele><time>2018-08-25T19:32:28Z</time></trkpt><trkpt lat="34.26833785" lon="-6.63213043"><ele>64</ele><time>2018-08-25T19:32:29Z</time></trkpt><trkpt lat="34.26828037" lon="-6.63212142"><ele>64</ele><time>2018-08-25T19:32:30Z</time></trkpt><trkpt lat="34.26819359" lon="-6.63209179"><ele>64</ele><time>2018-08-25T19:32:31Z</time></trkpt><trkpt lat="34.26811486" lon="-6.63207244"><ele>65</ele><time>2018-08-25T19:32:32Z</time></trkpt><trkpt lat="34.26804929" lon="-6.63203365"><ele>64</ele><time>2018-08-25T19:32:33Z</time></trkpt><trkpt lat="34.26798082" lon="-6.6320122"><ele>64</ele><time>2018-08-25T19:32:34Z</time></trkpt><trkpt lat="34.26791806" lon="-6.63199976"><ele>64</ele><time>2018-08-25T19:32:35Z</time></trkpt><trkpt lat="34.2678442" lon="-6.63197225"><ele>65</ele><time>2018-08-25T19:32:36Z</time></trkpt><trkpt lat="34.2677825" lon="-6.63193861"><ele>66</ele><time>2018-08-25T19:32:37Z</time></trkpt><trkpt lat="34.26770704" lon="-6.63191083"><ele>66</ele><time>2018-08-25T19:32:38Z</time></trkpt><trkpt lat="34.2676488" lon="-6.63188464"><ele>67</ele><time>2018-08-25T19:32:39Z</time></trkpt><trkpt lat="34.26758523" lon="-6.63184587"><ele>69</ele><time>2018-08-25T19:32:40Z</time></trkpt><trkpt lat="34.26751591" lon="-6.63183341"><ele>69</ele><time>2018-08-25T19:32:41Z</time></trkpt><trkpt lat="34.26744715" lon="-6.63181639"><ele>70</ele><time>2018-08-25T19:32:42Z</time></trkpt><trkpt lat="34.26738225" lon="-6.63180166"><ele>70</ele><time>2018-08-25T19:32:43Z</time></trkpt><trkpt lat="34.26731558" lon="-6.63177542"><ele>70</ele><time>2018-08-25T19:32:44Z</time></trkpt><trkpt lat="34.26725488" lon="-6.6317439"><ele>71</ele><time>2018-08-25T19:32:45Z</time></trkpt><trkpt lat="34.26719101" lon="-6.63172349"><ele>72</ele><time>2018-08-25T19:32:46Z</time></trkpt><trkpt lat="34.26712447" lon="-6.63170086"><ele>72</ele><time>2018-08-25T19:32:47Z</time></trkpt><trkpt lat="34.26707334" lon="-6.63169111"><ele>72</ele><time>2018-08-25T19:32:48Z</time></trkpt><trkpt lat="34.26700689" lon="-6.63165352"><ele>70</ele><time>2018-08-25T19:32:49Z</time></trkpt><trkpt lat="34.26692811" lon="-6.63165439"><ele>71</ele><time>2018-08-25T19:32:50Z</time></trkpt><trkpt lat="34.26688079" lon="-6.63164021"><ele>72</ele><time>2018-08-25T19:32:51Z</time></trkpt><trkpt lat="34.26680384" lon="-6.63161635"><ele>70</ele><time>2018-08-25T19:32:52Z</time></trkpt><trkpt lat="34.26674676" lon="-6.63158655"><ele>71</ele><time>2018-08-25T19:32:53Z</time></trkpt><trkpt lat="34.26668559" lon="-6.63155993"><ele>70</ele><time>2018-08-25T19:32:54Z</time></trkpt><trkpt lat="34.26662257" lon="-6.631531"><ele>71</ele><time>2018-08-25T19:32:55Z</time></trkpt><trkpt lat="34.26656751" lon="-6.63149955"><ele>72</ele><time>2018-08-25T19:32:56Z</time></trkpt><trkpt lat="34.26653256" lon="-6.63147467"><ele>73</ele><time>2018-08-25T19:32:57Z</time></trkpt><trkpt lat="34.26649204" lon="-6.6314367"><ele>71</ele><time>2018-08-25T19:32:58Z</time></trkpt><trkpt lat="34.26644751" lon="-6.63143215"><ele>72</ele><time>2018-08-25T19:32:59Z</time></trkpt><trkpt lat="34.26638341" lon="-6.63145076"><ele>73</ele><time>2018-08-25T19:33:00Z</time></trkpt><trkpt lat="34.26633207" lon="-6.63145514"><ele>74</ele><time>2018-08-25T19:33:01Z</time></trkpt><trkpt lat="34.26633819" lon="-6.63151947"><ele>74</ele><time>2018-08-25T19:33:02Z</time></trkpt><trkpt lat="34.26632811" lon="-6.63156622"><ele>73</ele><time>2018-08-25T19:33:03Z</time></trkpt><trkpt lat="34.26631171" lon="-6.63162758"><ele>73</ele><time>2018-08-25T19:33:04Z</time></trkpt><trkpt lat="34.26629701" lon="-6.63167662"><ele>75</ele><time>2018-08-25T19:33:05Z</time></trkpt><trkpt lat="34.26629824" lon="-6.63173063"><ele>76</ele><time>2018-08-25T19:33:06Z</time></trkpt><trkpt lat="34.26627859" lon="-6.6317903"><ele>77</ele><time>2018-08-25T19:33:07Z</time></trkpt><trkpt lat="34.26625659" lon="-6.6318338"><ele>78</ele><time>2018-08-25T19:33:08Z</time></trkpt><trkpt lat="34.26624425" lon="-6.63187486"><ele>77</ele><time>2018-08-25T19:33:09Z</time></trkpt><trkpt lat="34.26624049" lon="-6.63193881"><ele>79</ele><time>2018-08-25T19:33:10Z</time></trkpt><trkpt lat="34.26623342" lon="-6.63201021"><ele>78</ele><time>2018-08-25T19:33:11Z</time></trkpt><trkpt lat="34.26621684" lon="-6.63211378"><ele>79</ele><time>2018-08-25T19:33:12Z</time></trkpt><trkpt lat="34.26621319" lon="-6.63218958"><ele>77</ele><time>2018-08-25T19:33:13Z</time></trkpt><trkpt lat="34.26619884" lon="-6.63224878"><ele>77</ele><time>2018-08-25T19:33:14Z</time></trkpt><trkpt lat="34.26618252" lon="-6.63230606"><ele>77</ele><time>2018-08-25T19:33:15Z</time></trkpt><trkpt lat="34.26615441" lon="-6.63236805"><ele>78</ele><time>2018-08-25T19:33:16Z</time></trkpt><trkpt lat="34.26610921" lon="-6.63239252"><ele>79</ele><time>2018-08-25T19:33:17Z</time></trkpt><trkpt lat="34.26606817" lon="-6.6324308"><ele>79</ele><time>2018-08-25T19:33:18Z</time></trkpt><trkpt lat="34.26601013" lon="-6.63239953"><ele>79</ele><time>2018-08-25T19:33:19Z</time></trkpt><trkpt lat="34.26596096" lon="-6.63240392"><ele>81</ele><time>2018-08-25T19:33:20Z</time></trkpt><trkpt lat="34.26590098" lon="-6.63239776"><ele>81</ele><time>2018-08-25T19:33:21Z</time></trkpt><trkpt lat="34.26585837" lon="-6.63238243"><ele>81</ele><time>2018-08-25T19:33:22Z</time></trkpt><trkpt lat="34.26579851" lon="-6.63235623"><ele>79</ele><time>2018-08-25T19:33:23Z</time></trkpt><trkpt lat="34.26573819" lon="-6.63233606"><ele>79</ele><time>2018-08-25T19:33:24Z</time></trkpt><trkpt lat="34.26568153" lon="-6.63232147"><ele>79</ele><time>2018-08-25T19:33:25Z</time></trkpt><trkpt lat="34.26562199" lon="-6.63229406"><ele>80</ele><time>2018-08-25T19:33:26Z</time></trkpt><trkpt lat="34.26556505" lon="-6.63228059"><ele>71</ele><time>2018-08-25T19:33:27Z</time></trkpt><trkpt lat="34.26549411" lon="-6.63227309"><ele>73</ele><time>2018-08-25T19:33:28Z</time></trkpt><trkpt lat="34.26542612" lon="-6.63224883"><ele>74</ele><time>2018-08-25T19:33:29Z</time></trkpt><trkpt lat="34.26537115" lon="-6.63222823"><ele>75</ele><time>2018-08-25T19:33:30Z</time></trkpt><trkpt lat="34.26530441" lon="-6.63220605"><ele>77</ele><time>2018-08-25T19:33:31Z</time></trkpt><trkpt lat="34.26524359" lon="-6.63217262"><ele>78</ele><time>2018-08-25T19:33:32Z</time></trkpt><trkpt lat="34.26518124" lon="-6.63213648"><ele>78</ele><time>2018-08-25T19:33:33Z</time></trkpt><trkpt lat="34.26513515" lon="-6.63212865"><ele>78</ele><time>2018-08-25T19:33:34Z</time></trkpt><trkpt lat="34.26508346" lon="-6.63210617"><ele>73</ele><time>2018-08-25T19:33:35Z</time></trkpt><trkpt lat="34.26501034" lon="-6.63207419"><ele>73</ele><time>2018-08-25T19:33:36Z</time></trkpt><trkpt lat="34.26493433" lon="-6.63203609"><ele>75</ele><time>2018-08-25T19:33:37Z</time></trkpt><trkpt lat="34.26488676" lon="-6.63202439"><ele>75</ele><time>2018-08-25T19:33:38Z</time></trkpt><trkpt lat="34.26482662" lon="-6.63199654"><ele>75</ele><time>2018-08-25T19:33:39Z</time></trkpt><trkpt lat="34.2647672" lon="-6.63197387"><ele>75</ele><time>2018-08-25T19:33:40Z</time></trkpt><trkpt lat="34.26470848" lon="-6.63194995"><ele>75</ele><time>2018-08-25T19:33:41Z</time></trkpt><trkpt lat="34.26465204" lon="-6.63191113"><ele>76</ele><time>2018-08-25T19:33:42Z</time></trkpt><trkpt lat="34.26459257" lon="-6.63188868"><ele>75</ele><time>2018-08-25T19:33:43Z</time></trkpt><trkpt lat="34.26453261" lon="-6.63187578"><ele>74</ele><time>2018-08-25T19:33:44Z</time></trkpt><trkpt lat="34.26446951" lon="-6.63185491"><ele>74</ele><time>2018-08-25T19:33:45Z</time></trkpt><trkpt lat="34.26441154" lon="-6.63182857"><ele>73</ele><time>2018-08-25T19:33:46Z</time></trkpt><trkpt lat="34.26434421" lon="-6.63180197"><ele>72</ele><time>2018-08-25T19:33:47Z</time></trkpt><trkpt lat="34.26427914" lon="-6.63178868"><ele>74</ele><time>2018-08-25T19:33:48Z</time></trkpt><trkpt lat="34.26422079" lon="-6.63177114"><ele>75</ele><time>2018-08-25T19:33:49Z</time></trkpt><trkpt lat="34.26415702" lon="-6.63175714"><ele>75</ele><time>2018-08-25T19:33:50Z</time></trkpt><trkpt lat="34.26409155" lon="-6.63173444"><ele>74</ele><time>2018-08-25T19:33:51Z</time></trkpt><trkpt lat="34.26402963" lon="-6.63172776"><ele>74</ele><time>2018-08-25T19:33:52Z</time></trkpt><trkpt lat="34.26398032" lon="-6.63172927"><ele>74</ele><time>2018-08-25T19:33:53Z</time></trkpt><trkpt lat="34.26391867" lon="-6.63171246"><ele>74</ele><time>2018-08-25T19:33:54Z</time></trkpt><trkpt lat="34.26385996" lon="-6.63170184"><ele>73</ele><time>2018-08-25T19:33:55Z</time></trkpt><trkpt lat="34.26379661" lon="-6.63168075"><ele>72</ele><time>2018-08-25T19:33:56Z</time></trkpt><trkpt lat="34.26374832" lon="-6.63164533"><ele>73</ele><time>2018-08-25T19:33:57Z</time></trkpt><trkpt lat="34.26368158" lon="-6.63162804"><ele>69</ele><time>2018-08-25T19:33:58Z</time></trkpt><trkpt lat="34.26362239" lon="-6.63160695"><ele>71</ele><time>2018-08-25T19:33:59Z</time></trkpt><trkpt lat="34.26355942" lon="-6.63159697"><ele>71</ele><time>2018-08-25T19:34:00Z</time></trkpt><trkpt lat="34.26350109" lon="-6.63158142"><ele>67</ele><time>2018-08-25T19:34:01Z</time></trkpt><trkpt lat="34.26340987" lon="-6.6315364"><ele>65</ele><time>2018-08-25T19:34:02Z</time></trkpt><trkpt lat="34.26335034" lon="-6.63151673"><ele>67</ele><time>2018-08-25T19:34:03Z</time></trkpt><trkpt lat="34.26328237" lon="-6.6314794"><ele>67</ele><time>2018-08-25T19:34:04Z</time></trkpt><trkpt lat="34.26321086" lon="-6.63144648"><ele>67</ele><time>2018-08-25T19:34:05Z</time></trkpt><trkpt lat="34.26315897" lon="-6.63142073"><ele>67</ele><time>2018-08-25T19:34:06Z</time></trkpt><trkpt lat="34.26309322" lon="-6.63140363"><ele>67</ele><time>2018-08-25T19:34:07Z</time></trkpt><trkpt lat="34.2630292" lon="-6.63138185"><ele>67</ele><time>2018-08-25T19:34:08Z</time></trkpt><trkpt lat="34.26298" lon="-6.63137118"><ele>67</ele><time>2018-08-25T19:34:09Z</time></trkpt><trkpt lat="34.26291734" lon="-6.63134316"><ele>65</ele><time>2018-08-25T19:34:10Z</time></trkpt><trkpt lat="34.26284156" lon="-6.63131533"><ele>66</ele><time>2018-08-25T19:34:11Z</time></trkpt><trkpt lat="34.26275086" lon="-6.6312968"><ele>68</ele><time>2018-08-25T19:34:12Z</time></trkpt><trkpt lat="34.26267024" lon="-6.63125993"><ele>68</ele><time>2018-08-25T19:34:13Z</time></trkpt><trkpt lat="34.26259703" lon="-6.63122246"><ele>69</ele><time>2018-08-25T19:34:14Z</time></trkpt><trkpt lat="34.26252473" lon="-6.63118029"><ele>70</ele><time>2018-08-25T19:34:15Z</time></trkpt><trkpt lat="34.2624436" lon="-6.63114463"><ele>69</ele><time>2018-08-25T19:34:16Z</time></trkpt><trkpt lat="34.26237667" lon="-6.63111182"><ele>70</ele><time>2018-08-25T19:34:17Z</time></trkpt><trkpt lat="34.26231161" lon="-6.63108226"><ele>71</ele><time>2018-08-25T19:34:18Z</time></trkpt><trkpt lat="34.26222775" lon="-6.63104241"><ele>72</ele><time>2018-08-25T19:34:19Z</time></trkpt><trkpt lat="34.26215088" lon="-6.63102133"><ele>71</ele><time>2018-08-25T19:34:20Z</time></trkpt><trkpt lat="34.26207658" lon="-6.63099549"><ele>73</ele><time>2018-08-25T19:34:21Z</time></trkpt><trkpt lat="34.26200597" lon="-6.63096739"><ele>73</ele><time>2018-08-25T19:34:22Z</time></trkpt><trkpt lat="34.26192899" lon="-6.63093403"><ele>73</ele><time>2018-08-25T19:34:23Z</time></trkpt><trkpt lat="34.26185276" lon="-6.6309026"><ele>74</ele><time>2018-08-25T19:34:24Z</time></trkpt><trkpt lat="34.26179011" lon="-6.6308792"><ele>75</ele><time>2018-08-25T19:34:25Z</time></trkpt><trkpt lat="34.26172211" lon="-6.63085017"><ele>74</ele><time>2018-08-25T19:34:26Z</time></trkpt><trkpt lat="34.26167586" lon="-6.63085755"><ele>74</ele><time>2018-08-25T19:34:27Z</time></trkpt><trkpt lat="34.26159675" lon="-6.6308281"><ele>71</ele><time>2018-08-25T19:34:28Z</time></trkpt><trkpt lat="34.26153219" lon="-6.63080679"><ele>69</ele><time>2018-08-25T19:34:29Z</time></trkpt><trkpt lat="34.26146338" lon="-6.63078837"><ele>69</ele><time>2018-08-25T19:34:30Z</time></trkpt><trkpt lat="34.26141016" lon="-6.63076467"><ele>71</ele><time>2018-08-25T19:34:31Z</time></trkpt><trkpt lat="34.26134669" lon="-6.63073893"><ele>69</ele><time>2018-08-25T19:34:32Z</time></trkpt><trkpt lat="34.26127691" lon="-6.6307338"><ele>69</ele><time>2018-08-25T19:34:33Z</time></trkpt><trkpt lat="34.26121706" lon="-6.63071158"><ele>70</ele><time>2018-08-25T19:34:34Z</time></trkpt><trkpt lat="34.26116206" lon="-6.63068278"><ele>71</ele><time>2018-08-25T19:34:35Z</time></trkpt><trkpt lat="34.26110393" lon="-6.63065429"><ele>73</ele><time>2018-08-25T19:34:36Z</time></trkpt><trkpt lat="34.26104146" lon="-6.63062752"><ele>74</ele><time>2018-08-25T19:34:37Z</time></trkpt><trkpt lat="34.26099637" lon="-6.6306146"><ele>73</ele><time>2018-08-25T19:34:38Z</time></trkpt><trkpt lat="34.26093707" lon="-6.63060341"><ele>74</ele><time>2018-08-25T19:34:39Z</time></trkpt><trkpt lat="34.2608868" lon="-6.63058533"><ele>73</ele><time>2018-08-25T19:34:40Z</time></trkpt><trkpt lat="34.2608299" lon="-6.63055985"><ele>74</ele><time>2018-08-25T19:34:41Z</time></trkpt><trkpt lat="34.2607659" lon="-6.6305267"><ele>74</ele><time>2018-08-25T19:34:42Z</time></trkpt><trkpt lat="34.26072" lon="-6.63050304"><ele>74</ele><time>2018-08-25T19:34:43Z</time></trkpt><trkpt lat="34.26066512" lon="-6.63049027"><ele>75</ele><time>2018-08-25T19:34:44Z</time></trkpt><trkpt lat="34.26061505" lon="-6.63047829"><ele>75</ele><time>2018-08-25T19:34:45Z</time></trkpt><trkpt lat="34.26056277" lon="-6.63045528"><ele>74</ele><time>2018-08-25T19:34:46Z</time></trkpt><trkpt lat="34.26050752" lon="-6.63042583"><ele>73</ele><time>2018-08-25T19:34:47Z</time></trkpt><trkpt lat="34.2604602" lon="-6.63039423"><ele>73</ele><time>2018-08-25T19:34:48Z</time></trkpt><trkpt lat="34.26039532" lon="-6.6303266"><ele>76</ele><time>2018-08-25T19:34:49Z</time></trkpt><trkpt lat="34.26033956" lon="-6.63031243"><ele>73</ele><time>2018-08-25T19:34:50Z</time></trkpt><trkpt lat="34.26029553" lon="-6.63029817"><ele>76</ele><time>2018-08-25T19:34:51Z</time></trkpt><trkpt lat="34.26028771" lon="-6.63028099"><ele>77</ele><time>2018-08-25T19:34:52Z</time></trkpt><trkpt lat="34.26029197" lon="-6.63024645"><ele>77</ele><time>2018-08-25T19:34:53Z</time></trkpt><trkpt lat="34.26030533" lon="-6.63023471"><ele>78</ele><time>2018-08-25T19:34:54Z</time></trkpt><trkpt lat="34.26034121" lon="-6.63022888"><ele>77</ele><time>2018-08-25T19:34:55Z</time></trkpt><trkpt lat="34.26038174" lon="-6.63024041"><ele>75</ele><time>2018-08-25T19:34:56Z</time></trkpt><trkpt lat="34.26042902" lon="-6.63026746"><ele>75</ele><time>2018-08-25T19:34:57Z</time></trkpt><trkpt lat="34.2604712" lon="-6.63028216"><ele>76</ele><time>2018-08-25T19:34:58Z</time></trkpt><trkpt lat="34.26052113" lon="-6.63029664"><ele>75</ele><time>2018-08-25T19:34:59Z</time></trkpt><trkpt lat="34.26058904" lon="-6.63030399"><ele>75</ele><time>2018-08-25T19:35:00Z</time></trkpt><trkpt lat="34.26064034" lon="-6.6303228"><ele>76</ele><time>2018-08-25T19:35:01Z</time></trkpt><trkpt lat="34.26069258" lon="-6.63036129"><ele>77</ele><time>2018-08-25T19:35:02Z</time></trkpt><trkpt lat="34.26075154" lon="-6.63038795"><ele>78</ele><time>2018-08-25T19:35:03Z</time></trkpt><trkpt lat="34.26082777" lon="-6.63042962"><ele>78</ele><time>2018-08-25T19:35:04Z</time></trkpt><trkpt lat="34.26090001" lon="-6.63045418"><ele>78</ele><time>2018-08-25T19:35:05Z</time></trkpt><trkpt lat="34.26097291" lon="-6.63048323"><ele>78</ele><time>2018-08-25T19:35:06Z</time></trkpt><trkpt lat="34.2610443" lon="-6.63050518"><ele>77</ele><time>2018-08-25T19:35:07Z</time></trkpt><trkpt lat="34.26111625" lon="-6.63053623"><ele>76</ele><time>2018-08-25T19:35:08Z</time></trkpt><trkpt lat="34.26118507" lon="-6.63056406"><ele>76</ele><time>2018-08-25T19:35:09Z</time></trkpt><trkpt lat="34.26125543" lon="-6.63058803"><ele>76</ele><time>2018-08-25T19:35:10Z</time></trkpt><trkpt lat="34.261331" lon="-6.63061426"><ele>76</ele><time>2018-08-25T19:35:11Z</time></trkpt><trkpt lat="34.26141913" lon="-6.63063983"><ele>77</ele><time>2018-08-25T19:35:12Z</time></trkpt><trkpt lat="34.26149252" lon="-6.6306614"><ele>76</ele><time>2018-08-25T19:35:13Z</time></trkpt><trkpt lat="34.2615628" lon="-6.63068823"><ele>76</ele><time>2018-08-25T19:35:14Z</time></trkpt><trkpt lat="34.26163838" lon="-6.63071627"><ele>77</ele><time>2018-08-25T19:35:15Z</time></trkpt><trkpt lat="34.26171218" lon="-6.63074091"><ele>77</ele><time>2018-08-25T19:35:16Z</time></trkpt><trkpt lat="34.26178297" lon="-6.63076333"><ele>76</ele><time>2018-08-25T19:35:17Z</time></trkpt><trkpt lat="34.26184332" lon="-6.63077855"><ele>75</ele><time>2018-08-25T19:35:18Z</time></trkpt><trkpt lat="34.26190245" lon="-6.63079504"><ele>77</ele><time>2018-08-25T19:35:19Z</time></trkpt><trkpt lat="34.26196014" lon="-6.63081883"><ele>77</ele><time>2018-08-25T19:35:20Z</time></trkpt><trkpt lat="34.26199723" lon="-6.63082996"><ele>78</ele><time>2018-08-25T19:35:21Z</time></trkpt><trkpt lat="34.2620919" lon="-6.63089537"><ele>80</ele><time>2018-08-25T19:35:22Z</time></trkpt><trkpt lat="34.2621758" lon="-6.63092595"><ele>76</ele><time>2018-08-25T19:35:23Z</time></trkpt><trkpt lat="34.26224123" lon="-6.63092696"><ele>75</ele><time>2018-08-25T19:35:24Z</time></trkpt><trkpt lat="34.26230789" lon="-6.63093971"><ele>75</ele><time>2018-08-25T19:35:25Z</time></trkpt><trkpt lat="34.26236239" lon="-6.63094219"><ele>75</ele><time>2018-08-25T19:35:26Z</time></trkpt><trkpt lat="34.2624314" lon="-6.63095718"><ele>77</ele><time>2018-08-25T19:35:27Z</time></trkpt><trkpt lat="34.26249796" lon="-6.63097341"><ele>77</ele><time>2018-08-25T19:35:28Z</time></trkpt><trkpt lat="34.26257182" lon="-6.6309975"><ele>78</ele><time>2018-08-25T19:35:29Z</time></trkpt><trkpt lat="34.26263455" lon="-6.63101876"><ele>78</ele><time>2018-08-25T19:35:30Z</time></trkpt><trkpt lat="34.26271517" lon="-6.63104014"><ele>78</ele><time>2018-08-25T19:35:31Z</time></trkpt><trkpt lat="34.26278327" lon="-6.63105945"><ele>78</ele><time>2018-08-25T19:35:32Z</time></trkpt><trkpt lat="34.26284748" lon="-6.63108003"><ele>78</ele><time>2018-08-25T19:35:33Z</time></trkpt><trkpt lat="34.26291501" lon="-6.63112835"><ele>78</ele><time>2018-08-25T19:35:34Z</time></trkpt><trkpt lat="34.26300057" lon="-6.63115603"><ele>80</ele><time>2018-08-25T19:35:35Z</time></trkpt><trkpt lat="34.26307859" lon="-6.63118563"><ele>79</ele><time>2018-08-25T19:35:36Z</time></trkpt><trkpt lat="34.26311975" lon="-6.63119489"><ele>79</ele><time>2018-08-25T19:35:37Z</time></trkpt><trkpt lat="34.263184" lon="-6.63119047"><ele>80</ele><time>2018-08-25T19:35:38Z</time></trkpt><trkpt lat="34.26324352" lon="-6.63120752"><ele>73</ele><time>2018-08-25T19:35:39Z</time></trkpt><trkpt lat="34.263322" lon="-6.63123325"><ele>75</ele><time>2018-08-25T19:35:40Z</time></trkpt><trkpt lat="34.26339214" lon="-6.63126253"><ele>75</ele><time>2018-08-25T19:35:41Z</time></trkpt><trkpt lat="34.26346623" lon="-6.63129025"><ele>76</ele><time>2018-08-25T19:35:42Z</time></trkpt><trkpt lat="34.26352983" lon="-6.63130924"><ele>75</ele><time>2018-08-25T19:35:43Z</time></trkpt><trkpt lat="34.26358645" lon="-6.6313502"><ele>75</ele><time>2018-08-25T19:35:44Z</time></trkpt><trkpt lat="34.26363563" lon="-6.63137062"><ele>76</ele><time>2018-08-25T19:35:45Z</time></trkpt><trkpt lat="34.26369981" lon="-6.63139576"><ele>77</ele><time>2018-08-25T19:35:46Z</time></trkpt><trkpt lat="34.26375982" lon="-6.63143838"><ele>77</ele><time>2018-08-25T19:35:47Z</time></trkpt><trkpt lat="34.26383233" lon="-6.63146047"><ele>76</ele><time>2018-08-25T19:35:48Z</time></trkpt><trkpt lat="34.26389472" lon="-6.63146365"><ele>76</ele><time>2018-08-25T19:35:49Z</time></trkpt><trkpt lat="34.26395929" lon="-6.63149271"><ele>76</ele><time>2018-08-25T19:35:50Z</time></trkpt><trkpt lat="34.26402601" lon="-6.6315104"><ele>77</ele><time>2018-08-25T19:35:51Z</time></trkpt><trkpt lat="34.26409404" lon="-6.63153703"><ele>78</ele><time>2018-08-25T19:35:52Z</time></trkpt><trkpt lat="34.26416967" lon="-6.63156166"><ele>80</ele><time>2018-08-25T19:35:53Z</time></trkpt><trkpt lat="34.26423146" lon="-6.63159631"><ele>80</ele><time>2018-08-25T19:35:54Z</time></trkpt><trkpt lat="34.26430065" lon="-6.63161615"><ele>81</ele><time>2018-08-25T19:35:55Z</time></trkpt><trkpt lat="34.26437386" lon="-6.63164132"><ele>80</ele><time>2018-08-25T19:35:56Z</time></trkpt><trkpt lat="34.26443269" lon="-6.63168615"><ele>82</ele><time>2018-08-25T19:35:57Z</time></trkpt><trkpt lat="34.26450417" lon="-6.63173544"><ele>84</ele><time>2018-08-25T19:35:58Z</time></trkpt><trkpt lat="34.26458553" lon="-6.63176911"><ele>82</ele><time>2018-08-25T19:35:59Z</time></trkpt><trkpt lat="34.2646542" lon="-6.63179836"><ele>78</ele><time>2018-08-25T19:36:00Z</time></trkpt><trkpt lat="34.26472131" lon="-6.63181114"><ele>77</ele><time>2018-08-25T19:36:01Z</time></trkpt><trkpt lat="34.26478787" lon="-6.63183203"><ele>76</ele><time>2018-08-25T19:36:02Z</time></trkpt><trkpt lat="34.26485904" lon="-6.63184623"><ele>77</ele><time>2018-08-25T19:36:03Z</time></trkpt><trkpt lat="34.26493548" lon="-6.63188122"><ele>77</ele><time>2018-08-25T19:36:04Z</time></trkpt><trkpt lat="34.26501159" lon="-6.63191242"><ele>78</ele><time>2018-08-25T19:36:05Z</time></trkpt><trkpt lat="34.26507662" lon="-6.63194736"><ele>79</ele><time>2018-08-25T19:36:06Z</time></trkpt><trkpt lat="34.26513407" lon="-6.63198509"><ele>80</ele><time>2018-08-25T19:36:07Z</time></trkpt><trkpt lat="34.2651973" lon="-6.63199745"><ele>80</ele><time>2018-08-25T19:36:08Z</time></trkpt><trkpt lat="34.26526361" lon="-6.63201019"><ele>79</ele><time>2018-08-25T19:36:09Z</time></trkpt><trkpt lat="34.26533059" lon="-6.63201631"><ele>79</ele><time>2018-08-25T19:36:10Z</time></trkpt><trkpt lat="34.26540818" lon="-6.63204857"><ele>79</ele><time>2018-08-25T19:36:11Z</time></trkpt><trkpt lat="34.26548767" lon="-6.63208526"><ele>78</ele><time>2018-08-25T19:36:12Z</time></trkpt><trkpt lat="34.26556053" lon="-6.63211462"><ele>77</ele><time>2018-08-25T19:36:13Z</time></trkpt><trkpt lat="34.26563204" lon="-6.63213565"><ele>77</ele><time>2018-08-25T19:36:14Z</time></trkpt><trkpt lat="34.26569792" lon="-6.63215606"><ele>75</ele><time>2018-08-25T19:36:15Z</time></trkpt><trkpt lat="34.26576666" lon="-6.63218002"><ele>76</ele><time>2018-08-25T19:36:16Z</time></trkpt><trkpt lat="34.26582906" lon="-6.63219837"><ele>76</ele><time>2018-08-25T19:36:17Z</time></trkpt><trkpt lat="34.26589309" lon="-6.63221566"><ele>77</ele><time>2018-08-25T19:36:18Z</time></trkpt><trkpt lat="34.26596884" lon="-6.63224046"><ele>78</ele><time>2018-08-25T19:36:19Z</time></trkpt><trkpt lat="34.26603221" lon="-6.63227224"><ele>76</ele><time>2018-08-25T19:36:20Z</time></trkpt><trkpt lat="34.26609825" lon="-6.63229003"><ele>77</ele><time>2018-08-25T19:36:21Z</time></trkpt><trkpt lat="34.26616711" lon="-6.63232237"><ele>77</ele><time>2018-08-25T19:36:22Z</time></trkpt><trkpt lat="34.2662379" lon="-6.6323429"><ele>78</ele><time>2018-08-25T19:36:23Z</time></trkpt><trkpt lat="34.26630463" lon="-6.6323758"><ele>78</ele><time>2018-08-25T19:36:24Z</time></trkpt><trkpt lat="34.26638041" lon="-6.63240535"><ele>79</ele><time>2018-08-25T19:36:25Z</time></trkpt><trkpt lat="34.26644697" lon="-6.63241023"><ele>79</ele><time>2018-08-25T19:36:26Z</time></trkpt><trkpt lat="34.26650361" lon="-6.63242338"><ele>80</ele><time>2018-08-25T19:36:27Z</time></trkpt><trkpt lat="34.26655894" lon="-6.63246404"><ele>81</ele><time>2018-08-25T19:36:28Z</time></trkpt><trkpt lat="34.26662587" lon="-6.63248698"><ele>82</ele><time>2018-08-25T19:36:29Z</time></trkpt><trkpt lat="34.26674009" lon="-6.63261283"><ele>84</ele><time>2018-08-25T19:36:30Z</time></trkpt><trkpt lat="34.26680912" lon="-6.63263412"><ele>87</ele><time>2018-08-25T19:36:31Z</time></trkpt><trkpt lat="34.26688762" lon="-6.63265862"><ele>87</ele><time>2018-08-25T19:36:32Z</time></trkpt><trkpt lat="34.26696641" lon="-6.6326847"><ele>87</ele><time>2018-08-25T19:36:33Z</time></trkpt><trkpt lat="34.26706109" lon="-6.63273282"><ele>87</ele><time>2018-08-25T19:36:34Z</time></trkpt><trkpt lat="34.26714009" lon="-6.63276482"><ele>85</ele><time>2018-08-25T19:36:35Z</time></trkpt><trkpt lat="34.26720471" lon="-6.63278652"><ele>85</ele><time>2018-08-25T19:36:36Z</time></trkpt><trkpt lat="34.26729311" lon="-6.63282292"><ele>87</ele><time>2018-08-25T19:36:37Z</time></trkpt><trkpt lat="34.26737636" lon="-6.63286143"><ele>88</ele><time>2018-08-25T19:36:38Z</time></trkpt><trkpt lat="34.26750152" lon="-6.63290929"><ele>88</ele><time>2018-08-25T19:36:39Z</time></trkpt><trkpt lat="34.26757864" lon="-6.63293788"><ele>84</ele><time>2018-08-25T19:36:40Z</time></trkpt><trkpt lat="34.26765017" lon="-6.63297058"><ele>85</ele><time>2018-08-25T19:36:41Z</time></trkpt><trkpt lat="34.26772506" lon="-6.63300142"><ele>85</ele><time>2018-08-25T19:36:42Z</time></trkpt><trkpt lat="34.26778789" lon="-6.63302852"><ele>84</ele><time>2018-08-25T19:36:43Z</time></trkpt><trkpt lat="34.26786089" lon="-6.63306842"><ele>82</ele><time>2018-08-25T19:36:44Z</time></trkpt><trkpt lat="34.26790631" lon="-6.63306063"><ele>82</ele><time>2018-08-25T19:36:45Z</time></trkpt><trkpt lat="34.26798465" lon="-6.63308556"><ele>85</ele><time>2018-08-25T19:36:46Z</time></trkpt><trkpt lat="34.26807714" lon="-6.63308961"><ele>86</ele><time>2018-08-25T19:36:47Z</time></trkpt><trkpt lat="34.26814671" lon="-6.63311554"><ele>84</ele><time>2018-08-25T19:36:48Z</time></trkpt><trkpt lat="34.26822054" lon="-6.63312425"><ele>85</ele><time>2018-08-25T19:36:49Z</time></trkpt><trkpt lat="34.26828686" lon="-6.63315502"><ele>87</ele><time>2018-08-25T19:36:50Z</time></trkpt><trkpt lat="34.26835679" lon="-6.63318125"><ele>86</ele><time>2018-08-25T19:36:51Z</time></trkpt><trkpt lat="34.26842248" lon="-6.63319932"><ele>86</ele><time>2018-08-25T19:36:52Z</time></trkpt><trkpt lat="34.26849737" lon="-6.63321163"><ele>83</ele><time>2018-08-25T19:36:53Z</time></trkpt><trkpt lat="34.26856538" lon="-6.63323956"><ele>82</ele><time>2018-08-25T19:36:54Z</time></trkpt><trkpt lat="34.26864185" lon="-6.63325125"><ele>81</ele><time>2018-08-25T19:36:55Z</time></trkpt><trkpt lat="34.26872007" lon="-6.63327853"><ele>83</ele><time>2018-08-25T19:36:56Z</time></trkpt><trkpt lat="34.26878296" lon="-6.63331566"><ele>81</ele><time>2018-08-25T19:36:57Z</time></trkpt><trkpt lat="34.26884763" lon="-6.63334361"><ele>83</ele><time>2018-08-25T19:36:58Z</time></trkpt><trkpt lat="34.26891432" lon="-6.63337059"><ele>84</ele><time>2018-08-25T19:36:59Z</time></trkpt><trkpt lat="34.26897699" lon="-6.63338566"><ele>84</ele><time>2018-08-25T19:37:00Z</time></trkpt><trkpt lat="34.26903185" lon="-6.6334106"><ele>83</ele><time>2018-08-25T19:37:01Z</time></trkpt><trkpt lat="34.26910171" lon="-6.63343864"><ele>82</ele><time>2018-08-25T19:37:02Z</time></trkpt><trkpt lat="34.26916124" lon="-6.63346378"><ele>81</ele><time>2018-08-25T19:37:03Z</time></trkpt><trkpt lat="34.2692344" lon="-6.63349624"><ele>82</ele><time>2018-08-25T19:37:04Z</time></trkpt><trkpt lat="34.26928986" lon="-6.63352414"><ele>81</ele><time>2018-08-25T19:37:05Z</time></trkpt><trkpt lat="34.2693477" lon="-6.63355071"><ele>82</ele><time>2018-08-25T19:37:06Z</time></trkpt><trkpt lat="34.26939275" lon="-6.63359019"><ele>83</ele><time>2018-08-25T19:37:07Z</time></trkpt><trkpt lat="34.26946404" lon="-6.63360129"><ele>82</ele><time>2018-08-25T19:37:08Z</time></trkpt><trkpt lat="34.26952392" lon="-6.63362916"><ele>82</ele><time>2018-08-25T19:37:09Z</time></trkpt><trkpt lat="34.26959852" lon="-6.63365313"><ele>82</ele><time>2018-08-25T19:37:10Z</time></trkpt><trkpt lat="34.26966427" lon="-6.63368032"><ele>84</ele><time>2018-08-25T19:37:11Z</time></trkpt><trkpt lat="34.2697328" lon="-6.63371038"><ele>85</ele><time>2018-08-25T19:37:12Z</time></trkpt><trkpt lat="34.26982012" lon="-6.63375073"><ele>85</ele><time>2018-08-25T19:37:13Z</time></trkpt><trkpt lat="34.26988528" lon="-6.6337722"><ele>85</ele><time>2018-08-25T19:37:14Z</time></trkpt><trkpt lat="34.26992962" lon="-6.63380419"><ele>85</ele><time>2018-08-25T19:37:15Z</time></trkpt><trkpt lat="34.26995398" lon="-6.63379164"><ele>85</ele><time>2018-08-25T19:37:16Z</time></trkpt><trkpt lat="34.26996905" lon="-6.63384493"><ele>85</ele><time>2018-08-25T19:37:17Z</time></trkpt><trkpt lat="34.26998855" lon="-6.63387478"><ele>84</ele><time>2018-08-25T19:37:18Z</time></trkpt><trkpt lat="34.26991817" lon="-6.63387106"><ele>84</ele><time>2018-08-25T19:37:19Z</time></trkpt><trkpt lat="34.26987412" lon="-6.63384998"><ele>85</ele><time>2018-08-25T19:37:20Z</time></trkpt><trkpt lat="34.26979686" lon="-6.63379499"><ele>86</ele><time>2018-08-25T19:37:21Z</time></trkpt><trkpt lat="34.26974695" lon="-6.63377094"><ele>82</ele><time>2018-08-25T19:37:22Z</time></trkpt><trkpt lat="34.26968644" lon="-6.6337262"><ele>81</ele><time>2018-08-25T19:37:23Z</time></trkpt><trkpt lat="34.26963858" lon="-6.63372857"><ele>77</ele><time>2018-08-25T19:37:24Z</time></trkpt><trkpt lat="34.26958857" lon="-6.63369185"><ele>77</ele><time>2018-08-25T19:37:25Z</time></trkpt><trkpt lat="34.26953937" lon="-6.63366321"><ele>76</ele><time>2018-08-25T19:37:26Z</time></trkpt><trkpt lat="34.26946746" lon="-6.63368359"><ele>75</ele><time>2018-08-25T19:37:27Z</time></trkpt><trkpt lat="34.26941602" lon="-6.63368647"><ele>75</ele><time>2018-08-25T19:37:28Z</time></trkpt><trkpt lat="34.26935154" lon="-6.63366064"><ele>71</ele><time>2018-08-25T19:37:29Z</time></trkpt><trkpt lat="34.26928381" lon="-6.63363704"><ele>70</ele><time>2018-08-25T19:37:30Z</time></trkpt><trkpt lat="34.26919946" lon="-6.63361314"><ele>69</ele><time>2018-08-25T19:37:31Z</time></trkpt><trkpt lat="34.2691387" lon="-6.63358577"><ele>73</ele><time>2018-08-25T19:37:32Z</time></trkpt><trkpt lat="34.26907063" lon="-6.63356183"><ele>71</ele><time>2018-08-25T19:37:33Z</time></trkpt><trkpt lat="34.26899951" lon="-6.63353761"><ele>70</ele><time>2018-08-25T19:37:34Z</time></trkpt><trkpt lat="34.26892721" lon="-6.63350705"><ele>72</ele><time>2018-08-25T19:37:35Z</time></trkpt><trkpt lat="34.26885554" lon="-6.63347586"><ele>72</ele><time>2018-08-25T19:37:36Z</time></trkpt><trkpt lat="34.26878976" lon="-6.63347434"><ele>71</ele><time>2018-08-25T19:37:37Z</time></trkpt><trkpt lat="34.26871918" lon="-6.63343249"><ele>72</ele><time>2018-08-25T19:37:38Z</time></trkpt><trkpt lat="34.26864886" lon="-6.63342039"><ele>73</ele><time>2018-08-25T19:37:39Z</time></trkpt><trkpt lat="34.26858589" lon="-6.63340013"><ele>71</ele><time>2018-08-25T19:37:40Z</time></trkpt><trkpt lat="34.26853715" lon="-6.63338867"><ele>71</ele><time>2018-08-25T19:37:41Z</time></trkpt><trkpt lat="34.26847531" lon="-6.63339284"><ele>72</ele><time>2018-08-25T19:37:42Z</time></trkpt><trkpt lat="34.26838602" lon="-6.63337892"><ele>71</ele><time>2018-08-25T19:37:43Z</time></trkpt><trkpt lat="34.2683055" lon="-6.63334569"><ele>72</ele><time>2018-08-25T19:37:44Z</time></trkpt><trkpt lat="34.26823825" lon="-6.6333044"><ele>71</ele><time>2018-08-25T19:37:45Z</time></trkpt><trkpt lat="34.26815335" lon="-6.63330402"><ele>72</ele><time>2018-08-25T19:37:46Z</time></trkpt><trkpt lat="34.2680965" lon="-6.63327869"><ele>73</ele><time>2018-08-25T19:37:47Z</time></trkpt><trkpt lat="34.26803308" lon="-6.63324994"><ele>73</ele><time>2018-08-25T19:37:48Z</time></trkpt><trkpt lat="34.2679692" lon="-6.63322672"><ele>72</ele><time>2018-08-25T19:37:49Z</time></trkpt><trkpt lat="34.26789971" lon="-6.63319655"><ele>71</ele><time>2018-08-25T19:37:50Z</time></trkpt><trkpt lat="34.26787163" lon="-6.63316584"><ele>71</ele><time>2018-08-25T19:37:51Z</time></trkpt><trkpt lat="34.2678017" lon="-6.63313097"><ele>73</ele><time>2018-08-25T19:37:52Z</time></trkpt><trkpt lat="34.26772391" lon="-6.63307672"><ele>75</ele><time>2018-08-25T19:37:53Z</time></trkpt><trkpt lat="34.26767482" lon="-6.633054"><ele>72</ele><time>2018-08-25T19:37:54Z</time></trkpt><trkpt lat="34.26761534" lon="-6.63303006"><ele>70</ele><time>2018-08-25T19:37:55Z</time></trkpt><trkpt lat="34.26754089" lon="-6.63300656"><ele>70</ele><time>2018-08-25T19:37:56Z</time></trkpt><trkpt lat="34.26746842" lon="-6.63299764"><ele>70</ele><time>2018-08-25T19:37:57Z</time></trkpt><trkpt lat="34.26740781" lon="-6.63297457"><ele>70</ele><time>2018-08-25T19:37:58Z</time></trkpt><trkpt lat="34.26735402" lon="-6.63296044"><ele>70</ele><time>2018-08-25T19:37:59Z</time></trkpt><trkpt lat="34.26729958" lon="-6.63294833"><ele>71</ele><time>2018-08-25T19:38:00Z</time></trkpt><trkpt lat="34.26723936" lon="-6.63293129"><ele>71</ele><time>2018-08-25T19:38:01Z</time></trkpt><trkpt lat="34.26716967" lon="-6.63291659"><ele>72</ele><time>2018-08-25T19:38:02Z</time></trkpt><trkpt lat="34.26710905" lon="-6.63289722"><ele>72</ele><time>2018-08-25T19:38:03Z</time></trkpt><trkpt lat="34.26703753" lon="-6.63289728"><ele>71</ele><time>2018-08-25T19:38:04Z</time></trkpt><trkpt lat="34.26698108" lon="-6.63288875"><ele>70</ele><time>2018-08-25T19:38:05Z</time></trkpt><trkpt lat="34.26692119" lon="-6.63287155"><ele>69</ele><time>2018-08-25T19:38:06Z</time></trkpt><trkpt lat="34.26685783" lon="-6.63281623"><ele>69</ele><time>2018-08-25T19:38:07Z</time></trkpt><trkpt lat="34.26679841" lon="-6.63279196"><ele>70</ele><time>2018-08-25T19:38:08Z</time></trkpt><trkpt lat="34.26673985" lon="-6.63277244"><ele>70</ele><time>2018-08-25T19:38:09Z</time></trkpt><trkpt lat="34.26667589" lon="-6.63276011"><ele>70</ele><time>2018-08-25T19:38:10Z</time></trkpt><trkpt lat="34.26662102" lon="-6.63274241"><ele>67</ele><time>2018-08-25T19:38:11Z</time></trkpt><trkpt lat="34.26654512" lon="-6.63272422"><ele>68</ele><time>2018-08-25T19:38:12Z</time></trkpt><trkpt lat="34.266472" lon="-6.63268138"><ele>69</ele><time>2018-08-25T19:38:13Z</time></trkpt><trkpt lat="34.26641554" lon="-6.63264267"><ele>68</ele><time>2018-08-25T19:38:14Z</time></trkpt><trkpt lat="34.26635182" lon="-6.63263408"><ele>68</ele><time>2018-08-25T19:38:15Z</time></trkpt><trkpt lat="34.26629266" lon="-6.63261035"><ele>68</ele><time>2018-08-25T19:38:16Z</time></trkpt><trkpt lat="34.2662168" lon="-6.63256885"><ele>68</ele><time>2018-08-25T19:38:17Z</time></trkpt><trkpt lat="34.26615055" lon="-6.63252431"><ele>70</ele><time>2018-08-25T19:38:18Z</time></trkpt><trkpt lat="34.2660871" lon="-6.63252249"><ele>70</ele><time>2018-08-25T19:38:19Z</time></trkpt><trkpt lat="34.26602923" lon="-6.632506"><ele>71</ele><time>2018-08-25T19:38:20Z</time></trkpt><trkpt lat="34.26597487" lon="-6.63248585"><ele>72</ele><time>2018-08-25T19:38:21Z</time></trkpt><trkpt lat="34.26592541" lon="-6.63245654"><ele>72</ele><time>2018-08-25T19:38:22Z</time></trkpt><trkpt lat="34.26587398" lon="-6.63243294"><ele>72</ele><time>2018-08-25T19:38:23Z</time></trkpt><trkpt lat="34.26581115" lon="-6.63239901"><ele>73</ele><time>2018-08-25T19:38:24Z</time></trkpt><trkpt lat="34.26576067" lon="-6.63237672"><ele>73</ele><time>2018-08-25T19:38:25Z</time></trkpt><trkpt lat="34.2657131" lon="-6.63235589"><ele>74</ele><time>2018-08-25T19:38:26Z</time></trkpt><trkpt lat="34.26565701" lon="-6.63233704"><ele>74</ele><time>2018-08-25T19:38:27Z</time></trkpt><trkpt lat="34.26559096" lon="-6.63231881"><ele>74</ele><time>2018-08-25T19:38:28Z</time></trkpt><trkpt lat="34.26552348" lon="-6.63231178"><ele>73</ele><time>2018-08-25T19:38:29Z</time></trkpt><trkpt lat="34.26546599" lon="-6.63229254"><ele>74</ele><time>2018-08-25T19:38:30Z</time></trkpt><trkpt lat="34.26542082" lon="-6.63226922"><ele>74</ele><time>2018-08-25T19:38:31Z</time></trkpt><trkpt lat="34.26535732" lon="-6.63224737"><ele>73</ele><time>2018-08-25T19:38:32Z</time></trkpt><trkpt lat="34.26529408" lon="-6.63222559"><ele>73</ele><time>2018-08-25T19:38:33Z</time></trkpt><trkpt lat="34.2652497" lon="-6.63220225"><ele>73</ele><time>2018-08-25T19:38:34Z</time></trkpt><trkpt lat="34.2651938" lon="-6.63217764"><ele>74</ele><time>2018-08-25T19:38:35Z</time></trkpt><trkpt lat="34.26513707" lon="-6.63215021"><ele>74</ele><time>2018-08-25T19:38:36Z</time></trkpt><trkpt lat="34.26507667" lon="-6.63212043"><ele>73</ele><time>2018-08-25T19:38:37Z</time></trkpt><trkpt lat="34.26501153" lon="-6.63210389"><ele>74</ele><time>2018-08-25T19:38:38Z</time></trkpt><trkpt lat="34.26496016" lon="-6.63207807"><ele>75</ele><time>2018-08-25T19:38:39Z</time></trkpt><trkpt lat="34.26490973" lon="-6.63205179"><ele>75</ele><time>2018-08-25T19:38:40Z</time></trkpt><trkpt lat="34.26485875" lon="-6.63202609"><ele>75</ele><time>2018-08-25T19:38:41Z</time></trkpt><trkpt lat="34.26480198" lon="-6.63199876"><ele>75</ele><time>2018-08-25T19:38:42Z</time></trkpt><trkpt lat="34.26473867" lon="-6.63197715"><ele>75</ele><time>2018-08-25T19:38:43Z</time></trkpt><trkpt lat="34.26468505" lon="-6.63194559"><ele>76</ele><time>2018-08-25T19:38:44Z</time></trkpt><trkpt lat="34.26462454" lon="-6.63191908"><ele>76</ele><time>2018-08-25T19:38:45Z</time></trkpt><trkpt lat="34.2645683" lon="-6.6318914"><ele>76</ele><time>2018-08-25T19:38:46Z</time></trkpt><trkpt lat="34.26450158" lon="-6.63186471"><ele>77</ele><time>2018-08-25T19:38:47Z</time></trkpt><trkpt lat="34.2644643" lon="-6.63185598"><ele>78</ele><time>2018-08-25T19:38:48Z</time></trkpt><trkpt lat="34.26441349" lon="-6.63184266"><ele>77</ele><time>2018-08-25T19:38:49Z</time></trkpt><trkpt lat="34.2643719" lon="-6.63181262"><ele>77</ele><time>2018-08-25T19:38:50Z</time></trkpt><trkpt lat="34.26431289" lon="-6.63178617"><ele>77</ele><time>2018-08-25T19:38:51Z</time></trkpt><trkpt lat="34.26425496" lon="-6.63176828"><ele>78</ele><time>2018-08-25T19:38:52Z</time></trkpt><trkpt lat="34.26416717" lon="-6.63175099"><ele>78</ele><time>2018-08-25T19:38:53Z</time></trkpt><trkpt lat="34.26409785" lon="-6.63173702"><ele>78</ele><time>2018-08-25T19:38:54Z</time></trkpt><trkpt lat="34.26403536" lon="-6.63172362"><ele>77</ele><time>2018-08-25T19:38:55Z</time></trkpt><trkpt lat="34.26399105" lon="-6.63167838"><ele>77</ele><time>2018-08-25T19:38:56Z</time></trkpt><trkpt lat="34.2639001" lon="-6.63164809"><ele>79</ele><time>2018-08-25T19:38:57Z</time></trkpt><trkpt lat="34.26381231" lon="-6.63162186"><ele>81</ele><time>2018-08-25T19:38:58Z</time></trkpt><trkpt lat="34.26376538" lon="-6.63164333"><ele>78</ele><time>2018-08-25T19:38:59Z</time></trkpt><trkpt lat="34.26371328" lon="-6.63163094"><ele>75</ele><time>2018-08-25T19:39:00Z</time></trkpt><trkpt lat="34.2636264" lon="-6.63156878"><ele>75</ele><time>2018-08-25T19:39:01Z</time></trkpt><trkpt lat="34.2635825" lon="-6.63152874"><ele>74</ele><time>2018-08-25T19:39:02Z</time></trkpt><trkpt lat="34.26352285" lon="-6.63149735"><ele>74</ele><time>2018-08-25T19:39:03Z</time></trkpt><trkpt lat="34.26346184" lon="-6.63147972"><ele>74</ele><time>2018-08-25T19:39:04Z</time></trkpt><trkpt lat="34.2634099" lon="-6.63146165"><ele>75</ele><time>2018-08-25T19:39:05Z</time></trkpt><trkpt lat="34.26336454" lon="-6.63143144"><ele>75</ele><time>2018-08-25T19:39:06Z</time></trkpt><trkpt lat="34.26329822" lon="-6.63140526"><ele>74</ele><time>2018-08-25T19:39:07Z</time></trkpt><trkpt lat="34.26323757" lon="-6.63136968"><ele>75</ele><time>2018-08-25T19:39:08Z</time></trkpt><trkpt lat="34.26318588" lon="-6.63134046"><ele>75</ele><time>2018-08-25T19:39:09Z</time></trkpt><trkpt lat="34.26313041" lon="-6.63131766"><ele>75</ele><time>2018-08-25T19:39:10Z</time></trkpt><trkpt lat="34.26308583" lon="-6.63131051"><ele>76</ele><time>2018-08-25T19:39:11Z</time></trkpt><trkpt lat="34.26301551" lon="-6.63127958"><ele>73</ele><time>2018-08-25T19:39:12Z</time></trkpt><trkpt lat="34.26294208" lon="-6.63125331"><ele>73</ele><time>2018-08-25T19:39:13Z</time></trkpt><trkpt lat="34.262879" lon="-6.63122787"><ele>72</ele><time>2018-08-25T19:39:14Z</time></trkpt><trkpt lat="34.26279856" lon="-6.63121002"><ele>72</ele><time>2018-08-25T19:39:15Z</time></trkpt><trkpt lat="34.26272543" lon="-6.63119847"><ele>71</ele><time>2018-08-25T19:39:16Z</time></trkpt><trkpt lat="34.26266924" lon="-6.63118677"><ele>70</ele><time>2018-08-25T19:39:17Z</time></trkpt><trkpt lat="34.26259681" lon="-6.6311624"><ele>69</ele><time>2018-08-25T19:39:18Z</time></trkpt><trkpt lat="34.26253771" lon="-6.6311378"><ele>69</ele><time>2018-08-25T19:39:19Z</time></trkpt><trkpt lat="34.26244535" lon="-6.63111291"><ele>69</ele><time>2018-08-25T19:39:20Z</time></trkpt><trkpt lat="34.26237711" lon="-6.63108087"><ele>70</ele><time>2018-08-25T19:39:21Z</time></trkpt><trkpt lat="34.26231238" lon="-6.63105441"><ele>71</ele><time>2018-08-25T19:39:22Z</time></trkpt><trkpt lat="34.26224908" lon="-6.63102773"><ele>72</ele><time>2018-08-25T19:39:23Z</time></trkpt><trkpt lat="34.26218111" lon="-6.631007"><ele>73</ele><time>2018-08-25T19:39:24Z</time></trkpt><trkpt lat="34.26211966" lon="-6.63097449"><ele>74</ele><time>2018-08-25T19:39:25Z</time></trkpt><trkpt lat="34.26205167" lon="-6.63096036"><ele>76</ele><time>2018-08-25T19:39:26Z</time></trkpt><trkpt lat="34.26197589" lon="-6.63092332"><ele>77</ele><time>2018-08-25T19:39:27Z</time></trkpt><trkpt lat="34.2619075" lon="-6.63089587"><ele>77</ele><time>2018-08-25T19:39:28Z</time></trkpt><trkpt lat="34.26182663" lon="-6.63087349"><ele>77</ele><time>2018-08-25T19:39:29Z</time></trkpt><trkpt lat="34.2617688" lon="-6.63084912"><ele>76</ele><time>2018-08-25T19:39:30Z</time></trkpt><trkpt lat="34.26170614" lon="-6.63082644"><ele>76</ele><time>2018-08-25T19:39:31Z</time></trkpt><trkpt lat="34.26163741" lon="-6.6307987"><ele>77</ele><time>2018-08-25T19:39:32Z</time></trkpt><trkpt lat="34.26157428" lon="-6.63077591"><ele>77</ele><time>2018-08-25T19:39:33Z</time></trkpt><trkpt lat="34.26151918" lon="-6.63075765"><ele>78</ele><time>2018-08-25T19:39:34Z</time></trkpt><trkpt lat="34.26144095" lon="-6.63073635"><ele>79</ele><time>2018-08-25T19:39:35Z</time></trkpt><trkpt lat="34.26136962" lon="-6.63070032"><ele>78</ele><time>2018-08-25T19:39:36Z</time></trkpt><trkpt lat="34.26130001" lon="-6.63068015"><ele>79</ele><time>2018-08-25T19:39:37Z</time></trkpt><trkpt lat="34.26124356" lon="-6.63065827"><ele>79</ele><time>2018-08-25T19:39:38Z</time></trkpt><trkpt lat="34.26117917" lon="-6.6306344"><ele>80</ele><time>2018-08-25T19:39:39Z</time></trkpt><trkpt lat="34.26112768" lon="-6.63059971"><ele>79</ele><time>2018-08-25T19:39:40Z</time></trkpt><trkpt lat="34.2610705" lon="-6.63056624"><ele>80</ele><time>2018-08-25T19:39:41Z</time></trkpt><trkpt lat="34.26101169" lon="-6.63053437"><ele>80</ele><time>2018-08-25T19:39:42Z</time></trkpt><trkpt lat="34.26096372" lon="-6.63052391"><ele>79</ele><time>2018-08-25T19:39:43Z</time></trkpt><trkpt lat="34.2608926" lon="-6.63050634"><ele>77</ele><time>2018-08-25T19:39:44Z</time></trkpt><trkpt lat="34.26083445" lon="-6.63047503"><ele>77</ele><time>2018-08-25T19:39:45Z</time></trkpt><trkpt lat="34.26078649" lon="-6.6304543"><ele>78</ele><time>2018-08-25T19:39:46Z</time></trkpt><trkpt lat="34.26073834" lon="-6.63043356"><ele>81</ele><time>2018-08-25T19:39:47Z</time></trkpt><trkpt lat="34.26068501" lon="-6.63041521"><ele>81</ele><time>2018-08-25T19:39:48Z</time></trkpt><trkpt lat="34.26062313" lon="-6.63040218"><ele>81</ele><time>2018-08-25T19:39:49Z</time></trkpt><trkpt lat="34.26056896" lon="-6.63038656"><ele>81</ele><time>2018-08-25T19:39:50Z</time></trkpt><trkpt lat="34.26050546" lon="-6.63036825"><ele>80</ele><time>2018-08-25T19:39:51Z</time></trkpt><trkpt lat="34.26043703" lon="-6.63034417"><ele>81</ele><time>2018-08-25T19:39:52Z</time></trkpt><trkpt lat="34.26038941" lon="-6.63033539"><ele>80</ele><time>2018-08-25T19:39:53Z</time></trkpt><trkpt lat="34.26034304" lon="-6.63032287"><ele>82</ele><time>2018-08-25T19:39:54Z</time></trkpt><trkpt lat="34.26033179" lon="-6.63031698"><ele>82</ele><time>2018-08-25T19:39:55Z</time></trkpt><trkpt lat="34.26031195" lon="-6.63030791"><ele>83</ele><time>2018-08-25T19:39:56Z</time></trkpt><trkpt lat="34.26030614" lon="-6.63027798"><ele>82</ele><time>2018-08-25T19:39:57Z</time></trkpt><trkpt lat="34.26033003" lon="-6.63026319"><ele>82</ele><time>2018-08-25T19:39:58Z</time></trkpt><trkpt lat="34.26036673" lon="-6.63026165"><ele>81</ele><time>2018-08-25T19:39:59Z</time></trkpt><trkpt lat="34.26041145" lon="-6.6302697"><ele>82</ele><time>2018-08-25T19:40:00Z</time></trkpt><trkpt lat="34.2604513" lon="-6.63028987"><ele>81</ele><time>2018-08-25T19:40:01Z</time></trkpt><trkpt lat="34.26050467" lon="-6.63029667"><ele>79</ele><time>2018-08-25T19:40:02Z</time></trkpt><trkpt lat="34.2605682" lon="-6.63031814"><ele>80</ele><time>2018-08-25T19:40:03Z</time></trkpt><trkpt lat="34.26064508" lon="-6.6303384"><ele>81</ele><time>2018-08-25T19:40:04Z</time></trkpt><trkpt lat="34.26071311" lon="-6.63036057"><ele>80</ele><time>2018-08-25T19:40:05Z</time></trkpt><trkpt lat="34.26075513" lon="-6.63038351"><ele>81</ele><time>2018-08-25T19:40:06Z</time></trkpt><trkpt lat="34.26081143" lon="-6.6303975"><ele>81</ele><time>2018-08-25T19:40:07Z</time></trkpt><trkpt lat="34.2608727" lon="-6.63042833"><ele>81</ele><time>2018-08-25T19:40:08Z</time></trkpt><trkpt lat="34.26094874" lon="-6.63044572"><ele>83</ele><time>2018-08-25T19:40:09Z</time></trkpt><trkpt lat="34.26102022" lon="-6.6304662"><ele>84</ele><time>2018-08-25T19:40:10Z</time></trkpt><trkpt lat="34.26108767" lon="-6.63046551"><ele>83</ele><time>2018-08-25T19:40:11Z</time></trkpt><trkpt lat="34.26120157" lon="-6.63052071"><ele>82</ele><time>2018-08-25T19:40:12Z</time></trkpt><trkpt lat="34.26127898" lon="-6.63054317"><ele>80</ele><time>2018-08-25T19:40:13Z</time></trkpt><trkpt lat="34.26135921" lon="-6.63056749"><ele>83</ele><time>2018-08-25T19:40:14Z</time></trkpt><trkpt lat="34.26144711" lon="-6.63059289"><ele>84</ele><time>2018-08-25T19:40:15Z</time></trkpt><trkpt lat="34.26152174" lon="-6.63062379"><ele>83</ele><time>2018-08-25T19:40:16Z</time></trkpt><trkpt lat="34.26160069" lon="-6.63065381"><ele>85</ele><time>2018-08-25T19:40:17Z</time></trkpt><trkpt lat="34.26168745" lon="-6.63068187"><ele>85</ele><time>2018-08-25T19:40:18Z</time></trkpt><trkpt lat="34.26177111" lon="-6.63071721"><ele>84</ele><time>2018-08-25T19:40:19Z</time></trkpt><trkpt lat="34.26183417" lon="-6.63074345"><ele>84</ele><time>2018-08-25T19:40:20Z</time></trkpt><trkpt lat="34.26189195" lon="-6.63076134"><ele>86</ele><time>2018-08-25T19:40:21Z</time></trkpt><trkpt lat="34.26197715" lon="-6.63080332"><ele>86</ele><time>2018-08-25T19:40:22Z</time></trkpt><trkpt lat="34.26205328" lon="-6.63081631"><ele>85</ele><time>2018-08-25T19:40:23Z</time></trkpt><trkpt lat="34.26212923" lon="-6.63085159"><ele>85</ele><time>2018-08-25T19:40:24Z</time></trkpt><trkpt lat="34.26219216" lon="-6.63086582"><ele>82</ele><time>2018-08-25T19:40:25Z</time></trkpt><trkpt lat="34.26225849" lon="-6.63087181"><ele>82</ele><time>2018-08-25T19:40:26Z</time></trkpt><trkpt lat="34.2623456" lon="-6.63090584"><ele>83</ele><time>2018-08-25T19:40:27Z</time></trkpt><trkpt lat="34.26242681" lon="-6.63094101"><ele>83</ele><time>2018-08-25T19:40:28Z</time></trkpt><trkpt lat="34.26249227" lon="-6.6309703"><ele>85</ele><time>2018-08-25T19:40:29Z</time></trkpt><trkpt lat="34.26255333" lon="-6.63100997"><ele>85</ele><time>2018-08-25T19:40:30Z</time></trkpt><trkpt lat="34.26262372" lon="-6.63103273"><ele>88</ele><time>2018-08-25T19:40:31Z</time></trkpt><trkpt lat="34.26268546" lon="-6.63105216"><ele>88</ele><time>2018-08-25T19:40:32Z</time></trkpt><trkpt lat="34.26276485" lon="-6.63105993"><ele>88</ele><time>2018-08-25T19:40:33Z</time></trkpt><trkpt lat="34.26283826" lon="-6.63108105"><ele>87</ele><time>2018-08-25T19:40:34Z</time></trkpt><trkpt lat="34.26290329" lon="-6.63109856"><ele>86</ele><time>2018-08-25T19:40:35Z</time></trkpt><trkpt lat="34.26296665" lon="-6.63111942"><ele>85</ele><time>2018-08-25T19:40:36Z</time></trkpt><trkpt lat="34.2630317" lon="-6.6311381"><ele>84</ele><time>2018-08-25T19:40:37Z</time></trkpt><trkpt lat="34.26307476" lon="-6.63116477"><ele>84</ele><time>2018-08-25T19:40:38Z</time></trkpt><trkpt lat="34.26313489" lon="-6.6312052"><ele>84</ele><time>2018-08-25T19:40:39Z</time></trkpt><trkpt lat="34.26322032" lon="-6.63128115"><ele>83</ele><time>2018-08-25T19:40:40Z</time></trkpt><trkpt lat="34.26327563" lon="-6.63129385"><ele>80</ele><time>2018-08-25T19:40:41Z</time></trkpt><trkpt lat="34.26335518" lon="-6.63136"><ele>80</ele><time>2018-08-25T19:40:42Z</time></trkpt><trkpt lat="34.26343508" lon="-6.63139094"><ele>77</ele><time>2018-08-25T19:40:43Z</time></trkpt><trkpt lat="34.26348254" lon="-6.63138624"><ele>75</ele><time>2018-08-25T19:40:44Z</time></trkpt><trkpt lat="34.26353628" lon="-6.63141054"><ele>73</ele><time>2018-08-25T19:40:45Z</time></trkpt><trkpt lat="34.26358381" lon="-6.63143339"><ele>73</ele><time>2018-08-25T19:40:46Z</time></trkpt><trkpt lat="34.26364148" lon="-6.63146524"><ele>76</ele><time>2018-08-25T19:40:47Z</time></trkpt><trkpt lat="34.26369658" lon="-6.63148024"><ele>79</ele><time>2018-08-25T19:40:48Z</time></trkpt><trkpt lat="34.26375953" lon="-6.63150149"><ele>80</ele><time>2018-08-25T19:40:49Z</time></trkpt><trkpt lat="34.26381881" lon="-6.63151626"><ele>80</ele><time>2018-08-25T19:40:50Z</time></trkpt><trkpt lat="34.26387259" lon="-6.63153388"><ele>80</ele><time>2018-08-25T19:40:51Z</time></trkpt><trkpt lat="34.26392964" lon="-6.63155406"><ele>81</ele><time>2018-08-25T19:40:52Z</time></trkpt><trkpt lat="34.26394851" lon="-6.63158945"><ele>81</ele><time>2018-08-25T19:40:53Z</time></trkpt><trkpt lat="34.26400482" lon="-6.63160655"><ele>86</ele><time>2018-08-25T19:40:54Z</time></trkpt><trkpt lat="34.26405796" lon="-6.63162661"><ele>85</ele><time>2018-08-25T19:40:55Z</time></trkpt><trkpt lat="34.26412989" lon="-6.63162802"><ele>85</ele><time>2018-08-25T19:40:56Z</time></trkpt><trkpt lat="34.26419311" lon="-6.63163862"><ele>83</ele><time>2018-08-25T19:40:57Z</time></trkpt><trkpt lat="34.26428149" lon="-6.63165815"><ele>82</ele><time>2018-08-25T19:40:58Z</time></trkpt><trkpt lat="34.26436379" lon="-6.63166728"><ele>80</ele><time>2018-08-25T19:40:59Z</time></trkpt><trkpt lat="34.26442523" lon="-6.63169196"><ele>79</ele><time>2018-08-25T19:41:00Z</time></trkpt><trkpt lat="34.26449394" lon="-6.63171216"><ele>80</ele><time>2018-08-25T19:41:01Z</time></trkpt><trkpt lat="34.26453704" lon="-6.63175508"><ele>80</ele><time>2018-08-25T19:41:02Z</time></trkpt><trkpt lat="34.26459734" lon="-6.63178264"><ele>83</ele><time>2018-08-25T19:41:03Z</time></trkpt><trkpt lat="34.26467063" lon="-6.63182194"><ele>83</ele><time>2018-08-25T19:41:04Z</time></trkpt><trkpt lat="34.26473025" lon="-6.63183907"><ele>83</ele><time>2018-08-25T19:41:05Z</time></trkpt><trkpt lat="34.26479913" lon="-6.63186482"><ele>83</ele><time>2018-08-25T19:41:06Z</time></trkpt><trkpt lat="34.26487209" lon="-6.63188838"><ele>83</ele><time>2018-08-25T19:41:07Z</time></trkpt><trkpt lat="34.26492859" lon="-6.6319084"><ele>81</ele><time>2018-08-25T19:41:08Z</time></trkpt><trkpt lat="34.26499052" lon="-6.63194109"><ele>83</ele><time>2018-08-25T19:41:09Z</time></trkpt><trkpt lat="34.26504968" lon="-6.63197576"><ele>85</ele><time>2018-08-25T19:41:10Z</time></trkpt><trkpt lat="34.26511365" lon="-6.6319763"><ele>84</ele><time>2018-08-25T19:41:11Z</time></trkpt><trkpt lat="34.26517381" lon="-6.63200102"><ele>81</ele><time>2018-08-25T19:41:12Z</time></trkpt><trkpt lat="34.2652251" lon="-6.63201645"><ele>80</ele><time>2018-08-25T19:41:13Z</time></trkpt><trkpt lat="34.26527145" lon="-6.63203846"><ele>80</ele><time>2018-08-25T19:41:14Z</time></trkpt><trkpt lat="34.26533002" lon="-6.63206101"><ele>82</ele><time>2018-08-25T19:41:15Z</time></trkpt><trkpt lat="34.26538747" lon="-6.63208701"><ele>81</ele><time>2018-08-25T19:41:16Z</time></trkpt><trkpt lat="34.26542894" lon="-6.63210113"><ele>83</ele><time>2018-08-25T19:41:17Z</time></trkpt><trkpt lat="34.26548064" lon="-6.63212046"><ele>84</ele><time>2018-08-25T19:41:18Z</time></trkpt><trkpt lat="34.26554347" lon="-6.6321336"><ele>84</ele><time>2018-08-25T19:41:19Z</time></trkpt><trkpt lat="34.2656204" lon="-6.6321462"><ele>82</ele><time>2018-08-25T19:41:20Z</time></trkpt><trkpt lat="34.26566867" lon="-6.63217322"><ele>79</ele><time>2018-08-25T19:41:21Z</time></trkpt><trkpt lat="34.26572703" lon="-6.63220665"><ele>80</ele><time>2018-08-25T19:41:22Z</time></trkpt><trkpt lat="34.26578103" lon="-6.63224227"><ele>78</ele><time>2018-08-25T19:41:23Z</time></trkpt><trkpt lat="34.26585536" lon="-6.63227126"><ele>78</ele><time>2018-08-25T19:41:24Z</time></trkpt><trkpt lat="34.26592559" lon="-6.63231183"><ele>77</ele><time>2018-08-25T19:41:25Z</time></trkpt><trkpt lat="34.26599375" lon="-6.63234139"><ele>76</ele><time>2018-08-25T19:41:26Z</time></trkpt><trkpt lat="34.26607742" lon="-6.63234488"><ele>77</ele><time>2018-08-25T19:41:27Z</time></trkpt><trkpt lat="34.26614" lon="-6.63237231"><ele>74</ele><time>2018-08-25T19:41:28Z</time></trkpt><trkpt lat="34.26620112" lon="-6.63239911"><ele>73</ele><time>2018-08-25T19:41:29Z</time></trkpt><trkpt lat="34.26751839" lon="-6.63312372"><ele>73</ele><time>2018-08-25T19:43:37Z</time></trkpt><trkpt lat="34.26746378" lon="-6.63305852"><ele>53</ele><time>2018-08-25T19:43:38Z</time></trkpt><trkpt lat="34.2674128" lon="-6.63299863"><ele>58</ele><time>2018-08-25T19:43:39Z</time></trkpt><trkpt lat="34.26734322" lon="-6.63294904"><ele>60</ele><time>2018-08-25T19:43:40Z</time></trkpt><trkpt lat="34.26728238" lon="-6.63291204"><ele>68</ele><time>2018-08-25T19:43:41Z</time></trkpt><trkpt lat="34.26721434" lon="-6.63287601"><ele>67</ele><time>2018-08-25T19:43:42Z</time></trkpt><trkpt lat="34.26715047" lon="-6.6328425"><ele>68</ele><time>2018-08-25T19:43:43Z</time></trkpt><trkpt lat="34.26708319" lon="-6.6328196"><ele>68</ele><time>2018-08-25T19:43:44Z</time></trkpt><trkpt lat="34.26701945" lon="-6.63279014"><ele>68</ele><time>2018-08-25T19:43:45Z</time></trkpt><trkpt lat="34.26696001" lon="-6.63276993"><ele>68</ele><time>2018-08-25T19:43:46Z</time></trkpt><trkpt lat="34.26688815" lon="-6.63275718"><ele>68</ele><time>2018-08-25T19:43:47Z</time></trkpt><trkpt lat="34.26683835" lon="-6.63273997"><ele>68</ele><time>2018-08-25T19:43:48Z</time></trkpt><trkpt lat="34.2667968" lon="-6.63271446"><ele>68</ele><time>2018-08-25T19:43:49Z</time></trkpt><trkpt lat="34.26674766" lon="-6.63270123"><ele>68</ele><time>2018-08-25T19:43:50Z</time></trkpt><trkpt lat="34.26669793" lon="-6.63269145"><ele>70</ele><time>2018-08-25T19:43:51Z</time></trkpt><trkpt lat="34.26664551" lon="-6.63267358"><ele>70</ele><time>2018-08-25T19:43:52Z</time></trkpt><trkpt lat="34.26659583" lon="-6.63265414"><ele>72</ele><time>2018-08-25T19:43:53Z</time></trkpt><trkpt lat="34.26654179" lon="-6.63263411"><ele>73</ele><time>2018-08-25T19:43:54Z</time></trkpt><trkpt lat="34.26649158" lon="-6.6326141"><ele>74</ele><time>2018-08-25T19:43:55Z</time></trkpt><trkpt lat="34.26644411" lon="-6.63259537"><ele>75</ele><time>2018-08-25T19:43:56Z</time></trkpt><trkpt lat="34.26639778" lon="-6.63257829"><ele>76</ele><time>2018-08-25T19:43:57Z</time></trkpt><trkpt lat="34.2663498" lon="-6.63255907"><ele>75</ele><time>2018-08-25T19:43:58Z</time></trkpt><trkpt lat="34.26629604" lon="-6.63253899"><ele>75</ele><time>2018-08-25T19:43:59Z</time></trkpt><trkpt lat="34.26624716" lon="-6.63251049"><ele>75</ele><time>2018-08-25T19:44:00Z</time></trkpt><trkpt lat="34.26619941" lon="-6.63248502"><ele>76</ele><time>2018-08-25T19:44:01Z</time></trkpt><trkpt lat="34.26615295" lon="-6.63246319"><ele>76</ele><time>2018-08-25T19:44:02Z</time></trkpt><trkpt lat="34.26610423" lon="-6.63244439"><ele>77</ele><time>2018-08-25T19:44:03Z</time></trkpt><trkpt lat="34.26605455" lon="-6.6324262"><ele>77</ele><time>2018-08-25T19:44:04Z</time></trkpt><trkpt lat="34.2659857" lon="-6.63240887"><ele>77</ele><time>2018-08-25T19:44:05Z</time></trkpt><trkpt lat="34.26594959" lon="-6.63240071"><ele>78</ele><time>2018-08-25T19:44:06Z</time></trkpt><trkpt lat="34.26590718" lon="-6.63238599"><ele>79</ele><time>2018-08-25T19:44:07Z</time></trkpt><trkpt lat="34.26585486" lon="-6.63237903"><ele>78</ele><time>2018-08-25T19:44:08Z</time></trkpt><trkpt lat="34.26580522" lon="-6.63235296"><ele>77</ele><time>2018-08-25T19:44:09Z</time></trkpt><trkpt lat="34.26575746" lon="-6.63232779"><ele>78</ele><time>2018-08-25T19:44:10Z</time></trkpt><trkpt lat="34.26571037" lon="-6.63230063"><ele>79</ele><time>2018-08-25T19:44:11Z</time></trkpt><trkpt lat="34.26568211" lon="-6.63229008"><ele>80</ele><time>2018-08-25T19:44:12Z</time></trkpt><trkpt lat="34.26561583" lon="-6.63226723"><ele>80</ele><time>2018-08-25T19:44:13Z</time></trkpt><trkpt lat="34.26556495" lon="-6.63224711"><ele>81</ele><time>2018-08-25T19:44:14Z</time></trkpt><trkpt lat="34.26550213" lon="-6.63222951"><ele>80</ele><time>2018-08-25T19:44:15Z</time></trkpt><trkpt lat="34.26543618" lon="-6.63222167"><ele>78</ele><time>2018-08-25T19:44:16Z</time></trkpt><trkpt lat="34.26537653" lon="-6.63220137"><ele>79</ele><time>2018-08-25T19:44:17Z</time></trkpt><trkpt lat="34.26531995" lon="-6.6321838"><ele>80</ele><time>2018-08-25T19:44:18Z</time></trkpt><trkpt lat="34.2652602" lon="-6.63217268"><ele>80</ele><time>2018-08-25T19:44:19Z</time></trkpt><trkpt lat="34.26520096" lon="-6.63214835"><ele>78</ele><time>2018-08-25T19:44:20Z</time></trkpt><trkpt lat="34.26515027" lon="-6.63212204"><ele>78</ele><time>2018-08-25T19:44:21Z</time></trkpt><trkpt lat="34.26510489" lon="-6.63209592"><ele>76</ele><time>2018-08-25T19:44:22Z</time></trkpt><trkpt lat="34.26506236" lon="-6.63207863"><ele>78</ele><time>2018-08-25T19:44:23Z</time></trkpt><trkpt lat="34.26500962" lon="-6.63206047"><ele>79</ele><time>2018-08-25T19:44:24Z</time></trkpt><trkpt lat="34.26496359" lon="-6.63202219"><ele>80</ele><time>2018-08-25T19:44:25Z</time></trkpt><trkpt lat="34.26491103" lon="-6.63198864"><ele>80</ele><time>2018-08-25T19:44:26Z</time></trkpt><trkpt lat="34.26486253" lon="-6.63196538"><ele>81</ele><time>2018-08-25T19:44:27Z</time></trkpt><trkpt lat="34.26479353" lon="-6.63193181"><ele>81</ele><time>2018-08-25T19:44:28Z</time></trkpt><trkpt lat="34.26473685" lon="-6.63191409"><ele>81</ele><time>2018-08-25T19:44:29Z</time></trkpt><trkpt lat="34.26468249" lon="-6.63189721"><ele>81</ele><time>2018-08-25T19:44:30Z</time></trkpt><trkpt lat="34.26459063" lon="-6.63188095"><ele>83</ele><time>2018-08-25T19:44:31Z</time></trkpt><trkpt lat="34.26452536" lon="-6.63186587"><ele>81</ele><time>2018-08-25T19:44:32Z</time></trkpt><trkpt lat="34.26447278" lon="-6.63185043"><ele>82</ele><time>2018-08-25T19:44:33Z</time></trkpt><trkpt lat="34.26440636" lon="-6.63184512"><ele>84</ele><time>2018-08-25T19:44:34Z</time></trkpt><trkpt lat="34.26433654" lon="-6.63182961"><ele>85</ele><time>2018-08-25T19:44:35Z</time></trkpt><trkpt lat="34.26429402" lon="-6.63181135"><ele>86</ele><time>2018-08-25T19:44:36Z</time></trkpt><trkpt lat="34.26424533" lon="-6.63180787"><ele>84</ele><time>2018-08-25T19:44:37Z</time></trkpt><trkpt lat="34.26419982" lon="-6.63178901"><ele>83</ele><time>2018-08-25T19:44:38Z</time></trkpt><trkpt lat="34.26415386" lon="-6.63176025"><ele>82</ele><time>2018-08-25T19:44:39Z</time></trkpt><trkpt lat="34.26410801" lon="-6.63173704"><ele>81</ele><time>2018-08-25T19:44:40Z</time></trkpt><trkpt lat="34.26405694" lon="-6.63171151"><ele>81</ele><time>2018-08-25T19:44:41Z</time></trkpt><trkpt lat="34.26401416" lon="-6.63168866"><ele>80</ele><time>2018-08-25T19:44:42Z</time></trkpt><trkpt lat="34.26394639" lon="-6.63166823"><ele>81</ele><time>2018-08-25T19:44:43Z</time></trkpt><trkpt lat="34.26387769" lon="-6.63165325"><ele>82</ele><time>2018-08-25T19:44:44Z</time></trkpt><trkpt lat="34.26382782" lon="-6.63163113"><ele>82</ele><time>2018-08-25T19:44:45Z</time></trkpt><trkpt lat="34.26377205" lon="-6.63160272"><ele>83</ele><time>2018-08-25T19:44:46Z</time></trkpt><trkpt lat="34.2637083" lon="-6.63158029"><ele>83</ele><time>2018-08-25T19:44:47Z</time></trkpt><trkpt lat="34.26365503" lon="-6.63155456"><ele>83</ele><time>2018-08-25T19:44:48Z</time></trkpt><trkpt lat="34.26359373" lon="-6.63154192"><ele>85</ele><time>2018-08-25T19:44:49Z</time></trkpt><trkpt lat="34.26354275" lon="-6.63152227"><ele>84</ele><time>2018-08-25T19:44:50Z</time></trkpt><trkpt lat="34.2634844" lon="-6.63150451"><ele>84</ele><time>2018-08-25T19:44:51Z</time></trkpt><trkpt lat="34.26341848" lon="-6.63148128"><ele>84</ele><time>2018-08-25T19:44:52Z</time></trkpt><trkpt lat="34.26336234" lon="-6.63145407"><ele>84</ele><time>2018-08-25T19:44:53Z</time></trkpt><trkpt lat="34.26330779" lon="-6.63143232"><ele>83</ele><time>2018-08-25T19:44:54Z</time></trkpt><trkpt lat="34.26317621" lon="-6.6313885"><ele>82</ele><time>2018-08-25T19:44:56Z</time></trkpt><trkpt lat="34.26312861" lon="-6.63137125"><ele>78</ele><time>2018-08-25T19:44:57Z</time></trkpt><trkpt lat="34.26307266" lon="-6.63135998"><ele>79</ele><time>2018-08-25T19:44:58Z</time></trkpt><trkpt lat="34.26301271" lon="-6.63133697"><ele>76</ele><time>2018-08-25T19:44:59Z</time></trkpt><trkpt lat="34.26294853" lon="-6.63131365"><ele>75</ele><time>2018-08-25T19:45:00Z</time></trkpt><trkpt lat="34.26289299" lon="-6.63130053"><ele>77</ele><time>2018-08-25T19:45:01Z</time></trkpt><trkpt lat="34.26283083" lon="-6.63127171"><ele>77</ele><time>2018-08-25T19:45:02Z</time></trkpt><trkpt lat="34.26277665" lon="-6.63125012"><ele>76</ele><time>2018-08-25T19:45:03Z</time></trkpt><trkpt lat="34.26271041" lon="-6.63122966"><ele>77</ele><time>2018-08-25T19:45:04Z</time></trkpt><trkpt lat="34.26265016" lon="-6.63121403"><ele>76</ele><time>2018-08-25T19:45:05Z</time></trkpt><trkpt lat="34.26258936" lon="-6.63119631"><ele>77</ele><time>2018-08-25T19:45:06Z</time></trkpt><trkpt lat="34.26253162" lon="-6.63115968"><ele>76</ele><time>2018-08-25T19:45:07Z</time></trkpt><trkpt lat="34.26247259" lon="-6.63113773"><ele>75</ele><time>2018-08-25T19:45:08Z</time></trkpt><trkpt lat="34.26241188" lon="-6.63111407"><ele>75</ele><time>2018-08-25T19:45:09Z</time></trkpt><trkpt lat="34.26235414" lon="-6.63108599"><ele>75</ele><time>2018-08-25T19:45:10Z</time></trkpt><trkpt lat="34.26230297" lon="-6.63106816"><ele>75</ele><time>2018-08-25T19:45:11Z</time></trkpt><trkpt lat="34.26224359" lon="-6.63104576"><ele>75</ele><time>2018-08-25T19:45:12Z</time></trkpt><trkpt lat="34.26217646" lon="-6.63101261"><ele>76</ele><time>2018-08-25T19:45:13Z</time></trkpt><trkpt lat="34.26211463" lon="-6.63099254"><ele>75</ele><time>2018-08-25T19:45:14Z</time></trkpt><trkpt lat="34.26204006" lon="-6.63096863"><ele>76</ele><time>2018-08-25T19:45:15Z</time></trkpt><trkpt lat="34.26197745" lon="-6.63095379"><ele>77</ele><time>2018-08-25T19:45:16Z</time></trkpt><trkpt lat="34.26190491" lon="-6.63093227"><ele>77</ele><time>2018-08-25T19:45:17Z</time></trkpt><trkpt lat="34.26184013" lon="-6.63091192"><ele>78</ele><time>2018-08-25T19:45:18Z</time></trkpt><trkpt lat="34.26178042" lon="-6.63089351"><ele>78</ele><time>2018-08-25T19:45:19Z</time></trkpt><trkpt lat="34.26171941" lon="-6.63086668"><ele>77</ele><time>2018-08-25T19:45:20Z</time></trkpt><trkpt lat="34.26165774" lon="-6.63084442"><ele>77</ele><time>2018-08-25T19:45:21Z</time></trkpt><trkpt lat="34.26159969" lon="-6.63082172"><ele>77</ele><time>2018-08-25T19:45:22Z</time></trkpt><trkpt lat="34.26154571" lon="-6.6307995"><ele>77</ele><time>2018-08-25T19:45:23Z</time></trkpt><trkpt lat="34.26149314" lon="-6.63077281"><ele>78</ele><time>2018-08-25T19:45:24Z</time></trkpt><trkpt lat="34.26143878" lon="-6.63075252"><ele>78</ele><time>2018-08-25T19:45:25Z</time></trkpt><trkpt lat="34.26137416" lon="-6.63073467"><ele>79</ele><time>2018-08-25T19:45:26Z</time></trkpt><trkpt lat="34.26132164" lon="-6.6307128"><ele>80</ele><time>2018-08-25T19:45:27Z</time></trkpt><trkpt lat="34.2612679" lon="-6.63068344"><ele>80</ele><time>2018-08-25T19:45:28Z</time></trkpt><trkpt lat="34.2612156" lon="-6.63066443"><ele>80</ele><time>2018-08-25T19:45:29Z</time></trkpt><trkpt lat="34.26116289" lon="-6.63064512"><ele>79</ele><time>2018-08-25T19:45:30Z</time></trkpt><trkpt lat="34.26110154" lon="-6.63062053"><ele>80</ele><time>2018-08-25T19:45:31Z</time></trkpt><trkpt lat="34.26105237" lon="-6.63060348"><ele>80</ele><time>2018-08-25T19:45:32Z</time></trkpt><trkpt lat="34.26098294" lon="-6.63057884"><ele>81</ele><time>2018-08-25T19:45:33Z</time></trkpt><trkpt lat="34.26093382" lon="-6.63055264"><ele>81</ele><time>2018-08-25T19:45:34Z</time></trkpt><trkpt lat="34.26087549" lon="-6.63053768"><ele>80</ele><time>2018-08-25T19:45:35Z</time></trkpt><trkpt lat="34.26082528" lon="-6.63051829"><ele>80</ele><time>2018-08-25T19:45:36Z</time></trkpt><trkpt lat="34.26076646" lon="-6.63049778"><ele>79</ele><time>2018-08-25T19:45:37Z</time></trkpt><trkpt lat="34.26070678" lon="-6.63047262"><ele>79</ele><time>2018-08-25T19:45:38Z</time></trkpt><trkpt lat="34.26065055" lon="-6.63045187"><ele>79</ele><time>2018-08-25T19:45:39Z</time></trkpt><trkpt lat="34.26060358" lon="-6.63043275"><ele>79</ele><time>2018-08-25T19:45:40Z</time></trkpt><trkpt lat="34.26054379" lon="-6.63041939"><ele>80</ele><time>2018-08-25T19:45:41Z</time></trkpt><trkpt lat="34.2604831" lon="-6.63040009"><ele>81</ele><time>2018-08-25T19:45:42Z</time></trkpt><trkpt lat="34.2604263" lon="-6.63037539"><ele>81</ele><time>2018-08-25T19:45:43Z</time></trkpt><trkpt lat="34.26038293" lon="-6.63035266"><ele>82</ele><time>2018-08-25T19:45:44Z</time></trkpt><trkpt lat="34.26035206" lon="-6.63033553"><ele>81</ele><time>2018-08-25T19:45:45Z</time></trkpt><trkpt lat="34.26032088" lon="-6.63029806"><ele>82</ele><time>2018-08-25T19:45:46Z</time></trkpt><trkpt lat="34.2603102" lon="-6.63025582"><ele>81</ele><time>2018-08-25T19:45:47Z</time></trkpt><trkpt lat="34.26031631" lon="-6.63021838"><ele>82</ele><time>2018-08-25T19:45:48Z</time></trkpt><trkpt lat="34.26035661" lon="-6.63019941"><ele>82</ele><time>2018-08-25T19:45:49Z</time></trkpt><trkpt lat="34.26040644" lon="-6.63020387"><ele>82</ele><time>2018-08-25T19:45:50Z</time></trkpt><trkpt lat="34.2604498" lon="-6.63021783"><ele>83</ele><time>2018-08-25T19:45:51Z</time></trkpt><trkpt lat="34.26050303" lon="-6.63023278"><ele>83</ele><time>2018-08-25T19:45:52Z</time></trkpt><trkpt lat="34.26055833" lon="-6.63025677"><ele>84</ele><time>2018-08-25T19:45:53Z</time></trkpt><trkpt lat="34.26061395" lon="-6.63027661"><ele>84</ele><time>2018-08-25T19:45:54Z</time></trkpt><trkpt lat="34.26067442" lon="-6.63029081"><ele>83</ele><time>2018-08-25T19:45:55Z</time></trkpt><trkpt lat="34.26073051" lon="-6.63031888"><ele>83</ele><time>2018-08-25T19:45:56Z</time></trkpt><trkpt lat="34.26081043" lon="-6.63035284"><ele>83</ele><time>2018-08-25T19:45:57Z</time></trkpt><trkpt lat="34.26087924" lon="-6.63039349"><ele>82</ele><time>2018-08-25T19:45:58Z</time></trkpt><trkpt lat="34.26094503" lon="-6.63041384"><ele>83</ele><time>2018-08-25T19:45:59Z</time></trkpt><trkpt lat="34.26101073" lon="-6.63042689"><ele>82</ele><time>2018-08-25T19:46:00Z</time></trkpt><trkpt lat="34.26107709" lon="-6.63044778"><ele>82</ele><time>2018-08-25T19:46:01Z</time></trkpt><trkpt lat="34.26116127" lon="-6.63046965"><ele>82</ele><time>2018-08-25T19:46:02Z</time></trkpt><trkpt lat="34.26123046" lon="-6.63049551"><ele>80</ele><time>2018-08-25T19:46:03Z</time></trkpt><trkpt lat="34.26130408" lon="-6.63051296"><ele>79</ele><time>2018-08-25T19:46:04Z</time></trkpt><trkpt lat="34.26138286" lon="-6.63054344"><ele>78</ele><time>2018-08-25T19:46:05Z</time></trkpt><trkpt lat="34.26146214" lon="-6.63056414"><ele>77</ele><time>2018-08-25T19:46:06Z</time></trkpt><trkpt lat="34.26154077" lon="-6.63059265"><ele>76</ele><time>2018-08-25T19:46:07Z</time></trkpt><trkpt lat="34.26162084" lon="-6.63063218"><ele>76</ele><time>2018-08-25T19:46:08Z</time></trkpt><trkpt lat="34.26169494" lon="-6.63065958"><ele>76</ele><time>2018-08-25T19:46:09Z</time></trkpt><trkpt lat="34.26176513" lon="-6.63069056"><ele>76</ele><time>2018-08-25T19:46:10Z</time></trkpt><trkpt lat="34.26183237" lon="-6.6307229"><ele>76</ele><time>2018-08-25T19:46:11Z</time></trkpt><trkpt lat="34.2618927" lon="-6.63076024"><ele>77</ele><time>2018-08-25T19:46:12Z</time></trkpt><trkpt lat="34.2619672" lon="-6.63078274"><ele>79</ele><time>2018-08-25T19:46:13Z</time></trkpt><trkpt lat="34.26203588" lon="-6.6307966"><ele>79</ele><time>2018-08-25T19:46:14Z</time></trkpt><trkpt lat="34.26209718" lon="-6.63079655"><ele>79</ele><time>2018-08-25T19:46:15Z</time></trkpt><trkpt lat="34.26216322" lon="-6.63082086"><ele>77</ele><time>2018-08-25T19:46:16Z</time></trkpt><trkpt lat="34.26223244" lon="-6.63084484"><ele>78</ele><time>2018-08-25T19:46:17Z</time></trkpt><trkpt lat="34.262291" lon="-6.63086851"><ele>78</ele><time>2018-08-25T19:46:18Z</time></trkpt><trkpt lat="34.26236716" lon="-6.63090264"><ele>79</ele><time>2018-08-25T19:46:19Z</time></trkpt><trkpt lat="34.26243901" lon="-6.63092131"><ele>80</ele><time>2018-08-25T19:46:20Z</time></trkpt><trkpt lat="34.26250016" lon="-6.6309458"><ele>80</ele><time>2018-08-25T19:46:21Z</time></trkpt><trkpt lat="34.26255835" lon="-6.6309713"><ele>79</ele><time>2018-08-25T19:46:22Z</time></trkpt><trkpt lat="34.26262435" lon="-6.63099543"><ele>79</ele><time>2018-08-25T19:46:23Z</time></trkpt><trkpt lat="34.26268548" lon="-6.63102091"><ele>79</ele><time>2018-08-25T19:46:24Z</time></trkpt><trkpt lat="34.26275157" lon="-6.63104034"><ele>80</ele><time>2018-08-25T19:46:25Z</time></trkpt><trkpt lat="34.26282584" lon="-6.63107266"><ele>79</ele><time>2018-08-25T19:46:26Z</time></trkpt><trkpt lat="34.26289207" lon="-6.6310917"><ele>79</ele><time>2018-08-25T19:46:27Z</time></trkpt><trkpt lat="34.26295203" lon="-6.63111652"><ele>79</ele><time>2018-08-25T19:46:28Z</time></trkpt><trkpt lat="34.2630098" lon="-6.63113494"><ele>79</ele><time>2018-08-25T19:46:29Z</time></trkpt><trkpt lat="34.26306372" lon="-6.63116092"><ele>80</ele><time>2018-08-25T19:46:30Z</time></trkpt><trkpt lat="34.26313445" lon="-6.63116678"><ele>79</ele><time>2018-08-25T19:46:31Z</time></trkpt><trkpt lat="34.26317832" lon="-6.631184"><ele>77</ele><time>2018-08-25T19:46:32Z</time></trkpt><trkpt lat="34.2632265" lon="-6.63120038"><ele>77</ele><time>2018-08-25T19:46:33Z</time></trkpt><trkpt lat="34.2632778" lon="-6.63122902"><ele>76</ele><time>2018-08-25T19:46:34Z</time></trkpt><trkpt lat="34.26332304" lon="-6.63122855"><ele>76</ele><time>2018-08-25T19:46:35Z</time></trkpt><trkpt lat="34.26340934" lon="-6.63126303"><ele>76</ele><time>2018-08-25T19:46:36Z</time></trkpt><trkpt lat="34.2634606" lon="-6.63129475"><ele>73</ele><time>2018-08-25T19:46:37Z</time></trkpt><trkpt lat="34.26351958" lon="-6.63133777"><ele>72</ele><time>2018-08-25T19:46:38Z</time></trkpt><trkpt lat="34.26357666" lon="-6.63136596"><ele>72</ele><time>2018-08-25T19:46:39Z</time></trkpt><trkpt lat="34.2636238" lon="-6.6313908"><ele>72</ele><time>2018-08-25T19:46:40Z</time></trkpt><trkpt lat="34.26366653" lon="-6.63140813"><ele>73</ele><time>2018-08-25T19:46:41Z</time></trkpt><trkpt lat="34.26371717" lon="-6.6314296"><ele>75</ele><time>2018-08-25T19:46:42Z</time></trkpt><trkpt lat="34.26376733" lon="-6.63144111"><ele>76</ele><time>2018-08-25T19:46:43Z</time></trkpt><trkpt lat="34.26382718" lon="-6.63144742"><ele>74</ele><time>2018-08-25T19:46:44Z</time></trkpt><trkpt lat="34.26388086" lon="-6.63147816"><ele>73</ele><time>2018-08-25T19:46:45Z</time></trkpt><trkpt lat="34.26394471" lon="-6.63149397"><ele>76</ele><time>2018-08-25T19:46:46Z</time></trkpt><trkpt lat="34.26400665" lon="-6.6315091"><ele>73</ele><time>2018-08-25T19:46:47Z</time></trkpt><trkpt lat="34.26405292" lon="-6.63151936"><ele>73</ele><time>2018-08-25T19:46:48Z</time></trkpt><trkpt lat="34.26413469" lon="-6.6315257"><ele>71</ele><time>2018-08-25T19:46:49Z</time></trkpt><trkpt lat="34.26419658" lon="-6.63155561"><ele>68</ele><time>2018-08-25T19:46:50Z</time></trkpt><trkpt lat="34.26426458" lon="-6.63155286"><ele>68</ele><time>2018-08-25T19:46:51Z</time></trkpt><trkpt lat="34.26432105" lon="-6.63159886"><ele>71</ele><time>2018-08-25T19:46:52Z</time></trkpt><trkpt lat="34.26437885" lon="-6.63162862"><ele>70</ele><time>2018-08-25T19:46:53Z</time></trkpt><trkpt lat="34.2644411" lon="-6.63165412"><ele>72</ele><time>2018-08-25T19:46:54Z</time></trkpt><trkpt lat="34.26450209" lon="-6.63164429"><ele>72</ele><time>2018-08-25T19:46:55Z</time></trkpt><trkpt lat="34.26454976" lon="-6.63168827"><ele>70</ele><time>2018-08-25T19:46:56Z</time></trkpt><trkpt lat="34.26462655" lon="-6.63172508"><ele>71</ele><time>2018-08-25T19:46:57Z</time></trkpt><trkpt lat="34.26469035" lon="-6.63174521"><ele>72</ele><time>2018-08-25T19:46:58Z</time></trkpt><trkpt lat="34.26474822" lon="-6.63174496"><ele>72</ele><time>2018-08-25T19:46:59Z</time></trkpt><trkpt lat="34.26482803" lon="-6.63175365"><ele>73</ele><time>2018-08-25T19:47:00Z</time></trkpt><trkpt lat="34.26488825" lon="-6.63177645"><ele>71</ele><time>2018-08-25T19:47:01Z</time></trkpt><trkpt lat="34.26494257" lon="-6.63181502"><ele>71</ele><time>2018-08-25T19:47:02Z</time></trkpt><trkpt lat="34.26500245" lon="-6.63185233"><ele>72</ele><time>2018-08-25T19:47:03Z</time></trkpt><trkpt lat="34.2650788" lon="-6.63189081"><ele>73</ele><time>2018-08-25T19:47:04Z</time></trkpt><trkpt lat="34.26514596" lon="-6.63193148"><ele>72</ele><time>2018-08-25T19:47:05Z</time></trkpt><trkpt lat="34.26521179" lon="-6.63196418"><ele>73</ele><time>2018-08-25T19:47:06Z</time></trkpt><trkpt lat="34.26527977" lon="-6.63199697"><ele>72</ele><time>2018-08-25T19:47:07Z</time></trkpt><trkpt lat="34.26533326" lon="-6.63202362"><ele>73</ele><time>2018-08-25T19:47:08Z</time></trkpt><trkpt lat="34.2654176" lon="-6.63203814"><ele>74</ele><time>2018-08-25T19:47:09Z</time></trkpt><trkpt lat="34.26547324" lon="-6.63205999"><ele>73</ele><time>2018-08-25T19:47:10Z</time></trkpt><trkpt lat="34.26553063" lon="-6.63207959"><ele>75</ele><time>2018-08-25T19:47:11Z</time></trkpt><trkpt lat="34.26558666" lon="-6.63214152"><ele>76</ele><time>2018-08-25T19:47:12Z</time></trkpt><trkpt lat="34.26565603" lon="-6.63215158"><ele>79</ele><time>2018-08-25T19:47:13Z</time></trkpt><trkpt lat="34.2657162" lon="-6.63218886"><ele>80</ele><time>2018-08-25T19:47:14Z</time></trkpt><trkpt lat="34.26577465" lon="-6.63220809"><ele>83</ele><time>2018-08-25T19:47:15Z</time></trkpt><trkpt lat="34.26583023" lon="-6.6322477"><ele>83</ele><time>2018-08-25T19:47:16Z</time></trkpt><trkpt lat="34.26588939" lon="-6.63228381"><ele>83</ele><time>2018-08-25T19:47:17Z</time></trkpt><trkpt lat="34.26595116" lon="-6.63231564"><ele>84</ele><time>2018-08-25T19:47:18Z</time></trkpt><trkpt lat="34.26601479" lon="-6.63232891"><ele>84</ele><time>2018-08-25T19:47:19Z</time></trkpt><trkpt lat="34.26604301" lon="-6.63236346"><ele>85</ele><time>2018-08-25T19:47:20Z</time></trkpt><trkpt lat="34.26608344" lon="-6.63232784"><ele>87</ele><time>2018-08-25T19:47:21Z</time></trkpt><trkpt lat="34.26612088" lon="-6.63229987"><ele>87</ele><time>2018-08-25T19:47:22Z</time></trkpt><trkpt lat="34.26614532" lon="-6.63223747"><ele>88</ele><time>2018-08-25T19:47:23Z</time></trkpt><trkpt lat="34.26616514" lon="-6.63214129"><ele>87</ele><time>2018-08-25T19:47:24Z</time></trkpt><trkpt lat="34.26618066" lon="-6.6320641"><ele>81</ele><time>2018-08-25T19:47:25Z</time></trkpt><trkpt lat="34.26620524" lon="-6.63198991"><ele>79</ele><time>2018-08-25T19:47:26Z</time></trkpt><trkpt lat="34.26623152" lon="-6.63191366"><ele>80</ele><time>2018-08-25T19:47:27Z</time></trkpt><trkpt lat="34.26625169" lon="-6.63182991"><ele>79</ele><time>2018-08-25T19:47:28Z</time></trkpt><trkpt lat="34.26627422" lon="-6.63176468"><ele>79</ele><time>2018-08-25T19:47:29Z</time></trkpt><trkpt lat="34.26628698" lon="-6.6316905"><ele>77</ele><time>2018-08-25T19:47:30Z</time></trkpt><trkpt lat="34.26630208" lon="-6.6316296"><ele>77</ele><time>2018-08-25T19:47:31Z</time></trkpt><trkpt lat="34.26631887" lon="-6.631569"><ele>77</ele><time>2018-08-25T19:47:32Z</time></trkpt><trkpt lat="34.26631891" lon="-6.63152356"><ele>77</ele><time>2018-08-25T19:47:33Z</time></trkpt><trkpt lat="34.26632414" lon="-6.63150339"><ele>79</ele><time>2018-08-25T19:47:34Z</time></trkpt><trkpt lat="34.26633757" lon="-6.63147473"><ele>78</ele><time>2018-08-25T19:47:35Z</time></trkpt><trkpt lat="34.26634285" lon="-6.63143513"><ele>78</ele><time>2018-08-25T19:47:36Z</time></trkpt><trkpt lat="34.26636383" lon="-6.63141253"><ele>77</ele><time>2018-08-25T19:47:37Z</time></trkpt><trkpt lat="34.26638864" lon="-6.63138745"><ele>78</ele><time>2018-08-25T19:47:38Z</time></trkpt><trkpt lat="34.26642115" lon="-6.63138254"><ele>78</ele><time>2018-08-25T19:47:39Z</time></trkpt><trkpt lat="34.26646192" lon="-6.63138198"><ele>79</ele><time>2018-08-25T19:47:40Z</time></trkpt><trkpt lat="34.2665055" lon="-6.63138481"><ele>79</ele><time>2018-08-25T19:47:41Z</time></trkpt><trkpt lat="34.26655628" lon="-6.6313757"><ele>80</ele><time>2018-08-25T19:47:42Z</time></trkpt><trkpt lat="34.26661338" lon="-6.63138294"><ele>79</ele><time>2018-08-25T19:47:43Z</time></trkpt><trkpt lat="34.26665799" lon="-6.63138301"><ele>78</ele><time>2018-08-25T19:47:44Z</time></trkpt><trkpt lat="34.26670424" lon="-6.63140282"><ele>78</ele><time>2018-08-25T19:47:45Z</time></trkpt><trkpt lat="34.26675489" lon="-6.63142169"><ele>79</ele><time>2018-08-25T19:47:46Z</time></trkpt><trkpt lat="34.26681028" lon="-6.631442"><ele>79</ele><time>2018-08-25T19:47:47Z</time></trkpt><trkpt lat="34.26686553" lon="-6.63146597"><ele>78</ele><time>2018-08-25T19:47:48Z</time></trkpt><trkpt lat="34.26692803" lon="-6.63152098"><ele>78</ele><time>2018-08-25T19:47:49Z</time></trkpt><trkpt lat="34.26696917" lon="-6.63156629"><ele>75</ele><time>2018-08-25T19:47:50Z</time></trkpt><trkpt lat="34.26701696" lon="-6.6315665"><ele>75</ele><time>2018-08-25T19:47:51Z</time></trkpt><trkpt lat="34.26706338" lon="-6.63158712"><ele>75</ele><time>2018-08-25T19:47:52Z</time></trkpt><trkpt lat="34.26713278" lon="-6.63160289"><ele>75</ele><time>2018-08-25T19:47:53Z</time></trkpt><trkpt lat="34.26719065" lon="-6.63162527"><ele>75</ele><time>2018-08-25T19:47:54Z</time></trkpt><trkpt lat="34.26725798" lon="-6.63163424"><ele>74</ele><time>2018-08-25T19:47:55Z</time></trkpt><trkpt lat="34.26732414" lon="-6.63165218"><ele>73</ele><time>2018-08-25T19:47:56Z</time></trkpt><trkpt lat="34.2673878" lon="-6.63166841"><ele>72</ele><time>2018-08-25T19:47:57Z</time></trkpt><trkpt lat="34.2674482" lon="-6.63169499"><ele>72</ele><time>2018-08-25T19:47:58Z</time></trkpt><trkpt lat="34.26751309" lon="-6.63171494"><ele>72</ele><time>2018-08-25T19:47:59Z</time></trkpt><trkpt lat="34.26758999" lon="-6.63175577"><ele>72</ele><time>2018-08-25T19:48:00Z</time></trkpt><trkpt lat="34.26764918" lon="-6.63178169"><ele>70</ele><time>2018-08-25T19:48:01Z</time></trkpt><trkpt lat="34.26772098" lon="-6.63180765"><ele>71</ele><time>2018-08-25T19:48:02Z</time></trkpt><trkpt lat="34.26779112" lon="-6.63182443"><ele>71</ele><time>2018-08-25T19:48:03Z</time></trkpt><trkpt lat="34.26787299" lon="-6.63185621"><ele>71</ele><time>2018-08-25T19:48:04Z</time></trkpt><trkpt lat="34.2679437" lon="-6.63186988"><ele>70</ele><time>2018-08-25T19:48:05Z</time></trkpt><trkpt lat="34.26801323" lon="-6.6318931"><ele>70</ele><time>2018-08-25T19:48:06Z</time></trkpt><trkpt lat="34.26809039" lon="-6.63194844"><ele>70</ele><time>2018-08-25T19:48:07Z</time></trkpt><trkpt lat="34.26816472" lon="-6.63196935"><ele>69</ele><time>2018-08-25T19:48:08Z</time></trkpt><trkpt lat="34.26824179" lon="-6.63199877"><ele>69</ele><time>2018-08-25T19:48:09Z</time></trkpt><trkpt lat="34.26830839" lon="-6.63202823"><ele>68</ele><time>2018-08-25T19:48:10Z</time></trkpt><trkpt lat="34.26838649" lon="-6.63206488"><ele>69</ele><time>2018-08-25T19:48:11Z</time></trkpt><trkpt lat="34.268448" lon="-6.6321076"><ele>67</ele><time>2018-08-25T19:48:12Z</time></trkpt><trkpt lat="34.26851698" lon="-6.63214729"><ele>68</ele><time>2018-08-25T19:48:13Z</time></trkpt><trkpt lat="34.26858925" lon="-6.63216846"><ele>69</ele><time>2018-08-25T19:48:14Z</time></trkpt><trkpt lat="34.26865482" lon="-6.63219414"><ele>70</ele><time>2018-08-25T19:48:15Z</time></trkpt><trkpt lat="34.26871814" lon="-6.63220399"><ele>70</ele><time>2018-08-25T19:48:16Z</time></trkpt><trkpt lat="34.26878338" lon="-6.63221035"><ele>69</ele><time>2018-08-25T19:48:17Z</time></trkpt><trkpt lat="34.26884959" lon="-6.63222728"><ele>69</ele><time>2018-08-25T19:48:18Z</time></trkpt><trkpt lat="34.26891721" lon="-6.63225793"><ele>70</ele><time>2018-08-25T19:48:19Z</time></trkpt><trkpt lat="34.2689822" lon="-6.63227106"><ele>70</ele><time>2018-08-25T19:48:20Z</time></trkpt><trkpt lat="34.26904746" lon="-6.63230683"><ele>71</ele><time>2018-08-25T19:48:21Z</time></trkpt><trkpt lat="34.26911915" lon="-6.63232642"><ele>74</ele><time>2018-08-25T19:48:22Z</time></trkpt><trkpt lat="34.26918238" lon="-6.63235277"><ele>74</ele><time>2018-08-25T19:48:23Z</time></trkpt><trkpt lat="34.2692479" lon="-6.63237949"><ele>75</ele><time>2018-08-25T19:48:24Z</time></trkpt><trkpt lat="34.26933494" lon="-6.63241434"><ele>75</ele><time>2018-08-25T19:48:25Z</time></trkpt><trkpt lat="34.26938974" lon="-6.63245243"><ele>71</ele><time>2018-08-25T19:48:26Z</time></trkpt><trkpt lat="34.26945917" lon="-6.63246029"><ele>72</ele><time>2018-08-25T19:48:27Z</time></trkpt><trkpt lat="34.26952225" lon="-6.63248578"><ele>71</ele><time>2018-08-25T19:48:28Z</time></trkpt><trkpt lat="34.26959003" lon="-6.63250106"><ele>71</ele><time>2018-08-25T19:48:29Z</time></trkpt><trkpt lat="34.269632" lon="-6.63253165"><ele>72</ele><time>2018-08-25T19:48:30Z</time></trkpt><trkpt lat="34.26968528" lon="-6.63255696"><ele>73</ele><time>2018-08-25T19:48:31Z</time></trkpt><trkpt lat="34.26975127" lon="-6.63255449"><ele>73</ele><time>2018-08-25T19:48:32Z</time></trkpt><trkpt lat="34.26980466" lon="-6.63256694"><ele>74</ele><time>2018-08-25T19:48:33Z</time></trkpt><trkpt lat="34.26985892" lon="-6.63259138"><ele>75</ele><time>2018-08-25T19:48:35Z</time></trkpt><trkpt lat="34.26992471" lon="-6.63261639"><ele>76</ele><time>2018-08-25T19:48:36Z</time></trkpt><trkpt lat="34.27001592" lon="-6.63264885"><ele>76</ele><time>2018-08-25T19:48:37Z</time></trkpt><trkpt lat="34.27007429" lon="-6.63267441"><ele>76</ele><time>2018-08-25T19:48:38Z</time></trkpt><trkpt lat="34.27014132" lon="-6.63269767"><ele>76</ele><time>2018-08-25T19:48:39Z</time></trkpt><trkpt lat="34.2702108" lon="-6.63274552"><ele>76</ele><time>2018-08-25T19:48:40Z</time></trkpt><trkpt lat="34.27026847" lon="-6.63278253"><ele>76</ele><time>2018-08-25T19:48:41Z</time></trkpt><trkpt lat="34.27034177" lon="-6.63281063"><ele>76</ele><time>2018-08-25T19:48:42Z</time></trkpt><trkpt lat="34.27040659" lon="-6.63282072"><ele>74</ele><time>2018-08-25T19:48:43Z</time></trkpt><trkpt lat="34.27045292" lon="-6.63282497"><ele>71</ele><time>2018-08-25T19:48:44Z</time></trkpt><trkpt lat="34.27051771" lon="-6.63285292"><ele>70</ele><time>2018-08-25T19:48:45Z</time></trkpt><trkpt lat="34.27057419" lon="-6.63287758"><ele>69</ele><time>2018-08-25T19:48:46Z</time></trkpt><trkpt lat="34.27063481" lon="-6.63290539"><ele>69</ele><time>2018-08-25T19:48:47Z</time></trkpt><trkpt lat="34.27067947" lon="-6.63291627"><ele>69</ele><time>2018-08-25T19:48:48Z</time></trkpt><trkpt lat="34.27073257" lon="-6.63292545"><ele>69</ele><time>2018-08-25T19:48:49Z</time></trkpt><trkpt lat="34.27078844" lon="-6.63293083"><ele>71</ele><time>2018-08-25T19:48:50Z</time></trkpt><trkpt lat="34.27085709" lon="-6.63295291"><ele>71</ele><time>2018-08-25T19:48:51Z</time></trkpt><trkpt lat="34.27091966" lon="-6.63297859"><ele>71</ele><time>2018-08-25T19:48:52Z</time></trkpt><trkpt lat="34.27098164" lon="-6.6330006"><ele>71</ele><time>2018-08-25T19:48:53Z</time></trkpt><trkpt lat="34.27103407" lon="-6.6330044"><ele>72</ele><time>2018-08-25T19:48:54Z</time></trkpt><trkpt lat="34.27107505" lon="-6.63301068"><ele>74</ele><time>2018-08-25T19:48:55Z</time></trkpt><trkpt lat="34.27111526" lon="-6.63302023"><ele>75</ele><time>2018-08-25T19:48:56Z</time></trkpt><trkpt lat="34.27115618" lon="-6.63303013"><ele>77</ele><time>2018-08-25T19:48:57Z</time></trkpt><trkpt lat="34.27120631" lon="-6.63303137"><ele>77</ele><time>2018-08-25T19:48:58Z</time></trkpt><trkpt lat="34.27124069" lon="-6.6330236"><ele>76</ele><time>2018-08-25T19:48:59Z</time></trkpt><trkpt lat="34.27126723" lon="-6.63301886"><ele>75</ele><time>2018-08-25T19:49:00Z</time></trkpt><trkpt lat="34.27131732" lon="-6.63301928"><ele>75</ele><time>2018-08-25T19:49:01Z</time></trkpt><trkpt lat="34.27135406" lon="-6.63301122"><ele>74</ele><time>2018-08-25T19:49:02Z</time></trkpt><trkpt lat="34.27139601" lon="-6.63299517"><ele>75</ele><time>2018-08-25T19:49:03Z</time></trkpt><trkpt lat="34.27143814" lon="-6.63298462"><ele>75</ele><time>2018-08-25T19:49:04Z</time></trkpt><trkpt lat="34.27146851" lon="-6.63296399"><ele>75</ele><time>2018-08-25T19:49:05Z</time></trkpt><trkpt lat="34.27150525" lon="-6.63294363"><ele>74</ele><time>2018-08-25T19:49:06Z</time></trkpt><trkpt lat="34.2715385" lon="-6.63291622"><ele>74</ele><time>2018-08-25T19:49:07Z</time></trkpt><trkpt lat="34.27156541" lon="-6.63287916"><ele>74</ele><time>2018-08-25T19:49:08Z</time></trkpt><trkpt lat="34.27158962" lon="-6.63282522"><ele>74</ele><time>2018-08-25T19:49:09Z</time></trkpt><trkpt lat="34.27161244" lon="-6.63276274"><ele>75</ele><time>2018-08-25T19:49:10Z</time></trkpt><trkpt lat="34.27162477" lon="-6.63270133"><ele>75</ele><time>2018-08-25T19:49:11Z</time></trkpt><trkpt lat="34.27163462" lon="-6.63263426"><ele>76</ele><time>2018-08-25T19:49:12Z</time></trkpt><trkpt lat="34.27164048" lon="-6.6325554"><ele>75</ele><time>2018-08-25T19:49:13Z</time></trkpt><trkpt lat="34.27165227" lon="-6.63247424"><ele>76</ele><time>2018-08-25T19:49:14Z</time></trkpt><trkpt lat="34.27166314" lon="-6.6324064"><ele>77</ele><time>2018-08-25T19:49:15Z</time></trkpt><trkpt lat="34.27167985" lon="-6.63233234"><ele>78</ele><time>2018-08-25T19:49:16Z</time></trkpt><trkpt lat="34.27168966" lon="-6.63224859"><ele>78</ele><time>2018-08-25T19:49:17Z</time></trkpt><trkpt lat="34.27170233" lon="-6.632169"><ele>77</ele><time>2018-08-25T19:49:18Z</time></trkpt><trkpt lat="34.27170684" lon="-6.63209167"><ele>78</ele><time>2018-08-25T19:49:19Z</time></trkpt><trkpt lat="34.27170893" lon="-6.63201357"><ele>78</ele><time>2018-08-25T19:49:20Z</time></trkpt><trkpt lat="34.2717165" lon="-6.63193608"><ele>78</ele><time>2018-08-25T19:49:21Z</time></trkpt><trkpt lat="34.27172261" lon="-6.63185475"><ele>78</ele><time>2018-08-25T19:49:22Z</time></trkpt><trkpt lat="34.27172549" lon="-6.63177923"><ele>79</ele><time>2018-08-25T19:49:23Z</time></trkpt><trkpt lat="34.27171644" lon="-6.63169661"><ele>79</ele><time>2018-08-25T19:49:24Z</time></trkpt><trkpt lat="34.27171747" lon="-6.63162234"><ele>80</ele><time>2018-08-25T19:49:25Z</time></trkpt><trkpt lat="34.27171459" lon="-6.63153602"><ele>80</ele><time>2018-08-25T19:49:26Z</time></trkpt><trkpt lat="34.27171042" lon="-6.63145076"><ele>79</ele><time>2018-08-25T19:49:27Z</time></trkpt><trkpt lat="34.27170912" lon="-6.63136492"><ele>77</ele><time>2018-08-25T19:49:28Z</time></trkpt><trkpt lat="34.27170367" lon="-6.63129034"><ele>78</ele><time>2018-08-25T19:49:29Z</time></trkpt><trkpt lat="34.27170381" lon="-6.63120859"><ele>78</ele><time>2018-08-25T19:49:30Z</time></trkpt><trkpt lat="34.27170195" lon="-6.63112766"><ele>78</ele><time>2018-08-25T19:49:31Z</time></trkpt><trkpt lat="34.27169881" lon="-6.63105293"><ele>78</ele><time>2018-08-25T19:49:32Z</time></trkpt><trkpt lat="34.27170623" lon="-6.63097262"><ele>78</ele><time>2018-08-25T19:49:33Z</time></trkpt><trkpt lat="34.27170543" lon="-6.63088867"><ele>78</ele><time>2018-08-25T19:49:34Z</time></trkpt><trkpt lat="34.27171413" lon="-6.63078654"><ele>79</ele><time>2018-08-25T19:49:35Z</time></trkpt><trkpt lat="34.27172495" lon="-6.63070193"><ele>79</ele><time>2018-08-25T19:49:36Z</time></trkpt><trkpt lat="34.27172416" lon="-6.63063179"><ele>77</ele><time>2018-08-25T19:49:37Z</time></trkpt><trkpt lat="34.2717171" lon="-6.6305552"><ele>76</ele><time>2018-08-25T19:49:38Z</time></trkpt><trkpt lat="34.27170911" lon="-6.63049098"><ele>78</ele><time>2018-08-25T19:49:39Z</time></trkpt><trkpt lat="34.27170891" lon="-6.6304254"><ele>77</ele><time>2018-08-25T19:49:40Z</time></trkpt><trkpt lat="34.27171554" lon="-6.63034663"><ele>77</ele><time>2018-08-25T19:49:41Z</time></trkpt><trkpt lat="34.27172764" lon="-6.63026103"><ele>78</ele><time>2018-08-25T19:49:42Z</time></trkpt><trkpt lat="34.27173126" lon="-6.63018975"><ele>77</ele><time>2018-08-25T19:49:43Z</time></trkpt><trkpt lat="34.27173007" lon="-6.63011609"><ele>77</ele><time>2018-08-25T19:49:44Z</time></trkpt><trkpt lat="34.27173227" lon="-6.63002935"><ele>78</ele><time>2018-08-25T19:49:45Z</time></trkpt><trkpt lat="34.27172904" lon="-6.62995323"><ele>78</ele><time>2018-08-25T19:49:46Z</time></trkpt><trkpt lat="34.27173005" lon="-6.62987947"><ele>78</ele><time>2018-08-25T19:49:47Z</time></trkpt><trkpt lat="34.27173479" lon="-6.62981217"><ele>79</ele><time>2018-08-25T19:49:48Z</time></trkpt><trkpt lat="34.27174055" lon="-6.62972019"><ele>80</ele><time>2018-08-25T19:49:49Z</time></trkpt><trkpt lat="34.27175254" lon="-6.62963552"><ele>81</ele><time>2018-08-25T19:49:50Z</time></trkpt><trkpt lat="34.27175873" lon="-6.62955589"><ele>81</ele><time>2018-08-25T19:49:51Z</time></trkpt><trkpt lat="34.2717722" lon="-6.62947593"><ele>81</ele><time>2018-08-25T19:49:52Z</time></trkpt><trkpt lat="34.27177672" lon="-6.6293885"><ele>80</ele><time>2018-08-25T19:49:53Z</time></trkpt><trkpt lat="34.27178434" lon="-6.62930203"><ele>79</ele><time>2018-08-25T19:49:54Z</time></trkpt><trkpt lat="34.27179324" lon="-6.62922073"><ele>79</ele><time>2018-08-25T19:49:55Z</time></trkpt><trkpt lat="34.27179584" lon="-6.62913298"><ele>80</ele><time>2018-08-25T19:49:56Z</time></trkpt><trkpt lat="34.27180679" lon="-6.62904256"><ele>79</ele><time>2018-08-25T19:49:57Z</time></trkpt><trkpt lat="34.2718191" lon="-6.62895985"><ele>79</ele><time>2018-08-25T19:49:58Z</time></trkpt><trkpt lat="34.27182709" lon="-6.62887144"><ele>80</ele><time>2018-08-25T19:49:59Z</time></trkpt><trkpt lat="34.271839" lon="-6.62878906"><ele>79</ele><time>2018-08-25T19:50:00Z</time></trkpt><trkpt lat="34.27186167" lon="-6.62871516"><ele>78</ele><time>2018-08-25T19:50:01Z</time></trkpt><trkpt lat="34.27187655" lon="-6.62864247"><ele>79</ele><time>2018-08-25T19:50:02Z</time></trkpt><trkpt lat="34.27190197" lon="-6.62855342"><ele>80</ele><time>2018-08-25T19:50:03Z</time></trkpt><trkpt lat="34.27190556" lon="-6.62848212"><ele>81</ele><time>2018-08-25T19:50:04Z</time></trkpt><trkpt lat="34.2719123" lon="-6.62839911"><ele>81</ele><time>2018-08-25T19:50:05Z</time></trkpt><trkpt lat="34.27192672" lon="-6.62832953"><ele>81</ele><time>2018-08-25T19:50:06Z</time></trkpt><trkpt lat="34.27193737" lon="-6.6282647"><ele>81</ele><time>2018-08-25T19:50:07Z</time></trkpt><trkpt lat="34.27194642" lon="-6.62819183"><ele>81</ele><time>2018-08-25T19:50:08Z</time></trkpt><trkpt lat="34.27195661" lon="-6.62812194"><ele>81</ele><time>2018-08-25T19:50:09Z</time></trkpt><trkpt lat="34.27197314" lon="-6.62804112"><ele>80</ele><time>2018-08-25T19:50:10Z</time></trkpt><trkpt lat="34.27197633" lon="-6.62797003"><ele>81</ele><time>2018-08-25T19:50:11Z</time></trkpt><trkpt lat="34.2719822" lon="-6.62790079"><ele>81</ele><time>2018-08-25T19:50:12Z</time></trkpt><trkpt lat="34.27199412" lon="-6.6278303"><ele>82</ele><time>2018-08-25T19:50:13Z</time></trkpt><trkpt lat="34.27200587" lon="-6.62774707"><ele>82</ele><time>2018-08-25T19:50:14Z</time></trkpt><trkpt lat="34.27200757" lon="-6.62768563"><ele>82</ele><time>2018-08-25T19:50:15Z</time></trkpt><trkpt lat="34.27202156" lon="-6.6276093"><ele>83</ele><time>2018-08-25T19:50:16Z</time></trkpt><trkpt lat="34.27203459" lon="-6.62753658"><ele>83</ele><time>2018-08-25T19:50:17Z</time></trkpt><trkpt lat="34.27204862" lon="-6.62745659"><ele>84</ele><time>2018-08-25T19:50:18Z</time></trkpt><trkpt lat="34.27206349" lon="-6.6273825"><ele>84</ele><time>2018-08-25T19:50:19Z</time></trkpt><trkpt lat="34.27207613" lon="-6.62730628"><ele>85</ele><time>2018-08-25T19:50:20Z</time></trkpt><trkpt lat="34.27208549" lon="-6.62720674"><ele>85</ele><time>2018-08-25T19:50:21Z</time></trkpt><trkpt lat="34.27209539" lon="-6.62713729"><ele>82</ele><time>2018-08-25T19:50:22Z</time></trkpt><trkpt lat="34.27210683" lon="-6.6270624"><ele>82</ele><time>2018-08-25T19:50:23Z</time></trkpt><trkpt lat="34.27212354" lon="-6.626989"><ele>82</ele><time>2018-08-25T19:50:24Z</time></trkpt><trkpt lat="34.27212366" lon="-6.62690006"><ele>82</ele><time>2018-08-25T19:50:25Z</time></trkpt><trkpt lat="34.27214223" lon="-6.62682581"><ele>81</ele><time>2018-08-25T19:50:26Z</time></trkpt><trkpt lat="34.27215342" lon="-6.62673908"><ele>82</ele><time>2018-08-25T19:50:27Z</time></trkpt><trkpt lat="34.2721695" lon="-6.6266676"><ele>82</ele><time>2018-08-25T19:50:28Z</time></trkpt><trkpt lat="34.27218745" lon="-6.62658747"><ele>82</ele><time>2018-08-25T19:50:29Z</time></trkpt><trkpt lat="34.27219928" lon="-6.62650892"><ele>83</ele><time>2018-08-25T19:50:30Z</time></trkpt><trkpt lat="34.27221602" lon="-6.6264167"><ele>84</ele><time>2018-08-25T19:50:31Z</time></trkpt><trkpt lat="34.27222567" lon="-6.62634679"><ele>83</ele><time>2018-08-25T19:50:32Z</time></trkpt><trkpt lat="34.27223469" lon="-6.6262719"><ele>83</ele><time>2018-08-25T19:50:33Z</time></trkpt><trkpt lat="34.27225318" lon="-6.6261909"><ele>83</ele><time>2018-08-25T19:50:34Z</time></trkpt><trkpt lat="34.27226226" lon="-6.62611329"><ele>83</ele><time>2018-08-25T19:50:35Z</time></trkpt><trkpt lat="34.27228381" lon="-6.62604172"><ele>83</ele><time>2018-08-25T19:50:36Z</time></trkpt><trkpt lat="34.2722935" lon="-6.62597921"><ele>82</ele><time>2018-08-25T19:50:37Z</time></trkpt><trkpt lat="34.27230838" lon="-6.62590995"><ele>80</ele><time>2018-08-25T19:50:38Z</time></trkpt><trkpt lat="34.27232317" lon="-6.62582704"><ele>80</ele><time>2018-08-25T19:50:39Z</time></trkpt><trkpt lat="34.27232441" lon="-6.62574271"><ele>80</ele><time>2018-08-25T19:50:40Z</time></trkpt><trkpt lat="34.27234059" lon="-6.62566418"><ele>79</ele><time>2018-08-25T19:50:41Z</time></trkpt><trkpt lat="34.27236373" lon="-6.62558866"><ele>78</ele><time>2018-08-25T19:50:42Z</time></trkpt><trkpt lat="34.27237073" lon="-6.62551807"><ele>78</ele><time>2018-08-25T19:50:43Z</time></trkpt><trkpt lat="34.27238231" lon="-6.6254415"><ele>79</ele><time>2018-08-25T19:50:44Z</time></trkpt><trkpt lat="34.27239641" lon="-6.62536552"><ele>80</ele><time>2018-08-25T19:50:45Z</time></trkpt><trkpt lat="34.27240435" lon="-6.62528917"><ele>80</ele><time>2018-08-25T19:50:46Z</time></trkpt><trkpt lat="34.27241372" lon="-6.62521543"><ele>81</ele><time>2018-08-25T19:50:47Z</time></trkpt><trkpt lat="34.27242791" lon="-6.62513698"><ele>82</ele><time>2018-08-25T19:50:48Z</time></trkpt><trkpt lat="34.27243726" lon="-6.62506783"><ele>81</ele><time>2018-08-25T19:50:49Z</time></trkpt><trkpt lat="34.27245042" lon="-6.62500286"><ele>82</ele><time>2018-08-25T19:50:50Z</time></trkpt><trkpt lat="34.27246151" lon="-6.62492707"><ele>85</ele><time>2018-08-25T19:50:51Z</time></trkpt><trkpt lat="34.27247454" lon="-6.6248461"><ele>87</ele><time>2018-08-25T19:50:52Z</time></trkpt><trkpt lat="34.27248985" lon="-6.62476953"><ele>87</ele><time>2018-08-25T19:50:53Z</time></trkpt><trkpt lat="34.27250086" lon="-6.6246978"><ele>87</ele><time>2018-08-25T19:50:54Z</time></trkpt><trkpt lat="34.27250734" lon="-6.62461082"><ele>87</ele><time>2018-08-25T19:50:55Z</time></trkpt><trkpt lat="34.27251992" lon="-6.62452908"><ele>87</ele><time>2018-08-25T19:50:56Z</time></trkpt><trkpt lat="34.27253839" lon="-6.62445838"><ele>88</ele><time>2018-08-25T19:50:57Z</time></trkpt><trkpt lat="34.27254947" lon="-6.6243778"><ele>87</ele><time>2018-08-25T19:50:58Z</time></trkpt><trkpt lat="34.27255753" lon="-6.62429234"><ele>87</ele><time>2018-08-25T19:50:59Z</time></trkpt><trkpt lat="34.27256841" lon="-6.62421515"><ele>87</ele><time>2018-08-25T19:51:00Z</time></trkpt><trkpt lat="34.27258144" lon="-6.62413894"><ele>86</ele><time>2018-08-25T19:51:01Z</time></trkpt><trkpt lat="34.27259661" lon="-6.62405786"><ele>87</ele><time>2018-08-25T19:51:02Z</time></trkpt><trkpt lat="34.2726086" lon="-6.62398283"><ele>87</ele><time>2018-08-25T19:51:03Z</time></trkpt><trkpt lat="34.27262356" lon="-6.62390875"><ele>86</ele><time>2018-08-25T19:51:04Z</time></trkpt><trkpt lat="34.27263197" lon="-6.62383423"><ele>87</ele><time>2018-08-25T19:51:05Z</time></trkpt><trkpt lat="34.27264295" lon="-6.62375951"><ele>88</ele><time>2018-08-25T19:51:06Z</time></trkpt><trkpt lat="34.27265401" lon="-6.62368617"><ele>88</ele><time>2018-08-25T19:51:07Z</time></trkpt><trkpt lat="34.27266322" lon="-6.62360721"><ele>88</ele><time>2018-08-25T19:51:08Z</time></trkpt><trkpt lat="34.27267686" lon="-6.62353414"><ele>88</ele><time>2018-08-25T19:51:09Z</time></trkpt><trkpt lat="34.2726964" lon="-6.623458"><ele>89</ele><time>2018-08-25T19:51:10Z</time></trkpt><trkpt lat="34.27270914" lon="-6.62338266"><ele>88</ele><time>2018-08-25T19:51:11Z</time></trkpt><trkpt lat="34.27271991" lon="-6.62330821"><ele>89</ele><time>2018-08-25T19:51:12Z</time></trkpt><trkpt lat="34.27272735" lon="-6.62322656"><ele>89</ele><time>2018-08-25T19:51:13Z</time></trkpt><trkpt lat="34.27273638" lon="-6.62314491"><ele>89</ele><time>2018-08-25T19:51:14Z</time></trkpt><trkpt lat="34.27274926" lon="-6.62306989"><ele>89</ele><time>2018-08-25T19:51:15Z</time></trkpt><trkpt lat="34.27276241" lon="-6.62299415"><ele>89</ele><time>2018-08-25T19:51:16Z</time></trkpt><trkpt lat="34.27277692" lon="-6.62291828"><ele>89</ele><time>2018-08-25T19:51:17Z</time></trkpt><trkpt lat="34.27278793" lon="-6.62284325"><ele>90</ele><time>2018-08-25T19:51:18Z</time></trkpt><trkpt lat="34.27281407" lon="-6.622774"><ele>90</ele><time>2018-08-25T19:51:19Z</time></trkpt><trkpt lat="34.27282344" lon="-6.62269999"><ele>90</ele><time>2018-08-25T19:51:20Z</time></trkpt><trkpt lat="34.27283628" lon="-6.62262697"><ele>90</ele><time>2018-08-25T19:51:21Z</time></trkpt><trkpt lat="34.27284837" lon="-6.62255689"><ele>89</ele><time>2018-08-25T19:51:22Z</time></trkpt><trkpt lat="34.2728567" lon="-6.62247693"><ele>90</ele><time>2018-08-25T19:51:23Z</time></trkpt><trkpt lat="34.27286248" lon="-6.62239641"><ele>90</ele><time>2018-08-25T19:51:24Z</time></trkpt><trkpt lat="34.27287083" lon="-6.62231301"><ele>90</ele><time>2018-08-25T19:51:25Z</time></trkpt><trkpt lat="34.27288655" lon="-6.62223213"><ele>90</ele><time>2018-08-25T19:51:26Z</time></trkpt><trkpt lat="34.27289829" lon="-6.62218362"><ele>90</ele><time>2018-08-25T19:51:27Z</time></trkpt><trkpt lat="34.27291081" lon="-6.62212059"><ele>88</ele><time>2018-08-25T19:51:28Z</time></trkpt><trkpt lat="34.27292013" lon="-6.62206418"><ele>88</ele><time>2018-08-25T19:51:29Z</time></trkpt><trkpt lat="34.27292249" lon="-6.62199079"><ele>88</ele><time>2018-08-25T19:51:30Z</time></trkpt><trkpt lat="34.27292695" lon="-6.62193143"><ele>88</ele><time>2018-08-25T19:51:31Z</time></trkpt><trkpt lat="34.27293718" lon="-6.62186143"><ele>88</ele><time>2018-08-25T19:51:32Z</time></trkpt><trkpt lat="34.27293784" lon="-6.62180505"><ele>87</ele><time>2018-08-25T19:51:33Z</time></trkpt><trkpt lat="34.27293378" lon="-6.62174166"><ele>89</ele><time>2018-08-25T19:51:34Z</time></trkpt><trkpt lat="34.27291511" lon="-6.6216652"><ele>88</ele><time>2018-08-25T19:51:35Z</time></trkpt><trkpt lat="34.27287974" lon="-6.62160466"><ele>87</ele><time>2018-08-25T19:51:36Z</time></trkpt><trkpt lat="34.27283813" lon="-6.6215493"><ele>86</ele><time>2018-08-25T19:51:37Z</time></trkpt><trkpt lat="34.2728022" lon="-6.62150509"><ele>86</ele><time>2018-08-25T19:51:38Z</time></trkpt><trkpt lat="34.27276159" lon="-6.62145399"><ele>86</ele><time>2018-08-25T19:51:39Z</time></trkpt><trkpt lat="34.27273705" lon="-6.62139371"><ele>86</ele><time>2018-08-25T19:51:40Z</time></trkpt><trkpt lat="34.27272046" lon="-6.6213385"><ele>85</ele><time>2018-08-25T19:51:41Z</time></trkpt><trkpt lat="34.27271371" lon="-6.6212668"><ele>85</ele><time>2018-08-25T19:51:42Z</time></trkpt><trkpt lat="34.27274504" lon="-6.62121925"><ele>85</ele><time>2018-08-25T19:51:43Z</time></trkpt><trkpt lat="34.27278201" lon="-6.62117229"><ele>86</ele><time>2018-08-25T19:51:44Z</time></trkpt><trkpt lat="34.27283645" lon="-6.62113452"><ele>88</ele><time>2018-08-25T19:51:45Z</time></trkpt><trkpt lat="34.27289248" lon="-6.62110016"><ele>89</ele><time>2018-08-25T19:51:46Z</time></trkpt><trkpt lat="34.27296032" lon="-6.62106263"><ele>88</ele><time>2018-08-25T19:51:47Z</time></trkpt><trkpt lat="34.27300004" lon="-6.62102457"><ele>87</ele><time>2018-08-25T19:51:48Z</time></trkpt><trkpt lat="34.27302879" lon="-6.620978"><ele>85</ele><time>2018-08-25T19:51:49Z</time></trkpt><trkpt lat="34.27304585" lon="-6.62091001"><ele>88</ele><time>2018-08-25T19:51:50Z</time></trkpt><trkpt lat="34.27307855" lon="-6.62084365"><ele>87</ele><time>2018-08-25T19:51:51Z</time></trkpt><trkpt lat="34.27310968" lon="-6.62077057"><ele>88</ele><time>2018-08-25T19:51:53Z</time></trkpt><trkpt lat="34.273143" lon="-6.62061148"><ele>89</ele><time>2018-08-25T19:51:54Z</time></trkpt><trkpt lat="34.27315443" lon="-6.62052831"><ele>89</ele><time>2018-08-25T19:51:55Z</time></trkpt><trkpt lat="34.27316644" lon="-6.62045263"><ele>90</ele><time>2018-08-25T19:51:56Z</time></trkpt><trkpt lat="34.27317812" lon="-6.62037853"><ele>90</ele><time>2018-08-25T19:51:57Z</time></trkpt><trkpt lat="34.27319007" lon="-6.62030969"><ele>91</ele><time>2018-08-25T19:51:58Z</time></trkpt><trkpt lat="34.27320811" lon="-6.62023727"><ele>91</ele><time>2018-08-25T19:51:59Z</time></trkpt><trkpt lat="34.27322629" lon="-6.62016859"><ele>92</ele><time>2018-08-25T19:52:00Z</time></trkpt><trkpt lat="34.27323181" lon="-6.62008653"><ele>93</ele><time>2018-08-25T19:52:01Z</time></trkpt><trkpt lat="34.27324665" lon="-6.62001574"><ele>93</ele><time>2018-08-25T19:52:02Z</time></trkpt><trkpt lat="34.27327193" lon="-6.61994412"><ele>92</ele><time>2018-08-25T19:52:03Z</time></trkpt><trkpt lat="34.27327653" lon="-6.61986343"><ele>92</ele><time>2018-08-25T19:52:04Z</time></trkpt><trkpt lat="34.27329183" lon="-6.61979466"><ele>92</ele><time>2018-08-25T19:52:05Z</time></trkpt><trkpt lat="34.27330055" lon="-6.6197174"><ele>91</ele><time>2018-08-25T19:52:06Z</time></trkpt><trkpt lat="34.27331795" lon="-6.61964894"><ele>92</ele><time>2018-08-25T19:52:07Z</time></trkpt><trkpt lat="34.27332967" lon="-6.61958612"><ele>91</ele><time>2018-08-25T19:52:08Z</time></trkpt><trkpt lat="34.27334539" lon="-6.61951767"><ele>90</ele><time>2018-08-25T19:52:09Z</time></trkpt><trkpt lat="34.27335264" lon="-6.61944184"><ele>91</ele><time>2018-08-25T19:52:10Z</time></trkpt><trkpt lat="34.2733646" lon="-6.61936279"><ele>91</ele><time>2018-08-25T19:52:11Z</time></trkpt><trkpt lat="34.27337502" lon="-6.61930438"><ele>91</ele><time>2018-08-25T19:52:12Z</time></trkpt><trkpt lat="34.27338908" lon="-6.61924598"><ele>91</ele><time>2018-08-25T19:52:13Z</time></trkpt><trkpt lat="34.27340045" lon="-6.61918108"><ele>91</ele><time>2018-08-25T19:52:14Z</time></trkpt><trkpt lat="34.27341568" lon="-6.619114"><ele>92</ele><time>2018-08-25T19:52:15Z</time></trkpt><trkpt lat="34.27342312" lon="-6.61905536"><ele>93</ele><time>2018-08-25T19:52:16Z</time></trkpt><trkpt lat="34.27343445" lon="-6.61898902"><ele>94</ele><time>2018-08-25T19:52:17Z</time></trkpt><trkpt lat="34.27344675" lon="-6.61891293"><ele>94</ele><time>2018-08-25T19:52:18Z</time></trkpt><trkpt lat="34.27346181" lon="-6.61883619"><ele>93</ele><time>2018-08-25T19:52:19Z</time></trkpt><trkpt lat="34.27347721" lon="-6.61877602"><ele>94</ele><time>2018-08-25T19:52:20Z</time></trkpt><trkpt lat="34.27349722" lon="-6.61871232"><ele>94</ele><time>2018-08-25T19:52:21Z</time></trkpt><trkpt lat="34.2735161" lon="-6.61864371"><ele>93</ele><time>2018-08-25T19:52:22Z</time></trkpt><trkpt lat="34.27353081" lon="-6.61856537"><ele>94</ele><time>2018-08-25T19:52:23Z</time></trkpt><trkpt lat="34.27353505" lon="-6.61848503"><ele>94</ele><time>2018-08-25T19:52:24Z</time></trkpt><trkpt lat="34.27354875" lon="-6.61840486"><ele>95</ele><time>2018-08-25T19:52:25Z</time></trkpt><trkpt lat="34.27355865" lon="-6.61833249"><ele>94</ele><time>2018-08-25T19:52:26Z</time></trkpt><trkpt lat="34.27357401" lon="-6.61825869"><ele>96</ele><time>2018-08-25T19:52:27Z</time></trkpt><trkpt lat="34.27359513" lon="-6.61817823"><ele>96</ele><time>2018-08-25T19:52:28Z</time></trkpt><trkpt lat="34.27361679" lon="-6.61809826"><ele>96</ele><time>2018-08-25T19:52:29Z</time></trkpt><trkpt lat="34.27364404" lon="-6.61802226"><ele>95</ele><time>2018-08-25T19:52:30Z</time></trkpt><trkpt lat="34.27365955" lon="-6.61793309"><ele>95</ele><time>2018-08-25T19:52:31Z</time></trkpt><trkpt lat="34.27367653" lon="-6.61784241"><ele>94</ele><time>2018-08-25T19:52:32Z</time></trkpt><trkpt lat="34.27370026" lon="-6.61777454"><ele>93</ele><time>2018-08-25T19:52:33Z</time></trkpt><trkpt lat="34.2737261" lon="-6.61768937"><ele>92</ele><time>2018-08-25T19:52:34Z</time></trkpt><trkpt lat="34.27374218" lon="-6.6176022"><ele>92</ele><time>2018-08-25T19:52:35Z</time></trkpt><trkpt lat="34.27376938" lon="-6.61753048"><ele>92</ele><time>2018-08-25T19:52:36Z</time></trkpt><trkpt lat="34.27378666" lon="-6.61744836"><ele>92</ele><time>2018-08-25T19:52:37Z</time></trkpt><trkpt lat="34.27380852" lon="-6.61736481"><ele>92</ele><time>2018-08-25T19:52:38Z</time></trkpt><trkpt lat="34.27382873" lon="-6.61729217"><ele>91</ele><time>2018-08-25T19:52:39Z</time></trkpt><trkpt lat="34.27385091" lon="-6.6172111"><ele>90</ele><time>2018-08-25T19:52:40Z</time></trkpt><trkpt lat="34.27386622" lon="-6.61713733"><ele>90</ele><time>2018-08-25T19:52:41Z</time></trkpt><trkpt lat="34.27388892" lon="-6.61704775"><ele>91</ele><time>2018-08-25T19:52:42Z</time></trkpt><trkpt lat="34.27390712" lon="-6.61696898"><ele>91</ele><time>2018-08-25T19:52:43Z</time></trkpt><trkpt lat="34.2739272" lon="-6.61689239"><ele>92</ele><time>2018-08-25T19:52:44Z</time></trkpt><trkpt lat="34.27394595" lon="-6.61680838"><ele>93</ele><time>2018-08-25T19:52:45Z</time></trkpt><trkpt lat="34.273964" lon="-6.61671932"><ele>93</ele><time>2018-08-25T19:52:46Z</time></trkpt><trkpt lat="34.27399568" lon="-6.61664502"><ele>94</ele><time>2018-08-25T19:52:47Z</time></trkpt><trkpt lat="34.27401581" lon="-6.61655851"><ele>93</ele><time>2018-08-25T19:52:48Z</time></trkpt><trkpt lat="34.27403361" lon="-6.61647615"><ele>92</ele><time>2018-08-25T19:52:49Z</time></trkpt><trkpt lat="34.2740497" lon="-6.61639032"><ele>92</ele><time>2018-08-25T19:52:50Z</time></trkpt><trkpt lat="34.27407441" lon="-6.61630238"><ele>91</ele><time>2018-08-25T19:52:51Z</time></trkpt><trkpt lat="34.27408831" lon="-6.61621044"><ele>92</ele><time>2018-08-25T19:52:52Z</time></trkpt><trkpt lat="34.27410608" lon="-6.61613628"><ele>92</ele><time>2018-08-25T19:52:53Z</time></trkpt><trkpt lat="34.27412489" lon="-6.61604883"><ele>93</ele><time>2018-08-25T19:52:54Z</time></trkpt><trkpt lat="34.27415198" lon="-6.61596014"><ele>93</ele><time>2018-08-25T19:52:55Z</time></trkpt><trkpt lat="34.27416759" lon="-6.61587075"><ele>93</ele><time>2018-08-25T19:52:56Z</time></trkpt><trkpt lat="34.27418952" lon="-6.61578985"><ele>93</ele><time>2018-08-25T19:52:57Z</time></trkpt><trkpt lat="34.27421466" lon="-6.61570365"><ele>92</ele><time>2018-08-25T19:52:58Z</time></trkpt><trkpt lat="34.27424206" lon="-6.61562126"><ele>93</ele><time>2018-08-25T19:52:59Z</time></trkpt><trkpt lat="34.27425989" lon="-6.61553267"><ele>94</ele><time>2018-08-25T19:53:00Z</time></trkpt><trkpt lat="34.27428113" lon="-6.61543642"><ele>94</ele><time>2018-08-25T19:53:01Z</time></trkpt><trkpt lat="34.2743029" lon="-6.61534781"><ele>95</ele><time>2018-08-25T19:53:02Z</time></trkpt><trkpt lat="34.274329" lon="-6.61526329"><ele>95</ele><time>2018-08-25T19:53:03Z</time></trkpt><trkpt lat="34.27435164" lon="-6.61516404"><ele>95</ele><time>2018-08-25T19:53:04Z</time></trkpt><trkpt lat="34.27437571" lon="-6.61507776"><ele>94</ele><time>2018-08-25T19:53:05Z</time></trkpt><trkpt lat="34.27439643" lon="-6.61498573"><ele>94</ele><time>2018-08-25T19:53:06Z</time></trkpt><trkpt lat="34.27441976" lon="-6.61489826"><ele>94</ele><time>2018-08-25T19:53:07Z</time></trkpt><trkpt lat="34.27443306" lon="-6.61479684"><ele>96</ele><time>2018-08-25T19:53:08Z</time></trkpt><trkpt lat="34.27445229" lon="-6.61470584"><ele>96</ele><time>2018-08-25T19:53:09Z</time></trkpt><trkpt lat="34.27447748" lon="-6.61461387"><ele>96</ele><time>2018-08-25T19:53:10Z</time></trkpt><trkpt lat="34.27449308" lon="-6.61451522"><ele>95</ele><time>2018-08-25T19:53:11Z</time></trkpt><trkpt lat="34.27451446" lon="-6.61442372"><ele>95</ele><time>2018-08-25T19:53:12Z</time></trkpt><trkpt lat="34.27454066" lon="-6.61433735"><ele>97</ele><time>2018-08-25T19:53:13Z</time></trkpt><trkpt lat="34.27456834" lon="-6.6142474"><ele>97</ele><time>2018-08-25T19:53:14Z</time></trkpt><trkpt lat="34.27459652" lon="-6.61416025"><ele>97</ele><time>2018-08-25T19:53:15Z</time></trkpt><trkpt lat="34.27461849" lon="-6.61406611"><ele>98</ele><time>2018-08-25T19:53:16Z</time></trkpt><trkpt lat="34.27462385" lon="-6.61395739"><ele>98</ele><time>2018-08-25T19:53:17Z</time></trkpt><trkpt lat="34.2746302" lon="-6.61387946"><ele>96</ele><time>2018-08-25T19:53:18Z</time></trkpt><trkpt lat="34.27463616" lon="-6.61379406"><ele>96</ele><time>2018-08-25T19:53:19Z</time></trkpt><trkpt lat="34.27464143" lon="-6.6137103"><ele>97</ele><time>2018-08-25T19:53:20Z</time></trkpt><trkpt lat="34.27464107" lon="-6.61363986"><ele>95</ele><time>2018-08-25T19:53:21Z</time></trkpt><trkpt lat="34.2746416" lon="-6.6135782"><ele>95</ele><time>2018-08-25T19:53:22Z</time></trkpt><trkpt lat="34.27466026" lon="-6.61352767"><ele>96</ele><time>2018-08-25T19:53:23Z</time></trkpt><trkpt lat="34.27469622" lon="-6.61347513"><ele>97</ele><time>2018-08-25T19:53:24Z</time></trkpt><trkpt lat="34.27474734" lon="-6.61345616"><ele>97</ele><time>2018-08-25T19:53:25Z</time></trkpt><trkpt lat="34.27479851" lon="-6.61344359"><ele>98</ele><time>2018-08-25T19:53:26Z</time></trkpt><trkpt lat="34.27485321" lon="-6.61341938"><ele>98</ele><time>2018-08-25T19:53:27Z</time></trkpt><trkpt lat="34.27488436" lon="-6.61336611"><ele>98</ele><time>2018-08-25T19:53:28Z</time></trkpt><trkpt lat="34.27491863" lon="-6.61330504"><ele>98</ele><time>2018-08-25T19:53:29Z</time></trkpt><trkpt lat="34.27495365" lon="-6.61324316"><ele>97</ele><time>2018-08-25T19:53:30Z</time></trkpt><trkpt lat="34.27498613" lon="-6.61317231"><ele>97</ele><time>2018-08-25T19:53:31Z</time></trkpt><trkpt lat="34.27500975" lon="-6.61309717"><ele>96</ele><time>2018-08-25T19:53:32Z</time></trkpt><trkpt lat="34.27502978" lon="-6.61300768"><ele>97</ele><time>2018-08-25T19:53:33Z</time></trkpt><trkpt lat="34.27505387" lon="-6.61293838"><ele>97</ele><time>2018-08-25T19:53:34Z</time></trkpt><trkpt lat="34.27508289" lon="-6.61287605"><ele>97</ele><time>2018-08-25T19:53:35Z</time></trkpt><trkpt lat="34.2751142" lon="-6.61279917"><ele>97</ele><time>2018-08-25T19:53:36Z</time></trkpt><trkpt lat="34.27513946" lon="-6.61271617"><ele>98</ele><time>2018-08-25T19:53:37Z</time></trkpt><trkpt lat="34.2751745" lon="-6.61262817"><ele>97</ele><time>2018-08-25T19:53:38Z</time></trkpt><trkpt lat="34.27521512" lon="-6.61255139"><ele>96</ele><time>2018-08-25T19:53:39Z</time></trkpt><trkpt lat="34.27525361" lon="-6.61249342"><ele>96</ele><time>2018-08-25T19:53:40Z</time></trkpt><trkpt lat="34.27528502" lon="-6.61242296"><ele>95</ele><time>2018-08-25T19:53:41Z</time></trkpt><trkpt lat="34.27532244" lon="-6.61234981"><ele>93</ele><time>2018-08-25T19:53:42Z</time></trkpt><trkpt lat="34.27535972" lon="-6.61226744"><ele>94</ele><time>2018-08-25T19:53:43Z</time></trkpt><trkpt lat="34.27539096" lon="-6.6121943"><ele>94</ele><time>2018-08-25T19:53:44Z</time></trkpt><trkpt lat="34.27541677" lon="-6.61212065"><ele>95</ele><time>2018-08-25T19:53:45Z</time></trkpt><trkpt lat="34.27352193" lon="-6.59850717"><ele>57</ele><time>2018-08-25T19:58:57Z</time></trkpt><trkpt lat="34.27354647" lon="-6.59846312"><ele>61</ele><time>2018-08-25T19:58:58Z</time></trkpt><trkpt lat="34.27358907" lon="-6.59842685"><ele>62</ele><time>2018-08-25T19:58:59Z</time></trkpt><trkpt lat="34.2736068" lon="-6.59840473"><ele>60</ele><time>2018-08-25T19:59:00Z</time></trkpt><trkpt lat="34.27364655" lon="-6.59836767"><ele>60</ele><time>2018-08-25T19:59:01Z</time></trkpt><trkpt lat="34.27370281" lon="-6.59832365"><ele>61</ele><time>2018-08-25T19:59:02Z</time></trkpt><trkpt lat="34.27373789" lon="-6.59826413"><ele>60</ele><time>2018-08-25T19:59:03Z</time></trkpt><trkpt lat="34.27377124" lon="-6.598217"><ele>60</ele><time>2018-08-25T19:59:04Z</time></trkpt><trkpt lat="34.27380771" lon="-6.5981693"><ele>60</ele><time>2018-08-25T19:59:05Z</time></trkpt><trkpt lat="34.27386357" lon="-6.59812435"><ele>59</ele><time>2018-08-25T19:59:06Z</time></trkpt><trkpt lat="34.27389893" lon="-6.59806811"><ele>59</ele><time>2018-08-25T19:59:07Z</time></trkpt><trkpt lat="34.27394211" lon="-6.59801901"><ele>59</ele><time>2018-08-25T19:59:08Z</time></trkpt><trkpt lat="34.2739786" lon="-6.59796752"><ele>59</ele><time>2018-08-25T19:59:09Z</time></trkpt><trkpt lat="34.27402504" lon="-6.59790995"><ele>59</ele><time>2018-08-25T19:59:10Z</time></trkpt><trkpt lat="34.27406583" lon="-6.5978678"><ele>59</ele><time>2018-08-25T19:59:11Z</time></trkpt><trkpt lat="34.27411048" lon="-6.59782116"><ele>60</ele><time>2018-08-25T19:59:12Z</time></trkpt><trkpt lat="34.27414764" lon="-6.59777017"><ele>59</ele><time>2018-08-25T19:59:13Z</time></trkpt><trkpt lat="34.27417926" lon="-6.59772474"><ele>60</ele><time>2018-08-25T19:59:14Z</time></trkpt><trkpt lat="34.27421081" lon="-6.5976801"><ele>60</ele><time>2018-08-25T19:59:15Z</time></trkpt><trkpt lat="34.27424079" lon="-6.59763937"><ele>63</ele><time>2018-08-25T19:59:16Z</time></trkpt><trkpt lat="34.2743033" lon="-6.59757402"><ele>64</ele><time>2018-08-25T19:59:17Z</time></trkpt><trkpt lat="34.27434324" lon="-6.5975213"><ele>65</ele><time>2018-08-25T19:59:18Z</time></trkpt><trkpt lat="34.27437082" lon="-6.59746293"><ele>68</ele><time>2018-08-25T19:59:19Z</time></trkpt><trkpt lat="34.27441242" lon="-6.59740823"><ele>68</ele><time>2018-08-25T19:59:20Z</time></trkpt><trkpt lat="34.27444648" lon="-6.59737423"><ele>69</ele><time>2018-08-25T19:59:21Z</time></trkpt><trkpt lat="34.27448691" lon="-6.59733312"><ele>70</ele><time>2018-08-25T19:59:22Z</time></trkpt><trkpt lat="34.27453229" lon="-6.59728479"><ele>72</ele><time>2018-08-25T19:59:23Z</time></trkpt><trkpt lat="34.27457525" lon="-6.59723995"><ele>74</ele><time>2018-08-25T19:59:24Z</time></trkpt><trkpt lat="34.27461654" lon="-6.59719904"><ele>75</ele><time>2018-08-25T19:59:25Z</time></trkpt><trkpt lat="34.27468536" lon="-6.5971235"><ele>75</ele><time>2018-08-25T19:59:26Z</time></trkpt><trkpt lat="34.2747423" lon="-6.59708465"><ele>74</ele><time>2018-08-25T19:59:27Z</time></trkpt><trkpt lat="34.27479638" lon="-6.59704202"><ele>75</ele><time>2018-08-25T19:59:28Z</time></trkpt><trkpt lat="34.27484476" lon="-6.59703372"><ele>75</ele><time>2018-08-25T19:59:29Z</time></trkpt><trkpt lat="34.27490782" lon="-6.59698234"><ele>76</ele><time>2018-08-25T19:59:30Z</time></trkpt><trkpt lat="34.27496601" lon="-6.59694252"><ele>76</ele><time>2018-08-25T19:59:31Z</time></trkpt><trkpt lat="34.27501247" lon="-6.59689264"><ele>76</ele><time>2018-08-25T19:59:32Z</time></trkpt><trkpt lat="34.27505592" lon="-6.59683963"><ele>73</ele><time>2018-08-25T19:59:33Z</time></trkpt><trkpt lat="34.27512049" lon="-6.59676977"><ele>71</ele><time>2018-08-25T19:59:34Z</time></trkpt><trkpt lat="34.27516905" lon="-6.59672741"><ele>70</ele><time>2018-08-25T19:59:35Z</time></trkpt><trkpt lat="34.27521986" lon="-6.59668259"><ele>72</ele><time>2018-08-25T19:59:36Z</time></trkpt><trkpt lat="34.2752882" lon="-6.59665"><ele>72</ele><time>2018-08-25T19:59:37Z</time></trkpt><trkpt lat="34.27533794" lon="-6.59660144"><ele>71</ele><time>2018-08-25T19:59:38Z</time></trkpt><trkpt lat="34.27537278" lon="-6.59653664"><ele>71</ele><time>2018-08-25T19:59:39Z</time></trkpt><trkpt lat="34.27543669" lon="-6.59648957"><ele>68</ele><time>2018-08-25T19:59:40Z</time></trkpt><trkpt lat="34.27546814" lon="-6.59643605"><ele>68</ele><time>2018-08-25T19:59:41Z</time></trkpt><trkpt lat="34.27551857" lon="-6.59639214"><ele>67</ele><time>2018-08-25T19:59:42Z</time></trkpt><trkpt lat="34.27558351" lon="-6.59631325"><ele>69</ele><time>2018-08-25T19:59:43Z</time></trkpt><trkpt lat="34.27563937" lon="-6.59627102"><ele>64</ele><time>2018-08-25T19:59:44Z</time></trkpt><trkpt lat="34.27570253" lon="-6.59623051"><ele>64</ele><time>2018-08-25T19:59:45Z</time></trkpt><trkpt lat="34.27575569" lon="-6.59617942"><ele>64</ele><time>2018-08-25T19:59:46Z</time></trkpt><trkpt lat="34.27581709" lon="-6.59612409"><ele>64</ele><time>2018-08-25T19:59:47Z</time></trkpt><trkpt lat="34.27588166" lon="-6.5960866"><ele>63</ele><time>2018-08-25T19:59:48Z</time></trkpt><trkpt lat="34.27593808" lon="-6.59605176"><ele>62</ele><time>2018-08-25T19:59:49Z</time></trkpt><trkpt lat="34.27599812" lon="-6.59600344"><ele>62</ele><time>2018-08-25T19:59:50Z</time></trkpt><trkpt lat="34.27605909" lon="-6.59595569"><ele>61</ele><time>2018-08-25T19:59:51Z</time></trkpt><trkpt lat="34.27611685" lon="-6.5959091"><ele>61</ele><time>2018-08-25T19:59:52Z</time></trkpt><trkpt lat="34.2761675" lon="-6.59586258"><ele>64</ele><time>2018-08-25T19:59:53Z</time></trkpt><trkpt lat="34.27621985" lon="-6.59581754"><ele>64</ele><time>2018-08-25T19:59:54Z</time></trkpt><trkpt lat="34.27626229" lon="-6.59575326"><ele>64</ele><time>2018-08-25T19:59:55Z</time></trkpt><trkpt lat="34.27631327" lon="-6.59572561"><ele>62</ele><time>2018-08-25T19:59:56Z</time></trkpt><trkpt lat="34.27636839" lon="-6.59571755"><ele>62</ele><time>2018-08-25T19:59:57Z</time></trkpt><trkpt lat="34.27643336" lon="-6.59567335"><ele>65</ele><time>2018-08-25T19:59:58Z</time></trkpt><trkpt lat="34.27649364" lon="-6.59562802"><ele>65</ele><time>2018-08-25T19:59:59Z</time></trkpt><trkpt lat="34.27655288" lon="-6.59558304"><ele>65</ele><time>2018-08-25T20:00:00Z</time></trkpt><trkpt lat="34.27660758" lon="-6.59551711"><ele>65</ele><time>2018-08-25T20:00:01Z</time></trkpt><trkpt lat="34.27669325" lon="-6.59546581"><ele>65</ele><time>2018-08-25T20:00:02Z</time></trkpt><trkpt lat="34.27674166" lon="-6.59541439"><ele>62</ele><time>2018-08-25T20:00:03Z</time></trkpt><trkpt lat="34.27679696" lon="-6.59537717"><ele>60</ele><time>2018-08-25T20:00:04Z</time></trkpt><trkpt lat="34.27685252" lon="-6.59533207"><ele>60</ele><time>2018-08-25T20:00:05Z</time></trkpt><trkpt lat="34.27691446" lon="-6.59528302"><ele>60</ele><time>2018-08-25T20:00:06Z</time></trkpt><trkpt lat="34.27698399" lon="-6.59522904"><ele>60</ele><time>2018-08-25T20:00:07Z</time></trkpt><trkpt lat="34.27704543" lon="-6.59520044"><ele>60</ele><time>2018-08-25T20:00:08Z</time></trkpt><trkpt lat="34.27710029" lon="-6.59515604"><ele>59</ele><time>2018-08-25T20:00:09Z</time></trkpt><trkpt lat="34.27713941" lon="-6.59512563"><ele>60</ele><time>2018-08-25T20:00:10Z</time></trkpt><trkpt lat="34.2771651" lon="-6.59509302"><ele>60</ele><time>2018-08-25T20:00:11Z</time></trkpt><trkpt lat="34.27719836" lon="-6.59503609"><ele>62</ele><time>2018-08-25T20:00:12Z</time></trkpt><trkpt lat="34.27722209" lon="-6.59497635"><ele>59</ele><time>2018-08-25T20:00:13Z</time></trkpt><trkpt lat="34.27723727" lon="-6.59488944"><ele>58</ele><time>2018-08-25T20:00:14Z</time></trkpt><trkpt lat="34.27723677" lon="-6.59480746"><ele>58</ele><time>2018-08-25T20:00:15Z</time></trkpt><trkpt lat="34.27723832" lon="-6.59472276"><ele>59</ele><time>2018-08-25T20:00:16Z</time></trkpt><trkpt lat="34.27724262" lon="-6.5946272"><ele>57</ele><time>2018-08-25T20:00:17Z</time></trkpt><trkpt lat="34.27722216" lon="-6.59454869"><ele>54</ele><time>2018-08-25T20:00:18Z</time></trkpt><trkpt lat="34.27720669" lon="-6.59446192"><ele>54</ele><time>2018-08-25T20:00:19Z</time></trkpt><trkpt lat="34.27721598" lon="-6.59436969"><ele>54</ele><time>2018-08-25T20:00:20Z</time></trkpt><trkpt lat="34.27720672" lon="-6.59428519"><ele>54</ele><time>2018-08-25T20:00:21Z</time></trkpt><trkpt lat="34.27720042" lon="-6.59419579"><ele>54</ele><time>2018-08-25T20:00:22Z</time></trkpt><trkpt lat="34.27717651" lon="-6.59410742"><ele>55</ele><time>2018-08-25T20:00:23Z</time></trkpt><trkpt lat="34.27716047" lon="-6.59400009"><ele>55</ele><time>2018-08-25T20:00:24Z</time></trkpt><trkpt lat="34.27715962" lon="-6.59390208"><ele>54</ele><time>2018-08-25T20:00:25Z</time></trkpt><trkpt lat="34.27715168" lon="-6.59381196"><ele>53</ele><time>2018-08-25T20:00:26Z</time></trkpt><trkpt lat="34.27714074" lon="-6.59372313"><ele>53</ele><time>2018-08-25T20:00:27Z</time></trkpt><trkpt lat="34.2771263" lon="-6.59364207"><ele>51</ele><time>2018-08-25T20:00:28Z</time></trkpt><trkpt lat="34.27712026" lon="-6.59355588"><ele>51</ele><time>2018-08-25T20:00:29Z</time></trkpt><trkpt lat="34.27710343" lon="-6.59346585"><ele>51</ele><time>2018-08-25T20:00:30Z</time></trkpt><trkpt lat="34.27709049" lon="-6.59337624"><ele>50</ele><time>2018-08-25T20:00:31Z</time></trkpt><trkpt lat="34.2770871" lon="-6.59330883"><ele>49</ele><time>2018-08-25T20:00:32Z</time></trkpt><trkpt lat="34.27707316" lon="-6.59323545"><ele>50</ele><time>2018-08-25T20:00:33Z</time></trkpt><trkpt lat="34.2770546" lon="-6.59315391"><ele>50</ele><time>2018-08-25T20:00:34Z</time></trkpt><trkpt lat="34.27705465" lon="-6.59305616"><ele>51</ele><time>2018-08-25T20:00:35Z</time></trkpt><trkpt lat="34.27705293" lon="-6.59296513"><ele>53</ele><time>2018-08-25T20:00:36Z</time></trkpt><trkpt lat="34.27703835" lon="-6.59287527"><ele>52</ele><time>2018-08-25T20:00:37Z</time></trkpt><trkpt lat="34.27700596" lon="-6.59278812"><ele>50</ele><time>2018-08-25T20:00:38Z</time></trkpt><trkpt lat="34.27697854" lon="-6.59270882"><ele>49</ele><time>2018-08-25T20:00:39Z</time></trkpt><trkpt lat="34.27695133" lon="-6.59262667"><ele>49</ele><time>2018-08-25T20:00:40Z</time></trkpt><trkpt lat="34.27691551" lon="-6.59255536"><ele>49</ele><time>2018-08-25T20:00:41Z</time></trkpt><trkpt lat="34.27686886" lon="-6.59248086"><ele>50</ele><time>2018-08-25T20:00:42Z</time></trkpt><trkpt lat="34.27683011" lon="-6.59240624"><ele>50</ele><time>2018-08-25T20:00:43Z</time></trkpt><trkpt lat="34.27677243" lon="-6.59235293"><ele>50</ele><time>2018-08-25T20:00:44Z</time></trkpt><trkpt lat="34.27669402" lon="-6.59231612"><ele>50</ele><time>2018-08-25T20:00:45Z</time></trkpt><trkpt lat="34.27663483" lon="-6.59227305"><ele>49</ele><time>2018-08-25T20:00:46Z</time></trkpt><trkpt lat="34.27656568" lon="-6.59219967"><ele>49</ele><time>2018-08-25T20:00:47Z</time></trkpt><trkpt lat="34.27648317" lon="-6.59217088"><ele>46</ele><time>2018-08-25T20:00:48Z</time></trkpt><trkpt lat="34.27642029" lon="-6.59217351"><ele>45</ele><time>2018-08-25T20:00:49Z</time></trkpt><trkpt lat="34.27634744" lon="-6.59213361"><ele>46</ele><time>2018-08-25T20:00:50Z</time></trkpt><trkpt lat="34.27628066" lon="-6.5921024"><ele>48</ele><time>2018-08-25T20:00:51Z</time></trkpt><trkpt lat="34.27622054" lon="-6.59206907"><ele>49</ele><time>2018-08-25T20:00:52Z</time></trkpt><trkpt lat="34.27615933" lon="-6.59204194"><ele>50</ele><time>2018-08-25T20:00:53Z</time></trkpt><trkpt lat="34.2760914" lon="-6.59203467"><ele>51</ele><time>2018-08-25T20:00:54Z</time></trkpt><trkpt lat="34.27602907" lon="-6.59201105"><ele>49</ele><time>2018-08-25T20:00:55Z</time></trkpt><trkpt lat="34.2759673" lon="-6.59197894"><ele>49</ele><time>2018-08-25T20:00:56Z</time></trkpt><trkpt lat="34.27590952" lon="-6.59197189"><ele>49</ele><time>2018-08-25T20:00:57Z</time></trkpt><trkpt lat="34.27583835" lon="-6.59194987"><ele>47</ele><time>2018-08-25T20:00:58Z</time></trkpt><trkpt lat="34.2757741" lon="-6.5919429"><ele>47</ele><time>2018-08-25T20:00:59Z</time></trkpt><trkpt lat="34.27570486" lon="-6.59189097"><ele>45</ele><time>2018-08-25T20:01:00Z</time></trkpt><trkpt lat="34.2756405" lon="-6.59186159"><ele>45</ele><time>2018-08-25T20:01:01Z</time></trkpt><trkpt lat="34.27556646" lon="-6.59182019"><ele>45</ele><time>2018-08-25T20:01:02Z</time></trkpt><trkpt lat="34.27548434" lon="-6.59178927"><ele>47</ele><time>2018-08-25T20:01:03Z</time></trkpt><trkpt lat="34.27542075" lon="-6.59176292"><ele>47</ele><time>2018-08-25T20:01:04Z</time></trkpt><trkpt lat="34.27535547" lon="-6.59173917"><ele>48</ele><time>2018-08-25T20:01:05Z</time></trkpt><trkpt lat="34.27528534" lon="-6.59170788"><ele>48</ele><time>2018-08-25T20:01:06Z</time></trkpt><trkpt lat="34.27521788" lon="-6.59168775"><ele>50</ele><time>2018-08-25T20:01:07Z</time></trkpt><trkpt lat="34.27515551" lon="-6.59165902"><ele>49</ele><time>2018-08-25T20:01:08Z</time></trkpt><trkpt lat="34.27509055" lon="-6.59163388"><ele>50</ele><time>2018-08-25T20:01:09Z</time></trkpt><trkpt lat="34.27502326" lon="-6.59160298"><ele>50</ele><time>2018-08-25T20:01:10Z</time></trkpt><trkpt lat="34.27495476" lon="-6.59158502"><ele>50</ele><time>2018-08-25T20:01:11Z</time></trkpt><trkpt lat="34.27488263" lon="-6.59156942"><ele>51</ele><time>2018-08-25T20:01:12Z</time></trkpt><trkpt lat="34.27481832" lon="-6.59154057"><ele>52</ele><time>2018-08-25T20:01:13Z</time></trkpt><trkpt lat="34.27475092" lon="-6.59150908"><ele>51</ele><time>2018-08-25T20:01:14Z</time></trkpt><trkpt lat="34.27468076" lon="-6.59148177"><ele>49</ele><time>2018-08-25T20:01:15Z</time></trkpt><trkpt lat="34.27461568" lon="-6.59146432"><ele>50</ele><time>2018-08-25T20:01:16Z</time></trkpt><trkpt lat="34.2745327" lon="-6.59143872"><ele>49</ele><time>2018-08-25T20:01:17Z</time></trkpt><trkpt lat="34.27445989" lon="-6.59141378"><ele>49</ele><time>2018-08-25T20:01:18Z</time></trkpt><trkpt lat="34.27440687" lon="-6.59141366"><ele>49</ele><time>2018-08-25T20:01:19Z</time></trkpt><trkpt lat="34.27430748" lon="-6.59139725"><ele>49</ele><time>2018-08-25T20:01:20Z</time></trkpt><trkpt lat="34.27422648" lon="-6.59136357"><ele>49</ele><time>2018-08-25T20:01:21Z</time></trkpt><trkpt lat="34.27414085" lon="-6.59136072"><ele>49</ele><time>2018-08-25T20:01:22Z</time></trkpt><trkpt lat="34.27407481" lon="-6.59134879"><ele>48</ele><time>2018-08-25T20:01:23Z</time></trkpt><trkpt lat="34.27401177" lon="-6.59135763"><ele>49</ele><time>2018-08-25T20:01:24Z</time></trkpt><trkpt lat="34.27393954" lon="-6.59137295"><ele>49</ele><time>2018-08-25T20:01:25Z</time></trkpt><trkpt lat="34.27387082" lon="-6.59137156"><ele>46</ele><time>2018-08-25T20:01:26Z</time></trkpt><trkpt lat="34.27379707" lon="-6.59136005"><ele>45</ele><time>2018-08-25T20:01:27Z</time></trkpt><trkpt lat="34.27372597" lon="-6.59136193"><ele>44</ele><time>2018-08-25T20:01:28Z</time></trkpt><trkpt lat="34.27366174" lon="-6.59134747"><ele>44</ele><time>2018-08-25T20:01:29Z</time></trkpt><trkpt lat="34.27358761" lon="-6.59135745"><ele>45</ele><time>2018-08-25T20:01:30Z</time></trkpt><trkpt lat="34.27351387" lon="-6.59134725"><ele>46</ele><time>2018-08-25T20:01:31Z</time></trkpt><trkpt lat="34.27344807" lon="-6.5913596"><ele>46</ele><time>2018-08-25T20:01:32Z</time></trkpt><trkpt lat="34.27337862" lon="-6.59136376"><ele>46</ele><time>2018-08-25T20:01:33Z</time></trkpt><trkpt lat="34.27326179" lon="-6.59138279"><ele>46</ele><time>2018-08-25T20:01:35Z</time></trkpt><trkpt lat="34.27320538" lon="-6.59138379"><ele>46</ele><time>2018-08-25T20:01:36Z</time></trkpt><trkpt lat="34.27314" lon="-6.59138045"><ele>46</ele><time>2018-08-25T20:01:37Z</time></trkpt><trkpt lat="34.27307905" lon="-6.59137976"><ele>47</ele><time>2018-08-25T20:01:38Z</time></trkpt><trkpt lat="34.27301581" lon="-6.5913797"><ele>47</ele><time>2018-08-25T20:01:39Z</time></trkpt><trkpt lat="34.27294339" lon="-6.59138312"><ele>48</ele><time>2018-08-25T20:01:40Z</time></trkpt><trkpt lat="34.27288168" lon="-6.59138196"><ele>48</ele><time>2018-08-25T20:01:41Z</time></trkpt><trkpt lat="34.27282625" lon="-6.59138507"><ele>48</ele><time>2018-08-25T20:01:42Z</time></trkpt><trkpt lat="34.27276576" lon="-6.5913865"><ele>49</ele><time>2018-08-25T20:01:43Z</time></trkpt><trkpt lat="34.27270643" lon="-6.59139866"><ele>49</ele><time>2018-08-25T20:01:44Z</time></trkpt><trkpt lat="34.27263749" lon="-6.59139964"><ele>48</ele><time>2018-08-25T20:01:45Z</time></trkpt><trkpt lat="34.27256474" lon="-6.59139941"><ele>48</ele><time>2018-08-25T20:01:46Z</time></trkpt><trkpt lat="34.27249938" lon="-6.5914039"><ele>46</ele><time>2018-08-25T20:01:47Z</time></trkpt><trkpt lat="34.27243712" lon="-6.591411"><ele>47</ele><time>2018-08-25T20:01:48Z</time></trkpt><trkpt lat="34.27237304" lon="-6.5914095"><ele>47</ele><time>2018-08-25T20:01:49Z</time></trkpt><trkpt lat="34.27229703" lon="-6.59140954"><ele>47</ele><time>2018-08-25T20:01:50Z</time></trkpt><trkpt lat="34.27222833" lon="-6.59140714"><ele>47</ele><time>2018-08-25T20:01:51Z</time></trkpt><trkpt lat="34.27216112" lon="-6.59141231"><ele>47</ele><time>2018-08-25T20:01:52Z</time></trkpt><trkpt lat="34.2720886" lon="-6.59141304"><ele>48</ele><time>2018-08-25T20:01:53Z</time></trkpt><trkpt lat="34.27202846" lon="-6.59140961"><ele>48</ele><time>2018-08-25T20:01:54Z</time></trkpt><trkpt lat="34.27195674" lon="-6.59140922"><ele>47</ele><time>2018-08-25T20:01:55Z</time></trkpt><trkpt lat="34.27188624" lon="-6.59140349"><ele>47</ele><time>2018-08-25T20:01:56Z</time></trkpt><trkpt lat="34.27182073" lon="-6.59140861"><ele>47</ele><time>2018-08-25T20:01:57Z</time></trkpt><trkpt lat="34.27175527" lon="-6.591406"><ele>47</ele><time>2018-08-25T20:01:58Z</time></trkpt><trkpt lat="34.27169314" lon="-6.59141225"><ele>47</ele><time>2018-08-25T20:01:59Z</time></trkpt><trkpt lat="34.27162458" lon="-6.59141578"><ele>46</ele><time>2018-08-25T20:02:00Z</time></trkpt><trkpt lat="34.27155898" lon="-6.59142004"><ele>46</ele><time>2018-08-25T20:02:01Z</time></trkpt><trkpt lat="34.27148857" lon="-6.59142925"><ele>47</ele><time>2018-08-25T20:02:02Z</time></trkpt><trkpt lat="34.2714197" lon="-6.59143631"><ele>46</ele><time>2018-08-25T20:02:03Z</time></trkpt><trkpt lat="34.2713537" lon="-6.59144285"><ele>45</ele><time>2018-08-25T20:02:04Z</time></trkpt><trkpt lat="34.27128501" lon="-6.59143846"><ele>44</ele><time>2018-08-25T20:02:05Z</time></trkpt><trkpt lat="34.27123446" lon="-6.5914446"><ele>45</ele><time>2018-08-25T20:02:06Z</time></trkpt><trkpt lat="34.27114621" lon="-6.59145731"><ele>47</ele><time>2018-08-25T20:02:07Z</time></trkpt><trkpt lat="34.27107803" lon="-6.59146259"><ele>44</ele><time>2018-08-25T20:02:08Z</time></trkpt><trkpt lat="34.27101365" lon="-6.59145656"><ele>44</ele><time>2018-08-25T20:02:09Z</time></trkpt><trkpt lat="34.27094399" lon="-6.59146152"><ele>43</ele><time>2018-08-25T20:02:10Z</time></trkpt><trkpt lat="34.27087779" lon="-6.5914547"><ele>43</ele><time>2018-08-25T20:02:11Z</time></trkpt><trkpt lat="34.27081553" lon="-6.59145826"><ele>44</ele><time>2018-08-25T20:02:12Z</time></trkpt><trkpt lat="34.27074903" lon="-6.59146332"><ele>43</ele><time>2018-08-25T20:02:13Z</time></trkpt><trkpt lat="34.2706782" lon="-6.59146549"><ele>44</ele><time>2018-08-25T20:02:14Z</time></trkpt><trkpt lat="34.27061406" lon="-6.59145482"><ele>44</ele><time>2018-08-25T20:02:15Z</time></trkpt><trkpt lat="34.27055518" lon="-6.59144452"><ele>46</ele><time>2018-08-25T20:02:16Z</time></trkpt><trkpt lat="34.27049575" lon="-6.59144388"><ele>47</ele><time>2018-08-25T20:02:17Z</time></trkpt><trkpt lat="34.27044553" lon="-6.59145428"><ele>47</ele><time>2018-08-25T20:02:18Z</time></trkpt><trkpt lat="34.2703908" lon="-6.59146895"><ele>45</ele><time>2018-08-25T20:02:19Z</time></trkpt><trkpt lat="34.27035557" lon="-6.5914654"><ele>44</ele><time>2018-08-25T20:02:20Z</time></trkpt><trkpt lat="34.27031927" lon="-6.59146938"><ele>44</ele><time>2018-08-25T20:02:21Z</time></trkpt><trkpt lat="34.27028554" lon="-6.59146755"><ele>44</ele><time>2018-08-25T20:02:22Z</time></trkpt><trkpt lat="34.27024152" lon="-6.59146946"><ele>44</ele><time>2018-08-25T20:02:23Z</time></trkpt><trkpt lat="34.27019824" lon="-6.5914627"><ele>43</ele><time>2018-08-25T20:02:24Z</time></trkpt><trkpt lat="34.27016115" lon="-6.59146747"><ele>45</ele><time>2018-08-25T20:02:25Z</time></trkpt><trkpt lat="34.27012566" lon="-6.59146883"><ele>46</ele><time>2018-08-25T20:02:26Z</time></trkpt><trkpt lat="34.27008292" lon="-6.59148756"><ele>46</ele><time>2018-08-25T20:02:27Z</time></trkpt><trkpt lat="34.27004684" lon="-6.59148751"><ele>45</ele><time>2018-08-25T20:02:28Z</time></trkpt><trkpt lat="34.27000952" lon="-6.59148336"><ele>44</ele><time>2018-08-25T20:02:29Z</time></trkpt><trkpt lat="34.26996355" lon="-6.59147223"><ele>44</ele><time>2018-08-25T20:02:30Z</time></trkpt><trkpt lat="34.26992062" lon="-6.59147896"><ele>45</ele><time>2018-08-25T20:02:31Z</time></trkpt><trkpt lat="34.26986648" lon="-6.59146796"><ele>45</ele><time>2018-08-25T20:02:32Z</time></trkpt><trkpt lat="34.26982945" lon="-6.59147459"><ele>46</ele><time>2018-08-25T20:02:33Z</time></trkpt><trkpt lat="34.26978127" lon="-6.5914895"><ele>47</ele><time>2018-08-25T20:02:34Z</time></trkpt><trkpt lat="34.26973813" lon="-6.59149278"><ele>48</ele><time>2018-08-25T20:02:35Z</time></trkpt><trkpt lat="34.26969081" lon="-6.59148955"><ele>47</ele><time>2018-08-25T20:02:36Z</time></trkpt><trkpt lat="34.2696409" lon="-6.59148103"><ele>49</ele><time>2018-08-25T20:02:37Z</time></trkpt><trkpt lat="34.26958867" lon="-6.59148828"><ele>49</ele><time>2018-08-25T20:02:38Z</time></trkpt><trkpt lat="34.26951149" lon="-6.59151238"><ele>50</ele><time>2018-08-25T20:02:39Z</time></trkpt><trkpt lat="34.26946179" lon="-6.591513"><ele>48</ele><time>2018-08-25T20:02:40Z</time></trkpt><trkpt lat="34.2694207" lon="-6.59151264"><ele>48</ele><time>2018-08-25T20:02:41Z</time></trkpt><trkpt lat="34.26937888" lon="-6.59150199"><ele>48</ele><time>2018-08-25T20:02:42Z</time></trkpt><trkpt lat="34.26933698" lon="-6.5915103"><ele>49</ele><time>2018-08-25T20:02:43Z</time></trkpt><trkpt lat="34.26929405" lon="-6.59151433"><ele>50</ele><time>2018-08-25T20:02:44Z</time></trkpt><trkpt lat="34.26921282" lon="-6.59151436"><ele>50</ele><time>2018-08-25T20:02:45Z</time></trkpt><trkpt lat="34.26915458" lon="-6.59149173"><ele>50</ele><time>2018-08-25T20:02:46Z</time></trkpt><trkpt lat="34.26910062" lon="-6.59149958"><ele>50</ele><time>2018-08-25T20:02:47Z</time></trkpt><trkpt lat="34.26903477" lon="-6.59149993"><ele>49</ele><time>2018-08-25T20:02:48Z</time></trkpt><trkpt lat="34.26897316" lon="-6.59151389"><ele>48</ele><time>2018-08-25T20:02:49Z</time></trkpt><trkpt lat="34.26891479" lon="-6.59152321"><ele>49</ele><time>2018-08-25T20:02:50Z</time></trkpt><trkpt lat="34.26887064" lon="-6.59152836"><ele>48</ele><time>2018-08-25T20:02:51Z</time></trkpt><trkpt lat="34.26882069" lon="-6.59155812"><ele>48</ele><time>2018-08-25T20:02:52Z</time></trkpt><trkpt lat="34.26877591" lon="-6.59156936"><ele>48</ele><time>2018-08-25T20:02:53Z</time></trkpt><trkpt lat="34.26872216" lon="-6.59154287"><ele>50</ele><time>2018-08-25T20:02:54Z</time></trkpt><trkpt lat="34.26864491" lon="-6.59154157"><ele>51</ele><time>2018-08-25T20:02:55Z</time></trkpt><trkpt lat="34.26859702" lon="-6.59152852"><ele>52</ele><time>2018-08-25T20:02:56Z</time></trkpt><trkpt lat="34.26854944" lon="-6.59151504"><ele>51</ele><time>2018-08-25T20:02:57Z</time></trkpt><trkpt lat="34.26849328" lon="-6.59151186"><ele>51</ele><time>2018-08-25T20:02:58Z</time></trkpt><trkpt lat="34.2684352" lon="-6.59150946"><ele>51</ele><time>2018-08-25T20:02:59Z</time></trkpt><trkpt lat="34.2683829" lon="-6.59148627"><ele>51</ele><time>2018-08-25T20:03:00Z</time></trkpt><trkpt lat="34.26833092" lon="-6.59145763"><ele>51</ele><time>2018-08-25T20:03:01Z</time></trkpt><trkpt lat="34.2682865" lon="-6.59143388"><ele>50</ele><time>2018-08-25T20:03:02Z</time></trkpt><trkpt lat="34.26823137" lon="-6.5914016"><ele>49</ele><time>2018-08-25T20:03:03Z</time></trkpt><trkpt lat="34.26817666" lon="-6.59137872"><ele>47</ele><time>2018-08-25T20:03:04Z</time></trkpt><trkpt lat="34.26808302" lon="-6.5913852"><ele>46</ele><time>2018-08-25T20:03:05Z</time></trkpt><trkpt lat="34.26802111" lon="-6.59137111"><ele>47</ele><time>2018-08-25T20:03:06Z</time></trkpt><trkpt lat="34.26797231" lon="-6.59134924"><ele>47</ele><time>2018-08-25T20:03:07Z</time></trkpt><trkpt lat="34.26792367" lon="-6.59132409"><ele>47</ele><time>2018-08-25T20:03:08Z</time></trkpt><trkpt lat="34.26786385" lon="-6.59128869"><ele>47</ele><time>2018-08-25T20:03:09Z</time></trkpt><trkpt lat="34.26779998" lon="-6.59126982"><ele>49</ele><time>2018-08-25T20:03:10Z</time></trkpt><trkpt lat="34.26774392" lon="-6.59126289"><ele>50</ele><time>2018-08-25T20:03:11Z</time></trkpt><trkpt lat="34.26768759" lon="-6.59124705"><ele>49</ele><time>2018-08-25T20:03:12Z</time></trkpt><trkpt lat="34.26764449" lon="-6.59121938"><ele>49</ele><time>2018-08-25T20:03:13Z</time></trkpt><trkpt lat="34.26758767" lon="-6.59120043"><ele>48</ele><time>2018-08-25T20:03:14Z</time></trkpt><trkpt lat="34.2675394" lon="-6.5911847"><ele>49</ele><time>2018-08-25T20:03:15Z</time></trkpt><trkpt lat="34.26750063" lon="-6.59117168"><ele>49</ele><time>2018-08-25T20:03:16Z</time></trkpt><trkpt lat="34.26747438" lon="-6.59115714"><ele>49</ele><time>2018-08-25T20:03:17Z</time></trkpt><trkpt lat="34.26745819" lon="-6.59114802"><ele>49</ele><time>2018-08-25T20:03:18Z</time></trkpt><trkpt lat="34.26743254" lon="-6.59114291"><ele>47</ele><time>2018-08-25T20:03:19Z</time></trkpt><trkpt lat="34.26742764" lon="-6.59113691"><ele>47</ele><time>2018-08-25T20:03:20Z</time></trkpt><trkpt lat="34.26742813" lon="-6.59114478"><ele>46</ele><time>2018-08-25T20:03:21Z</time></trkpt><trkpt lat="34.26741093" lon="-6.5911386"><ele>46</ele><time>2018-08-25T20:03:22Z</time></trkpt><trkpt lat="34.26738504" lon="-6.5911349"><ele>47</ele><time>2018-08-25T20:03:23Z</time></trkpt><trkpt lat="34.26735024" lon="-6.59114066"><ele>47</ele><time>2018-08-25T20:03:24Z</time></trkpt><trkpt lat="34.26731753" lon="-6.59113351"><ele>47</ele><time>2018-08-25T20:03:25Z</time></trkpt><trkpt lat="34.26728272" lon="-6.59114102"><ele>47</ele><time>2018-08-25T20:03:26Z</time></trkpt><trkpt lat="34.26724743" lon="-6.59113596"><ele>47</ele><time>2018-08-25T20:03:27Z</time></trkpt><trkpt lat="34.26721559" lon="-6.591129"><ele>47</ele><time>2018-08-25T20:03:28Z</time></trkpt><trkpt lat="34.26721" lon="-6.5910787"><ele>47</ele><time>2018-08-25T20:03:29Z</time></trkpt><trkpt lat="34.26719911" lon="-6.59105139"><ele>48</ele><time>2018-08-25T20:03:30Z</time></trkpt><trkpt lat="34.26717997" lon="-6.5910134"><ele>49</ele><time>2018-08-25T20:03:31Z</time></trkpt><trkpt lat="34.26715514" lon="-6.59096344"><ele>49</ele><time>2018-08-25T20:03:32Z</time></trkpt><trkpt lat="34.26713457" lon="-6.59091651"><ele>49</ele><time>2018-08-25T20:03:33Z</time></trkpt><trkpt lat="34.26710235" lon="-6.59088971"><ele>50</ele><time>2018-08-25T20:03:34Z</time></trkpt><trkpt lat="34.26707869" lon="-6.59085714"><ele>49</ele><time>2018-08-25T20:03:35Z</time></trkpt><trkpt lat="34.26701867" lon="-6.59085966"><ele>49</ele><time>2018-08-25T20:03:36Z</time></trkpt><trkpt lat="34.26698685" lon="-6.59085684"><ele>49</ele><time>2018-08-25T20:03:37Z</time></trkpt><trkpt lat="34.26695426" lon="-6.59089691"><ele>49</ele><time>2018-08-25T20:03:38Z</time></trkpt><trkpt lat="34.26692604" lon="-6.59090353"><ele>47</ele><time>2018-08-25T20:03:39Z</time></trkpt><trkpt lat="34.26690413" lon="-6.59092869"><ele>48</ele><time>2018-08-25T20:03:40Z</time></trkpt><trkpt lat="34.26687869" lon="-6.59093768"><ele>48</ele><time>2018-08-25T20:03:41Z</time></trkpt><trkpt lat="34.26684851" lon="-6.59095951"><ele>48</ele><time>2018-08-25T20:03:42Z</time></trkpt><trkpt lat="34.26682335" lon="-6.59097035"><ele>47</ele><time>2018-08-25T20:03:43Z</time></trkpt><trkpt lat="34.26680421" lon="-6.59098043"><ele>48</ele><time>2018-08-25T20:03:44Z</time></trkpt><trkpt lat="34.26679336" lon="-6.59099815"><ele>48</ele><time>2018-08-25T20:03:45Z</time></trkpt><trkpt lat="34.26677489" lon="-6.59102909"><ele>48</ele><time>2018-08-25T20:03:46Z</time></trkpt><trkpt lat="34.26675158" lon="-6.59103582"><ele>46</ele><time>2018-08-25T20:03:48Z</time></trkpt><trkpt lat="34.26675125" lon="-6.5910544"><ele>44</ele><time>2018-08-25T20:03:49Z</time></trkpt><trkpt lat="34.26673828" lon="-6.59108385"><ele>44</ele><time>2018-08-25T20:03:50Z</time></trkpt><trkpt lat="34.26674392" lon="-6.59109203"><ele>44</ele><time>2018-08-25T20:03:51Z</time></trkpt><trkpt lat="34.26674591" lon="-6.59108706"><ele>44</ele><time>2018-08-25T20:03:52Z</time></trkpt><trkpt lat="34.26674196" lon="-6.59109385"><ele>43</ele><time>2018-08-25T20:03:53Z</time></trkpt><trkpt lat="34.26673435" lon="-6.59110019"><ele>41</ele><time>2018-08-25T20:03:54Z</time></trkpt></trkseg></trk></gpx>